<?xml version="1.0" encoding="UTF-8"?>
<gpx version="1.1" creator="2bulu-scraper" xmlns="http://www.topografix.com/GPX/1/1">
  <metadata><name>乐山峨眉山市</name><desc>source: 2bulu.com trackId=83768294; exported 2026-09-01T17:24:14.601Z</desc>
    <bounds minlat="29.5238893" minlon="103.3268042" maxlat="29.574192" maxlon="103.4440197"/>
    <link href="https://www.2bulu.com/track/t-5Cj%252Brt7s0hPp%252FR2KBg5Tzw%253D%253D.htm"><text>2bulu 源页面</text></link>
  </metadata>
  <wpt lat="29.5690205" lon="103.4411108"><ele>483</ele><name>
        </name></wpt>
  <wpt lat="29.569015" lon="103.4409869"><ele>485</ele><name>
        </name></wpt>
  <wpt lat="29.5659254" lon="103.4354304"><ele>527</ele><name>
        </name></wpt>
  <wpt lat="29.5656914" lon="103.4342427"><ele>543</ele><name>
        </name></wpt>
  <wpt lat="29.5654618" lon="103.4314404"><ele>570</ele><name>
        </name></wpt>
  <wpt lat="29.5649248" lon="103.4267096"><ele>607</ele><name>
        </name></wpt>
  <wpt lat="29.5653118" lon="103.4212657"><ele>789</ele><name>
        </name></wpt>
  <wpt lat="29.5694711" lon="103.4195927"><ele>890</ele><name>
        </name></wpt>
  <wpt lat="29.566683" lon="103.4079324"><ele>768</ele><name>
        </name></wpt>
  <wpt lat="29.571232" lon="103.4024087"><ele>729</ele><name>
        </name></wpt>
  <wpt lat="29.5720161" lon="103.4013318"><ele>729</ele><name>
        </name></wpt>
  <wpt lat="29.5735989" lon="103.3935208"><ele>684</ele><name>
        </name></wpt>
  <wpt lat="29.574192" lon="103.3923422"><ele>653</ele><name>
        </name></wpt>
  <wpt lat="29.5741444" lon="103.3921093"><ele>655</ele><name>
        </name></wpt>
  <wpt lat="29.5735491" lon="103.3919277"><ele>653</ele><name>
        </name></wpt>
  <wpt lat="29.5735253" lon="103.3918635"><ele>657</ele><name>
        </name></wpt>
  <wpt lat="29.5705947" lon="103.3915442"><ele>670</ele><name>
        </name></wpt>
  <wpt lat="29.5693865" lon="103.3909582"><ele>667</ele><name>
        </name></wpt>
  <wpt lat="29.5685263" lon="103.3908778"><ele>674</ele><name>
        </name></wpt>
  <wpt lat="29.565998" lon="103.3897105"><ele>717</ele><name>
        </name></wpt>
  <wpt lat="29.5645083" lon="103.3890791"><ele>714</ele><name>
        </name></wpt>
  <wpt lat="29.5568368" lon="103.3860391"><ele>787</ele><name>
        </name></wpt>
  <wpt lat="29.556562" lon="103.3861248"><ele>787</ele><name>
        </name></wpt>
  <wpt lat="29.5550239" lon="103.3840926"><ele>963</ele><name>
        </name></wpt>
  <wpt lat="29.5502072" lon="103.370071"><ele>1198</ele><name>
        </name></wpt>
  <wpt lat="29.5494112" lon="103.366296"><ele>1454</ele><name>
        </name></wpt>
  <wpt lat="29.5500537" lon="103.3569686"><ele>1706</ele><name>
        </name></wpt>
  <wpt lat="29.5522952" lon="103.352195"><ele>1580</ele><name>
        </name></wpt>
  <wpt lat="29.5577371" lon="103.3515722"><ele>1569</ele><name>
        </name></wpt>
  <wpt lat="29.5607581" lon="103.3515463"><ele>1671</ele><name>
        </name></wpt>
  <wpt lat="29.5619142" lon="103.3522411"><ele>1715</ele><name>
        </name></wpt>
  <wpt lat="29.5608254" lon="103.3449078"><ele>1832</ele><name>
        </name></wpt>
  <wpt lat="29.5587111" lon="103.344217"><ele>2029</ele><name>
        </name></wpt>
  <wpt lat="29.5587111" lon="103.344217"><ele>2029</ele><name>
        </name></wpt>
  <wpt lat="29.5534166" lon="103.3453481"><ele>2234</ele><name>
        </name></wpt>
  <wpt lat="29.5463554" lon="103.3378609"><ele>2421</ele><name>
        </name></wpt>
  <wpt lat="29.5465923" lon="103.3371014"><ele>2429</ele><name>
        </name></wpt>
  <wpt lat="29.5422342" lon="103.3317269"><ele>2396</ele><name>
        </name></wpt>
  <wpt lat="29.5322136" lon="103.3302633"><ele>2668</ele><name>
        </name></wpt>
  <wpt lat="29.5296508" lon="103.3278143"><ele>2814</ele><name>
        </name></wpt>
  <wpt lat="29.5273379" lon="103.3324957"><ele>2906</ele><name>
        </name></wpt>
  <wpt lat="29.5258959" lon="103.3339801"><ele>2968</ele><name>
        </name></wpt>
  <wpt lat="29.5238893" lon="103.3348742"><ele>2997</ele><name>
        </name></wpt>
  <trk><name>乐山峨眉山市</name>
      <trkseg>
        <trkpt lat="29.5683018" lon="103.4440197"><ele>476.45</ele><time>2026-05-05T14:07:41.000Z</time></trkpt>
        <trkpt lat="29.5683324" lon="103.4439204"><ele>476.45</ele><time>2026-05-05T14:08:01.000Z</time></trkpt>
        <trkpt lat="29.5683585" lon="103.4438161"><ele>474.73</ele><time>2026-05-05T14:08:09.000Z</time></trkpt>
        <trkpt lat="29.5683838" lon="103.4436973"><ele>473.8</ele><time>2026-05-05T14:08:19.000Z</time></trkpt>
        <trkpt lat="29.5684093" lon="103.4435746"><ele>473.59</ele><time>2026-05-05T14:08:29.000Z</time></trkpt>
        <trkpt lat="29.5684269" lon="103.4434517"><ele>473.43</ele><time>2026-05-05T14:08:39.000Z</time></trkpt>
        <trkpt lat="29.5684568" lon="103.4433417"><ele>473.5</ele><time>2026-05-05T14:08:58.000Z</time></trkpt>
        <trkpt lat="29.5685175" lon="103.4432638"><ele>473.32</ele><time>2026-05-05T14:09:08.000Z</time></trkpt>
        <trkpt lat="29.5686019" lon="103.4432165"><ele>474.1</ele><time>2026-05-05T14:09:18.000Z</time></trkpt>
        <trkpt lat="29.5686681" lon="103.4431272"><ele>474.12</ele><time>2026-05-05T14:09:31.000Z</time></trkpt>
        <trkpt lat="29.5687165" lon="103.4430235"><ele>474.26</ele><time>2026-05-05T14:09:41.000Z</time></trkpt>
        <trkpt lat="29.5687414" lon="103.4429094"><ele>474.51</ele><time>2026-05-05T14:09:51.000Z</time></trkpt>
        <trkpt lat="29.568761" lon="103.4427914"><ele>474.68</ele><time>2026-05-05T14:10:01.000Z</time></trkpt>
        <trkpt lat="29.5687789" lon="103.442677"><ele>475.5</ele><time>2026-05-05T14:10:11.000Z</time></trkpt>
        <trkpt lat="29.5688048" lon="103.4425729"><ele>475.69</ele><time>2026-05-05T14:10:21.000Z</time></trkpt>
        <trkpt lat="29.5688237" lon="103.4424597"><ele>476.29</ele><time>2026-05-05T14:10:31.000Z</time></trkpt>
        <trkpt lat="29.5688482" lon="103.4423468"><ele>476.1</ele><time>2026-05-05T14:10:41.000Z</time></trkpt>
        <trkpt lat="29.5688677" lon="103.4422381"><ele>477.25</ele><time>2026-05-05T14:10:51.000Z</time></trkpt>
        <trkpt lat="29.5688844" lon="103.4421285"><ele>479.13</ele><time>2026-05-05T14:11:01.000Z</time></trkpt>
        <trkpt lat="29.5689006" lon="103.4420169"><ele>479.88</ele><time>2026-05-05T14:11:11.000Z</time></trkpt>
        <trkpt lat="29.5689125" lon="103.4419007"><ele>480.28</ele><time>2026-05-05T14:11:21.000Z</time></trkpt>
        <trkpt lat="29.5689245" lon="103.4417796"><ele>481.02</ele><time>2026-05-05T14:11:31.000Z</time></trkpt>
        <trkpt lat="29.5689442" lon="103.4416659"><ele>481.32</ele><time>2026-05-05T14:11:41.000Z</time></trkpt>
        <trkpt lat="29.568953" lon="103.4415579"><ele>482.4</ele><time>2026-05-05T14:11:51.000Z</time></trkpt>
        <trkpt lat="29.5689902" lon="103.4414535"><ele>482.72</ele><time>2026-05-05T14:12:01.000Z</time></trkpt>
        <trkpt lat="29.5690039" lon="103.4413479"><ele>482.69</ele><time>2026-05-05T14:12:11.000Z</time></trkpt>
        <trkpt lat="29.5690121" lon="103.4412307"><ele>482.5</ele><time>2026-05-05T14:12:21.000Z</time></trkpt>
        <trkpt lat="29.5690205" lon="103.4411108"><ele>482.82</ele><time>2026-05-05T14:12:31.000Z</time></trkpt>
        <trkpt lat="29.569015" lon="103.4409869"><ele>483.04</ele><time>2026-05-05T14:12:43.000Z</time></trkpt>
        <trkpt lat="29.5690134" lon="103.4408744"><ele>484.01</ele><time>2026-05-05T14:12:53.000Z</time></trkpt>
        <trkpt lat="29.5690332" lon="103.4407677"><ele>484.8</ele><time>2026-05-05T14:13:03.000Z</time></trkpt>
        <trkpt lat="29.5690331" lon="103.4406596"><ele>485.68</ele><time>2026-05-05T14:13:14.000Z</time></trkpt>
        <trkpt lat="29.5690071" lon="103.4405563"><ele>486.67</ele><time>2026-05-05T14:13:46.000Z</time></trkpt>
        <trkpt lat="29.5689916" lon="103.4404456"><ele>488.31</ele><time>2026-05-05T14:13:58.000Z</time></trkpt>
        <trkpt lat="29.5689897" lon="103.4404188"><ele>490.19</ele><time>2026-05-05T14:14:00.000Z</time></trkpt>
        <trkpt lat="29.5689801" lon="103.4405103"><ele>491.44</ele><time>2026-05-05T14:14:26.000Z</time></trkpt>
        <trkpt lat="29.5689119" lon="103.4405213"><ele>489.76</ele><time>2026-05-05T14:14:50.000Z</time></trkpt>
        <trkpt lat="29.5688272" lon="103.4404759"><ele>489.24</ele><time>2026-05-05T14:15:00.000Z</time></trkpt>
        <trkpt lat="29.5687486" lon="103.4404048"><ele>489.03</ele><time>2026-05-05T14:15:10.000Z</time></trkpt>
        <trkpt lat="29.5686708" lon="103.4403297"><ele>487.77</ele><time>2026-05-05T14:15:20.000Z</time></trkpt>
        <trkpt lat="29.5685822" lon="103.4402624"><ele>487.29</ele><time>2026-05-05T14:15:30.000Z</time></trkpt>
        <trkpt lat="29.5684985" lon="103.4402014"><ele>486.23</ele><time>2026-05-05T14:15:38.000Z</time></trkpt>
        <trkpt lat="29.5684258" lon="103.4401171"><ele>484.97</ele><time>2026-05-05T14:15:48.000Z</time></trkpt>
        <trkpt lat="29.5683747" lon="103.4400199"><ele>484.17</ele><time>2026-05-05T14:15:56.000Z</time></trkpt>
        <trkpt lat="29.5683489" lon="103.4399137"><ele>483.3</ele><time>2026-05-05T14:16:04.000Z</time></trkpt>
        <trkpt lat="29.5683335" lon="103.4398078"><ele>483.42</ele><time>2026-05-05T14:16:12.000Z</time></trkpt>
        <trkpt lat="29.5682994" lon="103.4397077"><ele>483.92</ele><time>2026-05-05T14:16:24.000Z</time></trkpt>
        <trkpt lat="29.568255" lon="103.4396166"><ele>484.74</ele><time>2026-05-05T14:16:32.000Z</time></trkpt>
        <trkpt lat="29.5681827" lon="103.4395314"><ele>484.17</ele><time>2026-05-05T14:16:40.000Z</time></trkpt>
        <trkpt lat="29.5681014" lon="103.4394741"><ele>485.66</ele><time>2026-05-05T14:16:50.000Z</time></trkpt>
        <trkpt lat="29.5679958" lon="103.4394534"><ele>485.89</ele><time>2026-05-05T14:17:00.000Z</time></trkpt>
        <trkpt lat="29.5679015" lon="103.4395064"><ele>487.24</ele><time>2026-05-05T14:17:10.000Z</time></trkpt>
        <trkpt lat="29.5678216" lon="103.4395928"><ele>487.26</ele><time>2026-05-05T14:17:18.000Z</time></trkpt>
        <trkpt lat="29.567731" lon="103.4396189"><ele>488.69</ele><time>2026-05-05T14:17:28.000Z</time></trkpt>
        <trkpt lat="29.567639" lon="103.439597"><ele>488.7</ele><time>2026-05-05T14:17:36.000Z</time></trkpt>
        <trkpt lat="29.5675448" lon="103.4395535"><ele>489.04</ele><time>2026-05-05T14:17:46.000Z</time></trkpt>
        <trkpt lat="29.5674621" lon="103.4394864"><ele>489.42</ele><time>2026-05-05T14:17:56.000Z</time></trkpt>
        <trkpt lat="29.5673887" lon="103.439396"><ele>489.25</ele><time>2026-05-05T14:18:06.000Z</time></trkpt>
        <trkpt lat="29.5672985" lon="103.4393146"><ele>489.51</ele><time>2026-05-05T14:18:16.000Z</time></trkpt>
        <trkpt lat="29.5672277" lon="103.439237"><ele>489.76</ele><time>2026-05-05T14:18:24.000Z</time></trkpt>
        <trkpt lat="29.567165" lon="103.4391509"><ele>489.8</ele><time>2026-05-05T14:18:34.000Z</time></trkpt>
        <trkpt lat="29.5671263" lon="103.4390413"><ele>489.85</ele><time>2026-05-05T14:18:45.000Z</time></trkpt>
        <trkpt lat="29.5670627" lon="103.438962"><ele>489.95</ele><time>2026-05-05T14:18:55.000Z</time></trkpt>
        <trkpt lat="29.5669851" lon="103.4388963"><ele>489.07</ele><time>2026-05-05T14:19:05.000Z</time></trkpt>
        <trkpt lat="29.5669072" lon="103.4388219"><ele>490.65</ele><time>2026-05-05T14:19:15.000Z</time></trkpt>
        <trkpt lat="29.5668355" lon="103.4387408"><ele>492.05</ele><time>2026-05-05T14:19:25.000Z</time></trkpt>
        <trkpt lat="29.5667774" lon="103.438638"><ele>493.56</ele><time>2026-05-05T14:19:37.000Z</time></trkpt>
        <trkpt lat="29.5667169" lon="103.4385444"><ele>493.15</ele><time>2026-05-05T14:19:47.000Z</time></trkpt>
        <trkpt lat="29.566663" lon="103.4384406"><ele>493.22</ele><time>2026-05-05T14:19:57.000Z</time></trkpt>
        <trkpt lat="29.5666181" lon="103.438332"><ele>494.05</ele><time>2026-05-05T14:20:07.000Z</time></trkpt>
        <trkpt lat="29.5666089" lon="103.4382217"><ele>495.17</ele><time>2026-05-05T14:20:17.000Z</time></trkpt>
        <trkpt lat="29.5666142" lon="103.4381118"><ele>497.21</ele><time>2026-05-05T14:20:27.000Z</time></trkpt>
        <trkpt lat="29.5666235" lon="103.4379968"><ele>498.09</ele><time>2026-05-05T14:20:37.000Z</time></trkpt>
        <trkpt lat="29.5665745" lon="103.4379091"><ele>498.27</ele><time>2026-05-05T14:20:47.000Z</time></trkpt>
        <trkpt lat="29.5664863" lon="103.4378504"><ele>499.95</ele><time>2026-05-05T14:20:59.000Z</time></trkpt>
        <trkpt lat="29.5664141" lon="103.437764"><ele>500.45</ele><time>2026-05-05T14:21:11.000Z</time></trkpt>
        <trkpt lat="29.5663522" lon="103.4376695"><ele>499.89</ele><time>2026-05-05T14:21:21.000Z</time></trkpt>
        <trkpt lat="29.5662667" lon="103.4376025"><ele>499.95</ele><time>2026-05-05T14:21:33.000Z</time></trkpt>
        <trkpt lat="29.5661769" lon="103.4375384"><ele>501.02</ele><time>2026-05-05T14:21:43.000Z</time></trkpt>
        <trkpt lat="29.5660852" lon="103.4374619"><ele>502.41</ele><time>2026-05-05T14:21:53.000Z</time></trkpt>
        <trkpt lat="29.5660056" lon="103.4373814"><ele>504.28</ele><time>2026-05-05T14:22:03.000Z</time></trkpt>
        <trkpt lat="29.5659371" lon="103.4372834"><ele>505.57</ele><time>2026-05-05T14:22:13.000Z</time></trkpt>
        <trkpt lat="29.5658803" lon="103.4371948"><ele>506.35</ele><time>2026-05-05T14:22:21.000Z</time></trkpt>
        <trkpt lat="29.5658294" lon="103.4370941"><ele>508.26</ele><time>2026-05-05T14:22:31.000Z</time></trkpt>
        <trkpt lat="29.56578" lon="103.4370034"><ele>509.23</ele><time>2026-05-05T14:22:41.000Z</time></trkpt>
        <trkpt lat="29.5657774" lon="103.4368926"><ele>510.41</ele><time>2026-05-05T14:22:51.000Z</time></trkpt>
        <trkpt lat="29.5658117" lon="103.4367809"><ele>511.55</ele><time>2026-05-05T14:22:59.000Z</time></trkpt>
        <trkpt lat="29.5658638" lon="103.4366812"><ele>512.4</ele><time>2026-05-05T14:23:11.000Z</time></trkpt>
        <trkpt lat="29.5659264" lon="103.4365858"><ele>513.65</ele><time>2026-05-05T14:23:19.000Z</time></trkpt>
        <trkpt lat="29.5659081" lon="103.43649"><ele>513.56</ele><time>2026-05-05T14:23:27.000Z</time></trkpt>
        <trkpt lat="29.5658405" lon="103.4364169"><ele>512.79</ele><time>2026-05-05T14:23:35.000Z</time></trkpt>
        <trkpt lat="29.5657632" lon="103.4363292"><ele>512.03</ele><time>2026-05-05T14:23:45.000Z</time></trkpt>
        <trkpt lat="29.5657136" lon="103.4362205"><ele>512.52</ele><time>2026-05-05T14:23:57.000Z</time></trkpt>
        <trkpt lat="29.5656972" lon="103.4361088"><ele>513.14</ele><time>2026-05-05T14:24:11.000Z</time></trkpt>
        <trkpt lat="29.5656916" lon="103.4360017"><ele>514.66</ele><time>2026-05-05T14:24:19.000Z</time></trkpt>
        <trkpt lat="29.5656482" lon="103.4359163"><ele>515.94</ele><time>2026-05-05T14:24:27.000Z</time></trkpt>
        <trkpt lat="29.5655966" lon="103.435823"><ele>517.2</ele><time>2026-05-05T14:24:36.000Z</time></trkpt>
        <trkpt lat="29.5656104" lon="103.435802"><ele>517.14</ele><time>2026-05-05T14:24:40.000Z</time></trkpt>
        <trkpt lat="29.5656512" lon="103.4357124"><ele>516.09</ele><time>2026-05-05T14:24:50.000Z</time></trkpt>
        <trkpt lat="29.5657177" lon="103.4356321"><ele>518.09</ele><time>2026-05-05T14:25:00.000Z</time></trkpt>
        <trkpt lat="29.5657997" lon="103.4355511"><ele>520.54</ele><time>2026-05-05T14:25:12.000Z</time></trkpt>
        <trkpt lat="29.5658871" lon="103.4354874"><ele>523.03</ele><time>2026-05-05T14:25:20.000Z</time></trkpt>
        <trkpt lat="29.5659254" lon="103.4354304"><ele>524.33</ele><time>2026-05-05T14:25:32.000Z</time></trkpt>
        <trkpt lat="29.5659698" lon="103.4354858"><ele>525.49</ele><time>2026-05-05T14:26:04.000Z</time></trkpt>
        <trkpt lat="29.5660322" lon="103.4355836"><ele>524.23</ele><time>2026-05-05T14:26:12.000Z</time></trkpt>
        <trkpt lat="29.5660425" lon="103.4355306"><ele>524.41</ele><time>2026-05-05T14:26:34.000Z</time></trkpt>
        <trkpt lat="29.5660444" lon="103.4354286"><ele>524.52</ele><time>2026-05-05T14:26:44.000Z</time></trkpt>
        <trkpt lat="29.5660001" lon="103.4353147"><ele>525.26</ele><time>2026-05-05T14:26:52.000Z</time></trkpt>
        <trkpt lat="29.5659427" lon="103.4351987"><ele>525.21</ele><time>2026-05-05T14:27:02.000Z</time></trkpt>
        <trkpt lat="29.5658809" lon="103.4351023"><ele>526.6</ele><time>2026-05-05T14:27:12.000Z</time></trkpt>
        <trkpt lat="29.5658039" lon="103.4350321"><ele>528.9</ele><time>2026-05-05T14:27:22.000Z</time></trkpt>
        <trkpt lat="29.5657261" lon="103.4349584"><ele>531.21</ele><time>2026-05-05T14:27:33.000Z</time></trkpt>
        <trkpt lat="29.5656485" lon="103.4348784"><ele>531.86</ele><time>2026-05-05T14:27:45.000Z</time></trkpt>
        <trkpt lat="29.5655955" lon="103.434787"><ele>532.97</ele><time>2026-05-05T14:27:56.000Z</time></trkpt>
        <trkpt lat="29.5655383" lon="103.4346868"><ele>535.33</ele><time>2026-05-05T14:28:04.000Z</time></trkpt>
        <trkpt lat="29.565519" lon="103.4345718"><ele>538.02</ele><time>2026-05-05T14:28:12.000Z</time></trkpt>
        <trkpt lat="29.5655455" lon="103.4344605"><ele>538.74</ele><time>2026-05-05T14:28:20.000Z</time></trkpt>
        <trkpt lat="29.5655969" lon="103.4343593"><ele>539.95</ele><time>2026-05-05T14:28:28.000Z</time></trkpt>
        <trkpt lat="29.5656609" lon="103.4342711"><ele>540.72</ele><time>2026-05-05T14:28:36.000Z</time></trkpt>
        <trkpt lat="29.5656914" lon="103.4342427"><ele>541.69</ele><time>2026-05-05T14:28:42.000Z</time></trkpt>
        <trkpt lat="29.5657202" lon="103.4341657"><ele>542.41</ele><time>2026-05-05T14:29:13.000Z</time></trkpt>
        <trkpt lat="29.5657245" lon="103.4340639"><ele>543.62</ele><time>2026-05-05T14:29:23.000Z</time></trkpt>
        <trkpt lat="29.5657098" lon="103.4339541"><ele>544.86</ele><time>2026-05-05T14:29:33.000Z</time></trkpt>
        <trkpt lat="29.5657145" lon="103.4338413"><ele>546.65</ele><time>2026-05-05T14:29:45.000Z</time></trkpt>
        <trkpt lat="29.5657133" lon="103.4337157"><ele>547.61</ele><time>2026-05-05T14:29:57.000Z</time></trkpt>
        <trkpt lat="29.5656907" lon="103.4336048"><ele>547.46</ele><time>2026-05-05T14:30:05.000Z</time></trkpt>
        <trkpt lat="29.5656745" lon="103.4334809"><ele>548.63</ele><time>2026-05-05T14:30:15.000Z</time></trkpt>
        <trkpt lat="29.565674" lon="103.4333534"><ele>551.36</ele><time>2026-05-05T14:30:25.000Z</time></trkpt>
        <trkpt lat="29.5656775" lon="103.4332263"><ele>554.44</ele><time>2026-05-05T14:30:37.000Z</time></trkpt>
        <trkpt lat="29.5656895" lon="103.4331131"><ele>553.42</ele><time>2026-05-05T14:30:45.000Z</time></trkpt>
        <trkpt lat="29.5656723" lon="103.433004"><ele>552.82</ele><time>2026-05-05T14:30:53.000Z</time></trkpt>
        <trkpt lat="29.5656263" lon="103.432908"><ele>551.6</ele><time>2026-05-05T14:31:01.000Z</time></trkpt>
        <trkpt lat="29.5655795" lon="103.4327992"><ele>551.11</ele><time>2026-05-05T14:31:11.000Z</time></trkpt>
        <trkpt lat="29.5655362" lon="103.4326948"><ele>552.44</ele><time>2026-05-05T14:31:21.000Z</time></trkpt>
        <trkpt lat="29.5655111" lon="103.4325927"><ele>552.89</ele><time>2026-05-05T14:31:29.000Z</time></trkpt>
        <trkpt lat="29.5654872" lon="103.4324867"><ele>554.04</ele><time>2026-05-05T14:31:37.000Z</time></trkpt>
        <trkpt lat="29.5654641" lon="103.4323779"><ele>554.7</ele><time>2026-05-05T14:31:45.000Z</time></trkpt>
        <trkpt lat="29.5654297" lon="103.4322906"><ele>555.29</ele><time>2026-05-05T14:31:55.000Z</time></trkpt>
        <trkpt lat="29.5653774" lon="103.4321924"><ele>557.83</ele><time>2026-05-05T14:33:47.000Z</time></trkpt>
        <trkpt lat="29.5653391" lon="103.4320774"><ele>559.55</ele><time>2026-05-05T14:33:57.000Z</time></trkpt>
        <trkpt lat="29.5653064" lon="103.4319747"><ele>560.27</ele><time>2026-05-05T14:34:05.000Z</time></trkpt>
        <trkpt lat="29.5653225" lon="103.4318688"><ele>562.23</ele><time>2026-05-05T14:34:13.000Z</time></trkpt>
        <trkpt lat="29.5653618" lon="103.4317726"><ele>562.76</ele><time>2026-05-05T14:34:23.000Z</time></trkpt>
        <trkpt lat="29.5654014" lon="103.4316721"><ele>563.43</ele><time>2026-05-05T14:34:33.000Z</time></trkpt>
        <trkpt lat="29.565434" lon="103.4315554"><ele>564.56</ele><time>2026-05-05T14:34:41.000Z</time></trkpt>
        <trkpt lat="29.5654618" lon="103.4314404"><ele>565.38</ele><time>2026-05-05T14:34:51.000Z</time></trkpt>
        <trkpt lat="29.5654701" lon="103.4313169"><ele>567.39</ele><time>2026-05-05T14:35:03.000Z</time></trkpt>
        <trkpt lat="29.5654798" lon="103.4311925"><ele>569.01</ele><time>2026-05-05T14:35:11.000Z</time></trkpt>
        <trkpt lat="29.5655275" lon="103.4311015"><ele>570.49</ele><time>2026-05-05T14:35:21.000Z</time></trkpt>
        <trkpt lat="29.5655347" lon="103.4309992"><ele>571.23</ele><time>2026-05-05T14:35:29.000Z</time></trkpt>
        <trkpt lat="29.5654783" lon="103.4309076"><ele>570.43</ele><time>2026-05-05T14:35:39.000Z</time></trkpt>
        <trkpt lat="29.56541" lon="103.4308171"><ele>571.28</ele><time>2026-05-05T14:35:49.000Z</time></trkpt>
        <trkpt lat="29.5653765" lon="103.4307092"><ele>572.62</ele><time>2026-05-05T14:35:59.000Z</time></trkpt>
        <trkpt lat="29.5653564" lon="103.430593"><ele>573.3</ele><time>2026-05-05T14:36:09.000Z</time></trkpt>
        <trkpt lat="29.5653325" lon="103.4304817"><ele>575.23</ele><time>2026-05-05T14:36:17.000Z</time></trkpt>
        <trkpt lat="29.5653212" lon="103.4303709"><ele>577.36</ele><time>2026-05-05T14:36:27.000Z</time></trkpt>
        <trkpt lat="29.5653161" lon="103.43026"><ele>579.79</ele><time>2026-05-05T14:36:37.000Z</time></trkpt>
        <trkpt lat="29.5653117" lon="103.4301431"><ele>581</ele><time>2026-05-05T14:36:47.000Z</time></trkpt>
        <trkpt lat="29.5652822" lon="103.4300273"><ele>582.26</ele><time>2026-05-05T14:36:57.000Z</time></trkpt>
        <trkpt lat="29.5652467" lon="103.4299222"><ele>584.21</ele><time>2026-05-05T14:37:05.000Z</time></trkpt>
        <trkpt lat="29.565213" lon="103.4298175"><ele>585.26</ele><time>2026-05-05T14:37:13.000Z</time></trkpt>
        <trkpt lat="29.5651784" lon="103.4297041"><ele>585.63</ele><time>2026-05-05T14:37:21.000Z</time></trkpt>
        <trkpt lat="29.5651308" lon="103.429605"><ele>585.05</ele><time>2026-05-05T14:37:29.000Z</time></trkpt>
        <trkpt lat="29.5650855" lon="103.429511"><ele>584.81</ele><time>2026-05-05T14:37:37.000Z</time></trkpt>
        <trkpt lat="29.5650192" lon="103.4294149"><ele>584.07</ele><time>2026-05-05T14:37:47.000Z</time></trkpt>
        <trkpt lat="29.5649565" lon="103.4293289"><ele>583.89</ele><time>2026-05-05T14:37:55.000Z</time></trkpt>
        <trkpt lat="29.5649117" lon="103.4292334"><ele>583.99</ele><time>2026-05-05T14:38:03.000Z</time></trkpt>
        <trkpt lat="29.5648757" lon="103.4291198"><ele>584.48</ele><time>2026-05-05T14:38:13.000Z</time></trkpt>
        <trkpt lat="29.5648495" lon="103.4289992"><ele>584.29</ele><time>2026-05-05T14:38:23.000Z</time></trkpt>
        <trkpt lat="29.5648298" lon="103.4288792"><ele>584.07</ele><time>2026-05-05T14:38:33.000Z</time></trkpt>
        <trkpt lat="29.5648427" lon="103.4287592"><ele>584.09</ele><time>2026-05-05T14:38:41.000Z</time></trkpt>
        <trkpt lat="29.5648562" lon="103.4286347"><ele>584.21</ele><time>2026-05-05T14:38:51.000Z</time></trkpt>
        <trkpt lat="29.5648564" lon="103.4285128"><ele>586.64</ele><time>2026-05-05T14:39:01.000Z</time></trkpt>
        <trkpt lat="29.5649017" lon="103.4284202"><ele>587.05</ele><time>2026-05-05T14:39:11.000Z</time></trkpt>
        <trkpt lat="29.564984" lon="103.4283746"><ele>587.06</ele><time>2026-05-05T14:39:21.000Z</time></trkpt>
        <trkpt lat="29.5650826" lon="103.4283235"><ele>587.68</ele><time>2026-05-05T14:39:33.000Z</time></trkpt>
        <trkpt lat="29.5651698" lon="103.4282638"><ele>589.92</ele><time>2026-05-05T14:39:43.000Z</time></trkpt>
        <trkpt lat="29.5652546" lon="103.4282139"><ele>590.55</ele><time>2026-05-05T14:39:51.000Z</time></trkpt>
        <trkpt lat="29.5653379" lon="103.4281455"><ele>590.79</ele><time>2026-05-05T14:40:01.000Z</time></trkpt>
        <trkpt lat="29.5654177" lon="103.4280607"><ele>591.21</ele><time>2026-05-05T14:40:11.000Z</time></trkpt>
        <trkpt lat="29.56547" lon="103.4279571"><ele>591.99</ele><time>2026-05-05T14:40:21.000Z</time></trkpt>
        <trkpt lat="29.5654784" lon="103.4278366"><ele>593.48</ele><time>2026-05-05T14:40:33.000Z</time></trkpt>
        <trkpt lat="29.5654714" lon="103.4277194"><ele>594.87</ele><time>2026-05-05T14:40:43.000Z</time></trkpt>
        <trkpt lat="29.5654525" lon="103.4275989"><ele>597.29</ele><time>2026-05-05T14:40:53.000Z</time></trkpt>
        <trkpt lat="29.5654444" lon="103.4274807"><ele>599.9</ele><time>2026-05-05T14:41:03.000Z</time></trkpt>
        <trkpt lat="29.5654363" lon="103.4273619"><ele>603.41</ele><time>2026-05-05T14:41:13.000Z</time></trkpt>
        <trkpt lat="29.5654123" lon="103.4272489"><ele>605.77</ele><time>2026-05-05T14:41:21.000Z</time></trkpt>
        <trkpt lat="29.5653593" lon="103.4271521"><ele>607.94</ele><time>2026-05-05T14:41:27.000Z</time></trkpt>
        <trkpt lat="29.5652883" lon="103.4270793"><ele>605.76</ele><time>2026-05-05T14:41:35.000Z</time></trkpt>
        <trkpt lat="29.5651907" lon="103.4270277"><ele>604.96</ele><time>2026-05-05T14:41:43.000Z</time></trkpt>
        <trkpt lat="29.5650904" lon="103.4269911"><ele>605.49</ele><time>2026-05-05T14:41:51.000Z</time></trkpt>
        <trkpt lat="29.5649901" lon="103.426945"><ele>604.14</ele><time>2026-05-05T14:42:01.000Z</time></trkpt>
        <trkpt lat="29.5649172" lon="103.4268752"><ele>603.49</ele><time>2026-05-05T14:42:09.000Z</time></trkpt>
        <trkpt lat="29.5649024" lon="103.4267718"><ele>603.2</ele><time>2026-05-05T14:42:17.000Z</time></trkpt>
        <trkpt lat="29.5649248" lon="103.4267096"><ele>604.02</ele><time>2026-05-05T14:42:23.000Z</time></trkpt>
        <trkpt lat="29.564966" lon="103.4266201"><ele>605.35</ele><time>2026-05-05T14:42:45.000Z</time></trkpt>
        <trkpt lat="29.5650065" lon="103.4265206"><ele>608.38</ele><time>2026-05-05T14:43:07.000Z</time></trkpt>
        <trkpt lat="29.5650347" lon="103.4264156"><ele>609.1</ele><time>2026-05-05T14:43:31.000Z</time></trkpt>
        <trkpt lat="29.565107" lon="103.4263585"><ele>610.98</ele><time>2026-05-05T14:43:47.000Z</time></trkpt>
        <trkpt lat="29.5651476" lon="103.4262701"><ele>615.83</ele><time>2026-05-05T14:44:11.000Z</time></trkpt>
        <trkpt lat="29.5651611" lon="103.4261655"><ele>621.87</ele><time>2026-05-05T14:44:47.000Z</time></trkpt>
        <trkpt lat="29.5651968" lon="103.4260687"><ele>626.64</ele><time>2026-05-05T14:45:05.000Z</time></trkpt>
        <trkpt lat="29.5651911" lon="103.4259588"><ele>631.27</ele><time>2026-05-05T14:45:41.000Z</time></trkpt>
        <trkpt lat="29.5652198" lon="103.4258556"><ele>635.57</ele><time>2026-05-05T14:45:55.000Z</time></trkpt>
        <trkpt lat="29.5652139" lon="103.4257516"><ele>638.67</ele><time>2026-05-05T14:46:45.000Z</time></trkpt>
        <trkpt lat="29.5651444" lon="103.4256436"><ele>641.66</ele><time>2026-05-05T14:47:48.000Z</time></trkpt>
        <trkpt lat="29.5650696" lon="103.4255527"><ele>646.87</ele><time>2026-05-05T14:47:58.000Z</time></trkpt>
        <trkpt lat="29.5649969" lon="103.4254685"><ele>649.31</ele><time>2026-05-05T14:48:06.000Z</time></trkpt>
        <trkpt lat="29.5649485" lon="103.4253767"><ele>650.66</ele><time>2026-05-05T14:48:16.000Z</time></trkpt>
        <trkpt lat="29.5648849" lon="103.4253043"><ele>649.02</ele><time>2026-05-05T14:48:24.000Z</time></trkpt>
        <trkpt lat="29.5648154" lon="103.4252173"><ele>648.23</ele><time>2026-05-05T14:48:32.000Z</time></trkpt>
        <trkpt lat="29.5647512" lon="103.4251207"><ele>646.52</ele><time>2026-05-05T14:48:48.000Z</time></trkpt>
        <trkpt lat="29.5647556" lon="103.425016"><ele>647.49</ele><time>2026-05-05T14:49:02.000Z</time></trkpt>
        <trkpt lat="29.564739" lon="103.4249052"><ele>647.16</ele><time>2026-05-05T14:49:16.000Z</time></trkpt>
        <trkpt lat="29.5646955" lon="103.4248134"><ele>646.86</ele><time>2026-05-05T14:49:28.000Z</time></trkpt>
        <trkpt lat="29.5646767" lon="103.4247088"><ele>648.21</ele><time>2026-05-05T14:49:54.000Z</time></trkpt>
        <trkpt lat="29.5646615" lon="103.4245987"><ele>655.07</ele><time>2026-05-05T14:50:04.000Z</time></trkpt>
        <trkpt lat="29.5646319" lon="103.4244921"><ele>659.01</ele><time>2026-05-05T14:50:14.000Z</time></trkpt>
        <trkpt lat="29.5646471" lon="103.4243871"><ele>663.39</ele><time>2026-05-05T14:50:28.000Z</time></trkpt>
        <trkpt lat="29.5646804" lon="103.4242768"><ele>665.57</ele><time>2026-05-05T14:50:42.000Z</time></trkpt>
        <trkpt lat="29.5646339" lon="103.4242056"><ele>666.99</ele><time>2026-05-05T14:51:12.000Z</time></trkpt>
        <trkpt lat="29.5645908" lon="103.4241185"><ele>670.91</ele><time>2026-05-05T14:51:30.000Z</time></trkpt>
        <trkpt lat="29.5645581" lon="103.4240156"><ele>672.95</ele><time>2026-05-05T14:51:58.000Z</time></trkpt>
        <trkpt lat="29.5645079" lon="103.4239191"><ele>674.91</ele><time>2026-05-05T14:52:14.000Z</time></trkpt>
        <trkpt lat="29.5644692" lon="103.4238079"><ele>679.43</ele><time>2026-05-05T14:52:46.000Z</time></trkpt>
        <trkpt lat="29.5644133" lon="103.4237154"><ele>685.47</ele><time>2026-05-05T14:52:58.000Z</time></trkpt>
        <trkpt lat="29.5643849" lon="103.4236162"><ele>687.67</ele><time>2026-05-05T14:53:12.000Z</time></trkpt>
        <trkpt lat="29.5644003" lon="103.4235048"><ele>688.5</ele><time>2026-05-05T14:53:28.000Z</time></trkpt>
        <trkpt lat="29.5644225" lon="103.4233947"><ele>690.83</ele><time>2026-05-05T14:53:44.000Z</time></trkpt>
        <trkpt lat="29.5644386" lon="103.4232774"><ele>692.98</ele><time>2026-05-05T14:54:00.000Z</time></trkpt>
        <trkpt lat="29.5644541" lon="103.4231697"><ele>695.11</ele><time>2026-05-05T14:54:16.000Z</time></trkpt>
        <trkpt lat="29.5644617" lon="103.4230623"><ele>697.26</ele><time>2026-05-05T14:54:32.000Z</time></trkpt>
        <trkpt lat="29.5644652" lon="103.4229548"><ele>700.2</ele><time>2026-05-05T14:54:50.000Z</time></trkpt>
        <trkpt lat="29.5644656" lon="103.4228408"><ele>704.58</ele><time>2026-05-05T14:55:10.000Z</time></trkpt>
        <trkpt lat="29.5644328" lon="103.4227417"><ele>712.11</ele><time>2026-05-05T14:55:26.000Z</time></trkpt>
        <trkpt lat="29.5644594" lon="103.4226415"><ele>717.97</ele><time>2026-05-05T14:55:44.000Z</time></trkpt>
        <trkpt lat="29.5644916" lon="103.4225372"><ele>724.18</ele><time>2026-05-05T14:56:06.000Z</time></trkpt>
        <trkpt lat="29.5644959" lon="103.4224302"><ele>727.32</ele><time>2026-05-05T14:56:20.000Z</time></trkpt>
        <trkpt lat="29.5645163" lon="103.4223244"><ele>729.29</ele><time>2026-05-05T14:57:02.000Z</time></trkpt>
        <trkpt lat="29.5645186" lon="103.4222089"><ele>732.17</ele><time>2026-05-05T14:57:10.000Z</time></trkpt>
        <trkpt lat="29.564445" lon="103.4221842"><ele>734.68</ele><time>2026-05-05T14:57:22.000Z</time></trkpt>
        <trkpt lat="29.5643818" lon="103.422121"><ele>736.37</ele><time>2026-05-05T14:57:40.000Z</time></trkpt>
        <trkpt lat="29.5644165" lon="103.4219889"><ele>737.6</ele><time>2026-05-05T14:57:46.000Z</time></trkpt>
        <trkpt lat="29.5644293" lon="103.4218687"><ele>737.68</ele><time>2026-05-05T14:58:38.000Z</time></trkpt>
        <trkpt lat="29.5644401" lon="103.421756"><ele>742.44</ele><time>2026-05-05T14:58:50.000Z</time></trkpt>
        <trkpt lat="29.5644119" lon="103.4216498"><ele>745.32</ele><time>2026-05-05T14:59:16.000Z</time></trkpt>
        <trkpt lat="29.5643874" lon="103.421541"><ele>747.49</ele><time>2026-05-05T14:59:36.000Z</time></trkpt>
        <trkpt lat="29.564363" lon="103.4214197"><ele>750.1</ele><time>2026-05-05T15:00:10.000Z</time></trkpt>
        <trkpt lat="29.5644053" lon="103.4213057"><ele>753.61</ele><time>2026-05-05T15:00:36.000Z</time></trkpt>
        <trkpt lat="29.5644823" lon="103.4212348"><ele>754.08</ele><time>2026-05-05T15:00:46.000Z</time></trkpt>
        <trkpt lat="29.5645755" lon="103.4211729"><ele>756.52</ele><time>2026-05-05T15:00:58.000Z</time></trkpt>
        <trkpt lat="29.5646798" lon="103.4211586"><ele>761.18</ele><time>2026-05-05T15:01:18.000Z</time></trkpt>
        <trkpt lat="29.5647312" lon="103.4212441"><ele>763.61</ele><time>2026-05-05T15:01:34.000Z</time></trkpt>
        <trkpt lat="29.5647917" lon="103.4213327"><ele>766.75</ele><time>2026-05-05T15:01:48.000Z</time></trkpt>
        <trkpt lat="29.5648692" lon="103.4214115"><ele>768.48</ele><time>2026-05-05T15:02:18.000Z</time></trkpt>
        <trkpt lat="29.5649602" lon="103.4214289"><ele>769.03</ele><time>2026-05-05T15:02:36.000Z</time></trkpt>
        <trkpt lat="29.5650563" lon="103.4214178"><ele>770.55</ele><time>2026-05-05T15:02:54.000Z</time></trkpt>
        <trkpt lat="29.5651439" lon="103.4213716"><ele>773.08</ele><time>2026-05-05T15:03:22.000Z</time></trkpt>
        <trkpt lat="29.5652278" lon="103.4213171"><ele>775.78</ele><time>2026-05-05T15:03:38.000Z</time></trkpt>
        <trkpt lat="29.5653118" lon="103.4212657"><ele>777.37</ele><time>2026-05-05T15:03:58.000Z</time></trkpt>
        <trkpt lat="29.565635" lon="103.4211209"><ele>782.15</ele><time>2026-05-05T15:06:07.000Z</time></trkpt>
        <trkpt lat="29.5657303" lon="103.4210847"><ele>787.71</ele><time>2026-05-05T15:06:17.000Z</time></trkpt>
        <trkpt lat="29.5667163" lon="103.4197903"><ele>793.86</ele><time>2026-05-05T15:09:30.000Z</time></trkpt>
        <trkpt lat="29.566791" lon="103.4198618"><ele>801.44</ele><time>2026-05-05T15:09:41.000Z</time></trkpt>
        <trkpt lat="29.5668143" lon="103.419895"><ele>808.47</ele><time>2026-05-05T15:09:45.000Z</time></trkpt>
        <trkpt lat="29.5668696" lon="103.4199601"><ele>813.05</ele><time>2026-05-05T15:10:05.000Z</time></trkpt>
        <trkpt lat="29.5669138" lon="103.4200494"><ele>816.05</ele><time>2026-05-05T15:10:21.000Z</time></trkpt>
        <trkpt lat="29.5669438" lon="103.4201573"><ele>818.55</ele><time>2026-05-05T15:10:49.000Z</time></trkpt>
        <trkpt lat="29.5669607" lon="103.4202845"><ele>817.99</ele><time>2026-05-05T15:11:03.000Z</time></trkpt>
        <trkpt lat="29.5669906" lon="103.4203943"><ele>817.99</ele><time>2026-05-05T15:11:13.000Z</time></trkpt>
        <trkpt lat="29.5670549" lon="103.4204784"><ele>817.67</ele><time>2026-05-05T15:11:31.000Z</time></trkpt>
        <trkpt lat="29.5671359" lon="103.4205369"><ele>816.76</ele><time>2026-05-05T15:11:45.000Z</time></trkpt>
        <trkpt lat="29.5672383" lon="103.4205546"><ele>818.83</ele><time>2026-05-05T15:12:01.000Z</time></trkpt>
        <trkpt lat="29.5673556" lon="103.420487"><ele>821.34</ele><time>2026-05-05T15:12:17.000Z</time></trkpt>
        <trkpt lat="29.5674525" lon="103.4204871"><ele>822.13</ele><time>2026-05-05T15:12:45.000Z</time></trkpt>
        <trkpt lat="29.5675329" lon="103.420443"><ele>824.63</ele><time>2026-05-05T15:13:17.000Z</time></trkpt>
        <trkpt lat="29.5676203" lon="103.4203973"><ele>825.81</ele><time>2026-05-05T15:13:35.000Z</time></trkpt>
        <trkpt lat="29.5677078" lon="103.4203462"><ele>829.73</ele><time>2026-05-05T15:14:05.000Z</time></trkpt>
        <trkpt lat="29.5677927" lon="103.4202887"><ele>834.19</ele><time>2026-05-05T15:14:25.000Z</time></trkpt>
        <trkpt lat="29.567882" lon="103.4202409"><ele>838.96</ele><time>2026-05-05T15:15:09.000Z</time></trkpt>
        <trkpt lat="29.5679691" lon="103.4201938"><ele>843.81</ele><time>2026-05-05T15:15:25.000Z</time></trkpt>
        <trkpt lat="29.5680581" lon="103.4201414"><ele>845.91</ele><time>2026-05-05T15:16:03.000Z</time></trkpt>
        <trkpt lat="29.568153" lon="103.4201246"><ele>849.38</ele><time>2026-05-05T15:16:29.000Z</time></trkpt>
        <trkpt lat="29.5682505" lon="103.4201219"><ele>852.97</ele><time>2026-05-05T15:17:03.000Z</time></trkpt>
        <trkpt lat="29.5683442" lon="103.4201189"><ele>856.5</ele><time>2026-05-05T15:17:25.000Z</time></trkpt>
        <trkpt lat="29.5684409" lon="103.4201249"><ele>862.2</ele><time>2026-05-05T15:18:15.000Z</time></trkpt>
        <trkpt lat="29.568532" lon="103.4201124"><ele>867.97</ele><time>2026-05-05T15:18:33.000Z</time></trkpt>
        <trkpt lat="29.5686263" lon="103.4201519"><ele>872.58</ele><time>2026-05-05T15:19:17.000Z</time></trkpt>
        <trkpt lat="29.5687211" lon="103.4201536"><ele>876.43</ele><time>2026-05-05T15:19:29.000Z</time></trkpt>
        <trkpt lat="29.5687955" lon="103.4200988"><ele>881.41</ele><time>2026-05-05T15:19:37.000Z</time></trkpt>
        <trkpt lat="29.5688772" lon="103.4200221"><ele>884.43</ele><time>2026-05-05T15:19:51.000Z</time></trkpt>
        <trkpt lat="29.5689438" lon="103.4199305"><ele>885.63</ele><time>2026-05-05T15:20:02.000Z</time></trkpt>
        <trkpt lat="29.5690275" lon="103.4198672"><ele>885.84</ele><time>2026-05-05T15:20:13.000Z</time></trkpt>
        <trkpt lat="29.5691133" lon="103.4198229"><ele>886.25</ele><time>2026-05-05T15:20:23.000Z</time></trkpt>
        <trkpt lat="29.5692071" lon="103.419784"><ele>886.4</ele><time>2026-05-05T15:20:33.000Z</time></trkpt>
        <trkpt lat="29.569293" lon="103.4197368"><ele>886.87</ele><time>2026-05-05T15:20:43.000Z</time></trkpt>
        <trkpt lat="29.5693852" lon="103.4196839"><ele>887.02</ele><time>2026-05-05T15:20:55.000Z</time></trkpt>
        <trkpt lat="29.5694676" lon="103.4196207"><ele>887.67</ele><time>2026-05-05T15:21:07.000Z</time></trkpt>
        <trkpt lat="29.5694711" lon="103.4195927"><ele>889.07</ele><time>2026-05-05T15:21:11.000Z</time></trkpt>
        <trkpt lat="29.5695308" lon="103.4195523"><ele>889.67</ele><time>2026-05-05T15:21:31.000Z</time></trkpt>
        <trkpt lat="29.5695829" lon="103.4194647"><ele>886.98</ele><time>2026-05-05T15:21:41.000Z</time></trkpt>
        <trkpt lat="29.5696602" lon="103.4193879"><ele>886.85</ele><time>2026-05-05T15:21:51.000Z</time></trkpt>
        <trkpt lat="29.569736" lon="103.4193156"><ele>884.45</ele><time>2026-05-05T15:21:59.000Z</time></trkpt>
        <trkpt lat="29.5697961" lon="103.4192218"><ele>884.08</ele><time>2026-05-05T15:22:09.000Z</time></trkpt>
        <trkpt lat="29.5697647" lon="103.4191121"><ele>883.77</ele><time>2026-05-05T15:22:17.000Z</time></trkpt>
        <trkpt lat="29.5697512" lon="103.4189893"><ele>884.21</ele><time>2026-05-05T15:22:27.000Z</time></trkpt>
        <trkpt lat="29.5697601" lon="103.418874"><ele>884.26</ele><time>2026-05-05T15:22:39.000Z</time></trkpt>
        <trkpt lat="29.569778" lon="103.4187548"><ele>883.89</ele><time>2026-05-05T15:22:51.000Z</time></trkpt>
        <trkpt lat="29.5697951" lon="103.4186352"><ele>884.04</ele><time>2026-05-05T15:23:03.000Z</time></trkpt>
        <trkpt lat="29.5698196" lon="103.418525"><ele>884.14</ele><time>2026-05-05T15:23:13.000Z</time></trkpt>
        <trkpt lat="29.5698429" lon="103.4184087"><ele>883.21</ele><time>2026-05-05T15:23:23.000Z</time></trkpt>
        <trkpt lat="29.5698611" lon="103.4182993"><ele>882.78</ele><time>2026-05-05T15:23:33.000Z</time></trkpt>
        <trkpt lat="29.5698738" lon="103.4181953"><ele>882.61</ele><time>2026-05-05T15:23:43.000Z</time></trkpt>
        <trkpt lat="29.569906" lon="103.418088"><ele>883.64</ele><time>2026-05-05T15:23:53.000Z</time></trkpt>
        <trkpt lat="29.56995" lon="103.4179922"><ele>883.69</ele><time>2026-05-05T15:24:03.000Z</time></trkpt>
        <trkpt lat="29.5699983" lon="103.4178965"><ele>882.18</ele><time>2026-05-05T15:24:13.000Z</time></trkpt>
        <trkpt lat="29.5700465" lon="103.4177983"><ele>881.87</ele><time>2026-05-05T15:24:23.000Z</time></trkpt>
        <trkpt lat="29.5700633" lon="103.4176954"><ele>880.65</ele><time>2026-05-05T15:24:31.000Z</time></trkpt>
        <trkpt lat="29.5700603" lon="103.417581"><ele>880.21</ele><time>2026-05-05T15:24:41.000Z</time></trkpt>
        <trkpt lat="29.5700482" lon="103.4174634"><ele>878.74</ele><time>2026-05-05T15:24:51.000Z</time></trkpt>
        <trkpt lat="29.5700508" lon="103.4173413"><ele>878.48</ele><time>2026-05-05T15:25:01.000Z</time></trkpt>
        <trkpt lat="29.5700677" lon="103.417227"><ele>880.08</ele><time>2026-05-05T15:25:11.000Z</time></trkpt>
        <trkpt lat="29.5701105" lon="103.4171178"><ele>879.04</ele><time>2026-05-05T15:25:21.000Z</time></trkpt>
        <trkpt lat="29.5701989" lon="103.4170651"><ele>879.58</ele><time>2026-05-05T15:25:33.000Z</time></trkpt>
        <trkpt lat="29.5702993" lon="103.4170741"><ele>878.65</ele><time>2026-05-05T15:25:43.000Z</time></trkpt>
        <trkpt lat="29.5703615" lon="103.4170162"><ele>878.49</ele><time>2026-05-05T15:25:51.000Z</time></trkpt>
        <trkpt lat="29.5703789" lon="103.4169069"><ele>875.91</ele><time>2026-05-05T15:26:01.000Z</time></trkpt>
        <trkpt lat="29.5703625" lon="103.4167962"><ele>874.17</ele><time>2026-05-05T15:26:09.000Z</time></trkpt>
        <trkpt lat="29.5703503" lon="103.4166797"><ele>873.34</ele><time>2026-05-05T15:26:19.000Z</time></trkpt>
        <trkpt lat="29.5703482" lon="103.4165597"><ele>873.1</ele><time>2026-05-05T15:26:29.000Z</time></trkpt>
        <trkpt lat="29.570358" lon="103.4164395"><ele>874.06</ele><time>2026-05-05T15:26:39.000Z</time></trkpt>
        <trkpt lat="29.5703708" lon="103.4163302"><ele>874.38</ele><time>2026-05-05T15:26:47.000Z</time></trkpt>
        <trkpt lat="29.5704005" lon="103.4162139"><ele>874.78</ele><time>2026-05-05T15:26:57.000Z</time></trkpt>
        <trkpt lat="29.5704802" lon="103.4161466"><ele>873.95</ele><time>2026-05-05T15:27:09.000Z</time></trkpt>
        <trkpt lat="29.5705756" lon="103.4161153"><ele>872.7</ele><time>2026-05-05T15:27:19.000Z</time></trkpt>
        <trkpt lat="29.5706792" lon="103.4161092"><ele>874.41</ele><time>2026-05-05T15:27:33.000Z</time></trkpt>
        <trkpt lat="29.5707709" lon="103.4160648"><ele>877.1</ele><time>2026-05-05T15:27:47.000Z</time></trkpt>
        <trkpt lat="29.5707682" lon="103.4159736"><ele>879.25</ele><time>2026-05-05T15:28:01.000Z</time></trkpt>
        <trkpt lat="29.5706998" lon="103.415889"><ele>882.11</ele><time>2026-05-05T15:28:11.000Z</time></trkpt>
        <trkpt lat="29.5706086" lon="103.4158196"><ele>880.95</ele><time>2026-05-05T15:28:21.000Z</time></trkpt>
        <trkpt lat="29.5705122" lon="103.4157642"><ele>878.14</ele><time>2026-05-05T15:28:31.000Z</time></trkpt>
        <trkpt lat="29.5704325" lon="103.4156881"><ele>876.82</ele><time>2026-05-05T15:28:41.000Z</time></trkpt>
        <trkpt lat="29.5703617" lon="103.4156126"><ele>876.16</ele><time>2026-05-05T15:28:49.000Z</time></trkpt>
        <trkpt lat="29.5702748" lon="103.4155555"><ele>876.01</ele><time>2026-05-05T15:28:59.000Z</time></trkpt>
        <trkpt lat="29.5701713" lon="103.4155285"><ele>876.22</ele><time>2026-05-05T15:29:11.000Z</time></trkpt>
        <trkpt lat="29.5700747" lon="103.4154807"><ele>877.23</ele><time>2026-05-05T15:29:21.000Z</time></trkpt>
        <trkpt lat="29.5699851" lon="103.4154205"><ele>878.36</ele><time>2026-05-05T15:29:31.000Z</time></trkpt>
        <trkpt lat="29.5699121" lon="103.415348"><ele>879.52</ele><time>2026-05-05T15:29:41.000Z</time></trkpt>
        <trkpt lat="29.5698669" lon="103.415257"><ele>879.96</ele><time>2026-05-05T15:29:51.000Z</time></trkpt>
        <trkpt lat="29.569867" lon="103.4151407"><ele>880.79</ele><time>2026-05-05T15:30:03.000Z</time></trkpt>
        <trkpt lat="29.5698708" lon="103.4150224"><ele>881.64</ele><time>2026-05-05T15:30:13.000Z</time></trkpt>
        <trkpt lat="29.5698355" lon="103.414915"><ele>882.62</ele><time>2026-05-05T15:30:23.000Z</time></trkpt>
        <trkpt lat="29.569778" lon="103.414816"><ele>882.6</ele><time>2026-05-05T15:30:33.000Z</time></trkpt>
        <trkpt lat="29.5697106" lon="103.4147271"><ele>882.2</ele><time>2026-05-05T15:30:43.000Z</time></trkpt>
        <trkpt lat="29.569621" lon="103.414696"><ele>882.57</ele><time>2026-05-05T15:30:51.000Z</time></trkpt>
        <trkpt lat="29.5695163" lon="103.4147175"><ele>882.04</ele><time>2026-05-05T15:31:01.000Z</time></trkpt>
        <trkpt lat="29.5694149" lon="103.4147552"><ele>880.44</ele><time>2026-05-05T15:31:11.000Z</time></trkpt>
        <trkpt lat="29.5693181" lon="103.4147797"><ele>879.33</ele><time>2026-05-05T15:31:21.000Z</time></trkpt>
        <trkpt lat="29.5692287" lon="103.4147627"><ele>879.96</ele><time>2026-05-05T15:31:37.000Z</time></trkpt>
        <trkpt lat="29.569163" lon="103.414695"><ele>877.76</ele><time>2026-05-05T15:31:47.000Z</time></trkpt>
        <trkpt lat="29.5691154" lon="103.4145888"><ele>877.11</ele><time>2026-05-05T15:31:57.000Z</time></trkpt>
        <trkpt lat="29.5690855" lon="103.4144722"><ele>876.45</ele><time>2026-05-05T15:32:07.000Z</time></trkpt>
        <trkpt lat="29.5691056" lon="103.4143461"><ele>876.28</ele><time>2026-05-05T15:32:19.000Z</time></trkpt>
        <trkpt lat="29.5691227" lon="103.4142153"><ele>876.63</ele><time>2026-05-05T15:32:29.000Z</time></trkpt>
        <trkpt lat="29.5691061" lon="103.4140933"><ele>878.3</ele><time>2026-05-05T15:32:41.000Z</time></trkpt>
        <trkpt lat="29.5691253" lon="103.4139815"><ele>878.67</ele><time>2026-05-05T15:32:53.000Z</time></trkpt>
        <trkpt lat="29.5691524" lon="103.4138735"><ele>878.66</ele><time>2026-05-05T15:33:05.000Z</time></trkpt>
        <trkpt lat="29.5691295" lon="103.4137636"><ele>878.47</ele><time>2026-05-05T15:33:15.000Z</time></trkpt>
        <trkpt lat="29.5690806" lon="103.4136592"><ele>877.28</ele><time>2026-05-05T15:33:27.000Z</time></trkpt>
        <trkpt lat="29.5690366" lon="103.4135559"><ele>877.04</ele><time>2026-05-05T15:33:39.000Z</time></trkpt>
        <trkpt lat="29.569011" lon="103.413452"><ele>875.86</ele><time>2026-05-05T15:33:53.000Z</time></trkpt>
        <trkpt lat="29.5690173" lon="103.4133425"><ele>874.89</ele><time>2026-05-05T15:34:09.000Z</time></trkpt>
        <trkpt lat="29.5690218" lon="103.4132335"><ele>874.72</ele><time>2026-05-05T15:34:21.000Z</time></trkpt>
        <trkpt lat="29.5690564" lon="103.4131252"><ele>874.89</ele><time>2026-05-05T15:34:37.000Z</time></trkpt>
        <trkpt lat="29.5691256" lon="103.4130324"><ele>875.12</ele><time>2026-05-05T15:34:51.000Z</time></trkpt>
        <trkpt lat="29.5691933" lon="103.4129409"><ele>874.84</ele><time>2026-05-05T15:35:05.000Z</time></trkpt>
        <trkpt lat="29.569268" lon="103.4128561"><ele>873.73</ele><time>2026-05-05T15:35:15.000Z</time></trkpt>
        <trkpt lat="29.5693364" lon="103.4127767"><ele>871.6</ele><time>2026-05-05T15:35:25.000Z</time></trkpt>
        <trkpt lat="29.5693955" lon="103.4126936"><ele>871.21</ele><time>2026-05-05T15:35:35.000Z</time></trkpt>
        <trkpt lat="29.5693851" lon="103.4125985"><ele>870.1</ele><time>2026-05-05T15:35:45.000Z</time></trkpt>
        <trkpt lat="29.5693785" lon="103.4124839"><ele>869.83</ele><time>2026-05-05T15:36:00.000Z</time></trkpt>
        <trkpt lat="29.5693435" lon="103.4123761"><ele>869.78</ele><time>2026-05-05T15:36:18.000Z</time></trkpt>
        <trkpt lat="29.5693448" lon="103.4122723"><ele>869.24</ele><time>2026-05-05T15:36:36.000Z</time></trkpt>
        <trkpt lat="29.5692963" lon="103.4121816"><ele>869.09</ele><time>2026-05-05T15:36:58.000Z</time></trkpt>
        <trkpt lat="29.5692017" lon="103.4121641"><ele>866.37</ele><time>2026-05-05T15:37:14.000Z</time></trkpt>
        <trkpt lat="29.5691037" lon="103.4121512"><ele>860.61</ele><time>2026-05-05T15:37:26.000Z</time></trkpt>
        <trkpt lat="29.5690146" lon="103.4120777"><ele>855.19</ele><time>2026-05-05T15:37:46.000Z</time></trkpt>
        <trkpt lat="29.5689325" lon="103.4120073"><ele>853.75</ele><time>2026-05-05T15:38:00.000Z</time></trkpt>
        <trkpt lat="29.5688936" lon="103.4119032"><ele>850.76</ele><time>2026-05-05T15:38:12.000Z</time></trkpt>
        <trkpt lat="29.5688159" lon="103.4118383"><ele>849.18</ele><time>2026-05-05T15:38:24.000Z</time></trkpt>
        <trkpt lat="29.5687158" lon="103.4118097"><ele>847.49</ele><time>2026-05-05T15:38:34.000Z</time></trkpt>
        <trkpt lat="29.5686187" lon="103.4117735"><ele>844</ele><time>2026-05-05T15:38:50.000Z</time></trkpt>
        <trkpt lat="29.5685428" lon="103.4117062"><ele>840.72</ele><time>2026-05-05T15:39:18.000Z</time></trkpt>
        <trkpt lat="29.56849" lon="103.4116128"><ele>840.19</ele><time>2026-05-05T15:39:32.000Z</time></trkpt>
        <trkpt lat="29.568416" lon="103.4115268"><ele>839.12</ele><time>2026-05-05T15:39:44.000Z</time></trkpt>
        <trkpt lat="29.5684164" lon="103.4114287"><ele>838.64</ele><time>2026-05-05T15:40:02.000Z</time></trkpt>
        <trkpt lat="29.5684502" lon="103.4113189"><ele>836.54</ele><time>2026-05-05T15:40:14.000Z</time></trkpt>
        <trkpt lat="29.5684956" lon="103.4112135"><ele>835.51</ele><time>2026-05-05T15:40:22.000Z</time></trkpt>
        <trkpt lat="29.5685194" lon="103.4111036"><ele>833.56</ele><time>2026-05-05T15:40:30.000Z</time></trkpt>
        <trkpt lat="29.5685396" lon="103.4109902"><ele>833.15</ele><time>2026-05-05T15:40:40.000Z</time></trkpt>
        <trkpt lat="29.5685803" lon="103.4108839"><ele>832.65</ele><time>2026-05-05T15:40:52.000Z</time></trkpt>
        <trkpt lat="29.5686286" lon="103.4107865"><ele>833.59</ele><time>2026-05-05T15:41:04.000Z</time></trkpt>
        <trkpt lat="29.5686501" lon="103.4106845"><ele>834.8</ele><time>2026-05-05T15:41:14.000Z</time></trkpt>
        <trkpt lat="29.5686679" lon="103.410575"><ele>834.02</ele><time>2026-05-05T15:41:26.000Z</time></trkpt>
        <trkpt lat="29.5686607" lon="103.4104655"><ele>833.38</ele><time>2026-05-05T15:41:36.000Z</time></trkpt>
        <trkpt lat="29.5686375" lon="103.4103451"><ele>831.98</ele><time>2026-05-05T15:41:46.000Z</time></trkpt>
        <trkpt lat="29.5686462" lon="103.4102318"><ele>830.92</ele><time>2026-05-05T15:41:58.000Z</time></trkpt>
        <trkpt lat="29.5686277" lon="103.4101174"><ele>829.96</ele><time>2026-05-05T15:42:10.000Z</time></trkpt>
        <trkpt lat="29.5685868" lon="103.4100139"><ele>829.71</ele><time>2026-05-05T15:42:20.000Z</time></trkpt>
        <trkpt lat="29.5685182" lon="103.4099285"><ele>829.29</ele><time>2026-05-05T15:42:30.000Z</time></trkpt>
        <trkpt lat="29.5684295" lon="103.4098661"><ele>828.13</ele><time>2026-05-05T15:42:40.000Z</time></trkpt>
        <trkpt lat="29.5684143" lon="103.4099351"><ele>827.89</ele><time>2026-05-05T15:42:52.000Z</time></trkpt>
        <trkpt lat="29.5683563" lon="103.4099128"><ele>827.04</ele><time>2026-05-05T15:43:06.000Z</time></trkpt>
        <trkpt lat="29.5683166" lon="103.4098252"><ele>825.95</ele><time>2026-05-05T15:43:16.000Z</time></trkpt>
        <trkpt lat="29.5682724" lon="103.4097146"><ele>825.41</ele><time>2026-05-05T15:43:34.000Z</time></trkpt>
        <trkpt lat="29.5682285" lon="103.4096117"><ele>821.43</ele><time>2026-05-05T15:43:48.000Z</time></trkpt>
        <trkpt lat="29.5682859" lon="103.4095813"><ele>820.87</ele><time>2026-05-05T15:44:08.000Z</time></trkpt>
        <trkpt lat="29.568379" lon="103.4095535"><ele>821.88</ele><time>2026-05-05T15:44:20.000Z</time></trkpt>
        <trkpt lat="29.5684814" lon="103.4095326"><ele>822.53</ele><time>2026-05-05T15:44:32.000Z</time></trkpt>
        <trkpt lat="29.5684475" lon="103.4094443"><ele>824.81</ele><time>2026-05-05T15:47:16.000Z</time></trkpt>
        <trkpt lat="29.5683661" lon="103.4094903"><ele>826.79</ele><time>2026-05-05T15:48:20.000Z</time></trkpt>
        <trkpt lat="29.5682912" lon="103.4094253"><ele>821.58</ele><time>2026-05-05T15:48:50.000Z</time></trkpt>
        <trkpt lat="29.5682404" lon="103.4093387"><ele>812.12</ele><time>2026-05-05T15:49:06.000Z</time></trkpt>
        <trkpt lat="29.5681978" lon="103.4092398"><ele>803.67</ele><time>2026-05-05T15:49:22.000Z</time></trkpt>
        <trkpt lat="29.5681603" lon="103.4091392"><ele>797.74</ele><time>2026-05-05T15:49:36.000Z</time></trkpt>
        <trkpt lat="29.5681091" lon="103.4090257"><ele>792.73</ele><time>2026-05-05T15:49:54.000Z</time></trkpt>
        <trkpt lat="29.5680424" lon="103.4089438"><ele>789.89</ele><time>2026-05-05T15:50:02.000Z</time></trkpt>
        <trkpt lat="29.5679761" lon="103.4088652"><ele>786.49</ele><time>2026-05-05T15:50:10.000Z</time></trkpt>
        <trkpt lat="29.5679308" lon="103.4087688"><ele>785.71</ele><time>2026-05-05T15:50:20.000Z</time></trkpt>
        <trkpt lat="29.5678752" lon="103.4086693"><ele>785.38</ele><time>2026-05-05T15:50:34.000Z</time></trkpt>
        <trkpt lat="29.5678465" lon="103.4085591"><ele>784.74</ele><time>2026-05-05T15:50:44.000Z</time></trkpt>
        <trkpt lat="29.5678345" lon="103.4085132"><ele>784.84</ele><time>2026-05-05T15:50:52.000Z</time></trkpt>
        <trkpt lat="29.5677789" lon="103.4084548"><ele>784.65</ele><time>2026-05-05T15:51:34.000Z</time></trkpt>
        <trkpt lat="29.5676884" lon="103.4084081"><ele>784.38</ele><time>2026-05-05T15:51:48.000Z</time></trkpt>
        <trkpt lat="29.5676115" lon="103.4084559"><ele>782.35</ele><time>2026-05-05T15:52:08.000Z</time></trkpt>
        <trkpt lat="29.5675617" lon="103.408552"><ele>780.06</ele><time>2026-05-05T15:52:16.000Z</time></trkpt>
        <trkpt lat="29.5674849" lon="103.4086348"><ele>776.55</ele><time>2026-05-05T15:52:26.000Z</time></trkpt>
        <trkpt lat="29.5673869" lon="103.408627"><ele>774.44</ele><time>2026-05-05T15:52:36.000Z</time></trkpt>
        <trkpt lat="29.5672822" lon="103.4085812"><ele>773.02</ele><time>2026-05-05T15:52:46.000Z</time></trkpt>
        <trkpt lat="29.5671966" lon="103.4085162"><ele>771.58</ele><time>2026-05-05T15:52:54.000Z</time></trkpt>
        <trkpt lat="29.5671386" lon="103.4084767"><ele>771.25</ele><time>2026-05-05T15:53:02.000Z</time></trkpt>
        <trkpt lat="29.5670482" lon="103.4084743"><ele>771.39</ele><time>2026-05-05T15:53:20.000Z</time></trkpt>
        <trkpt lat="29.5669462" lon="103.4084627"><ele>771.6</ele><time>2026-05-05T15:53:30.000Z</time></trkpt>
        <trkpt lat="29.5668434" lon="103.4084552"><ele>771.42</ele><time>2026-05-05T15:53:40.000Z</time></trkpt>
        <trkpt lat="29.5667412" lon="103.4084382"><ele>770.48</ele><time>2026-05-05T15:53:50.000Z</time></trkpt>
        <trkpt lat="29.5666737" lon="103.4083612"><ele>769.9</ele><time>2026-05-05T15:54:00.000Z</time></trkpt>
        <trkpt lat="29.56668" lon="103.408252"><ele>768.02</ele><time>2026-05-05T15:54:10.000Z</time></trkpt>
        <trkpt lat="29.566708" lon="103.4081397"><ele>767.17</ele><time>2026-05-05T15:54:18.000Z</time></trkpt>
        <trkpt lat="29.5667064" lon="103.4080292"><ele>766.29</ele><time>2026-05-05T15:54:26.000Z</time></trkpt>
        <trkpt lat="29.566683" lon="103.4079324"><ele>765.59</ele><time>2026-05-05T15:54:36.000Z</time></trkpt>
        <trkpt lat="29.5666525" lon="103.4078316"><ele>766.47</ele><time>2026-05-05T15:54:46.000Z</time></trkpt>
        <trkpt lat="29.566601" lon="103.4077292"><ele>767.58</ele><time>2026-05-05T15:54:56.000Z</time></trkpt>
        <trkpt lat="29.5665574" lon="103.4076169"><ele>768.13</ele><time>2026-05-05T15:55:06.000Z</time></trkpt>
        <trkpt lat="29.566517" lon="103.4075029"><ele>769.29</ele><time>2026-05-05T15:55:16.000Z</time></trkpt>
        <trkpt lat="29.5664788" lon="103.4073848"><ele>770.83</ele><time>2026-05-05T15:55:26.000Z</time></trkpt>
        <trkpt lat="29.5664607" lon="103.4072703"><ele>771.96</ele><time>2026-05-05T15:55:36.000Z</time></trkpt>
        <trkpt lat="29.5664485" lon="103.4071524"><ele>772.32</ele><time>2026-05-05T15:55:48.000Z</time></trkpt>
        <trkpt lat="29.5664343" lon="103.4070295"><ele>771.31</ele><time>2026-05-05T15:55:58.000Z</time></trkpt>
        <trkpt lat="29.566451" lon="103.406916"><ele>771.74</ele><time>2026-05-05T15:56:08.000Z</time></trkpt>
        <trkpt lat="29.5665004" lon="103.4068196"><ele>771.26</ele><time>2026-05-05T15:56:18.000Z</time></trkpt>
        <trkpt lat="29.5665743" lon="103.4067416"><ele>770.8</ele><time>2026-05-05T15:56:30.000Z</time></trkpt>
        <trkpt lat="29.566647" lon="103.4066499"><ele>770.27</ele><time>2026-05-05T15:56:40.000Z</time></trkpt>
        <trkpt lat="29.5666912" lon="103.4065516"><ele>768.98</ele><time>2026-05-05T15:56:48.000Z</time></trkpt>
        <trkpt lat="29.5667541" lon="103.4064622"><ele>768.31</ele><time>2026-05-05T15:56:58.000Z</time></trkpt>
        <trkpt lat="29.566829" lon="103.4063892"><ele>767.43</ele><time>2026-05-05T15:57:06.000Z</time></trkpt>
        <trkpt lat="29.5668791" lon="103.4062887"><ele>767.37</ele><time>2026-05-05T15:57:16.000Z</time></trkpt>
        <trkpt lat="29.5669407" lon="103.406208"><ele>766.81</ele><time>2026-05-05T15:57:24.000Z</time></trkpt>
        <trkpt lat="29.567007" lon="103.4061331"><ele>766.39</ele><time>2026-05-05T15:57:32.000Z</time></trkpt>
        <trkpt lat="29.5670696" lon="103.4060392"><ele>766.91</ele><time>2026-05-05T15:57:42.000Z</time></trkpt>
        <trkpt lat="29.5671396" lon="103.4059474"><ele>766.71</ele><time>2026-05-05T15:57:52.000Z</time></trkpt>
        <trkpt lat="29.5671646" lon="103.4058436"><ele>767.48</ele><time>2026-05-05T15:58:00.000Z</time></trkpt>
        <trkpt lat="29.5671211" lon="103.4057523"><ele>767.13</ele><time>2026-05-05T15:58:08.000Z</time></trkpt>
        <trkpt lat="29.5670489" lon="103.4056728"><ele>765.32</ele><time>2026-05-05T15:58:16.000Z</time></trkpt>
        <trkpt lat="29.5669699" lon="103.4055841"><ele>762.35</ele><time>2026-05-05T15:58:26.000Z</time></trkpt>
        <trkpt lat="29.5668918" lon="103.4054988"><ele>759.86</ele><time>2026-05-05T15:58:36.000Z</time></trkpt>
        <trkpt lat="29.5668095" lon="103.4054137"><ele>758.13</ele><time>2026-05-05T15:58:46.000Z</time></trkpt>
        <trkpt lat="29.5667597" lon="103.4053151"><ele>757.77</ele><time>2026-05-05T15:58:56.000Z</time></trkpt>
        <trkpt lat="29.5667355" lon="103.405206"><ele>756.59</ele><time>2026-05-05T15:59:06.000Z</time></trkpt>
        <trkpt lat="29.5667536" lon="103.405096"><ele>755.67</ele><time>2026-05-05T15:59:16.000Z</time></trkpt>
        <trkpt lat="29.5668346" lon="103.4050767"><ele>755.33</ele><time>2026-05-05T15:59:26.000Z</time></trkpt>
        <trkpt lat="29.5669365" lon="103.4050948"><ele>755.41</ele><time>2026-05-05T15:59:36.000Z</time></trkpt>
        <trkpt lat="29.5670453" lon="103.4050925"><ele>756.74</ele><time>2026-05-05T15:59:46.000Z</time></trkpt>
        <trkpt lat="29.5671586" lon="103.4050805"><ele>757.65</ele><time>2026-05-05T15:59:56.000Z</time></trkpt>
        <trkpt lat="29.5672607" lon="103.4050664"><ele>759.88</ele><time>2026-05-05T16:00:06.000Z</time></trkpt>
        <trkpt lat="29.5673608" lon="103.4050526"><ele>760.45</ele><time>2026-05-05T16:00:16.000Z</time></trkpt>
        <trkpt lat="29.5674645" lon="103.4050464"><ele>760.38</ele><time>2026-05-05T16:00:26.000Z</time></trkpt>
        <trkpt lat="29.5675679" lon="103.4050642"><ele>760.06</ele><time>2026-05-05T16:00:36.000Z</time></trkpt>
        <trkpt lat="29.5676723" lon="103.4050876"><ele>760.65</ele><time>2026-05-05T16:00:46.000Z</time></trkpt>
        <trkpt lat="29.5677782" lon="103.4050966"><ele>761.08</ele><time>2026-05-05T16:00:56.000Z</time></trkpt>
        <trkpt lat="29.5678757" lon="103.4050457"><ele>759.49</ele><time>2026-05-05T16:01:06.000Z</time></trkpt>
        <trkpt lat="29.5679684" lon="103.4049825"><ele>758.42</ele><time>2026-05-05T16:01:16.000Z</time></trkpt>
        <trkpt lat="29.5680528" lon="103.404931"><ele>758.1</ele><time>2026-05-05T16:01:56.000Z</time></trkpt>
        <trkpt lat="29.568143" lon="103.4048727"><ele>757.69</ele><time>2026-05-05T16:02:08.000Z</time></trkpt>
        <trkpt lat="29.5682253" lon="103.4048171"><ele>758.05</ele><time>2026-05-05T16:02:18.000Z</time></trkpt>
        <trkpt lat="29.5682991" lon="103.4047392"><ele>756.79</ele><time>2026-05-05T16:02:28.000Z</time></trkpt>
        <trkpt lat="29.568371" lon="103.4046608"><ele>755.97</ele><time>2026-05-05T16:02:38.000Z</time></trkpt>
        <trkpt lat="29.5684161" lon="103.4045681"><ele>754.89</ele><time>2026-05-05T16:02:46.000Z</time></trkpt>
        <trkpt lat="29.5684593" lon="103.4044591"><ele>754.18</ele><time>2026-05-05T16:02:56.000Z</time></trkpt>
        <trkpt lat="29.5685011" lon="103.4043484"><ele>753.16</ele><time>2026-05-05T16:03:06.000Z</time></trkpt>
        <trkpt lat="29.5685709" lon="103.4042664"><ele>751.64</ele><time>2026-05-05T16:03:16.000Z</time></trkpt>
        <trkpt lat="29.5686306" lon="103.4041725"><ele>749.97</ele><time>2026-05-05T16:03:26.000Z</time></trkpt>
        <trkpt lat="29.5686924" lon="103.4040881"><ele>749.6</ele><time>2026-05-05T16:03:34.000Z</time></trkpt>
        <trkpt lat="29.5687564" lon="103.4040033"><ele>748</ele><time>2026-05-05T16:03:42.000Z</time></trkpt>
        <trkpt lat="29.5688416" lon="103.403933"><ele>747.47</ele><time>2026-05-05T16:03:54.000Z</time></trkpt>
        <trkpt lat="29.5689399" lon="103.4039067"><ele>745.77</ele><time>2026-05-05T16:04:04.000Z</time></trkpt>
        <trkpt lat="29.5690453" lon="103.4039279"><ele>745.18</ele><time>2026-05-05T16:04:14.000Z</time></trkpt>
        <trkpt lat="29.5691533" lon="103.4039231"><ele>745.58</ele><time>2026-05-05T16:04:24.000Z</time></trkpt>
        <trkpt lat="29.569256" lon="103.4038847"><ele>745.09</ele><time>2026-05-05T16:04:34.000Z</time></trkpt>
        <trkpt lat="29.5693554" lon="103.4038263"><ele>744.65</ele><time>2026-05-05T16:04:44.000Z</time></trkpt>
        <trkpt lat="29.5694572" lon="103.4037793"><ele>744.45</ele><time>2026-05-05T16:04:54.000Z</time></trkpt>
        <trkpt lat="29.569538" lon="103.4037136"><ele>744.7</ele><time>2026-05-05T16:05:02.000Z</time></trkpt>
        <trkpt lat="29.569616" lon="103.4036481"><ele>743.47</ele><time>2026-05-05T16:05:12.000Z</time></trkpt>
        <trkpt lat="29.5696856" lon="103.4035752"><ele>742.8</ele><time>2026-05-05T16:05:20.000Z</time></trkpt>
        <trkpt lat="29.5697516" lon="103.4034869"><ele>741.64</ele><time>2026-05-05T16:05:30.000Z</time></trkpt>
        <trkpt lat="29.5698121" lon="103.4033922"><ele>740.66</ele><time>2026-05-05T16:05:40.000Z</time></trkpt>
        <trkpt lat="29.5698708" lon="103.4032993"><ele>739.13</ele><time>2026-05-05T16:05:50.000Z</time></trkpt>
        <trkpt lat="29.569921" lon="103.4032071"><ele>737.73</ele><time>2026-05-05T16:06:00.000Z</time></trkpt>
        <trkpt lat="29.569981" lon="103.4031159"><ele>737.24</ele><time>2026-05-05T16:06:08.000Z</time></trkpt>
        <trkpt lat="29.5700193" lon="103.4030136"><ele>737.48</ele><time>2026-05-05T16:06:18.000Z</time></trkpt>
        <trkpt lat="29.5700626" lon="103.4028997"><ele>738.22</ele><time>2026-05-05T16:06:28.000Z</time></trkpt>
        <trkpt lat="29.5701374" lon="103.4028185"><ele>739.86</ele><time>2026-05-05T16:06:38.000Z</time></trkpt>
        <trkpt lat="29.5702285" lon="103.4027716"><ele>738.98</ele><time>2026-05-05T16:06:48.000Z</time></trkpt>
        <trkpt lat="29.5703224" lon="103.4027491"><ele>737.31</ele><time>2026-05-05T16:06:58.000Z</time></trkpt>
        <trkpt lat="29.5704192" lon="103.4027354"><ele>735.84</ele><time>2026-05-05T16:07:08.000Z</time></trkpt>
        <trkpt lat="29.5705171" lon="103.4027254"><ele>734.23</ele><time>2026-05-05T16:07:18.000Z</time></trkpt>
        <trkpt lat="29.5706202" lon="103.402718"><ele>732.89</ele><time>2026-05-05T16:07:28.000Z</time></trkpt>
        <trkpt lat="29.5707256" lon="103.4027066"><ele>732.15</ele><time>2026-05-05T16:07:38.000Z</time></trkpt>
        <trkpt lat="29.5708152" lon="103.4026646"><ele>731.04</ele><time>2026-05-05T16:07:46.000Z</time></trkpt>
        <trkpt lat="29.5708998" lon="103.4026211"><ele>730.81</ele><time>2026-05-05T16:07:54.000Z</time></trkpt>
        <trkpt lat="29.5709852" lon="103.4025633"><ele>731.87</ele><time>2026-05-05T16:08:04.000Z</time></trkpt>
        <trkpt lat="29.5710742" lon="103.4024989"><ele>732.52</ele><time>2026-05-05T16:08:16.000Z</time></trkpt>
        <trkpt lat="29.5711547" lon="103.402439"><ele>731.66</ele><time>2026-05-05T16:08:26.000Z</time></trkpt>
        <trkpt lat="29.571228" lon="103.4023643"><ele>730.36</ele><time>2026-05-05T16:08:37.000Z</time></trkpt>
        <trkpt lat="29.571232" lon="103.4024087"><ele>729.49</ele><time>2026-05-05T16:08:45.000Z</time></trkpt>
        <trkpt lat="29.5712244" lon="103.4023464"><ele>729.25</ele><time>2026-05-05T16:09:17.000Z</time></trkpt>
        <trkpt lat="29.5712713" lon="103.4022547"><ele>721.65</ele><time>2026-05-05T16:09:23.000Z</time></trkpt>
        <trkpt lat="29.5713466" lon="103.4021551"><ele>719.98</ele><time>2026-05-05T16:09:29.000Z</time></trkpt>
        <trkpt lat="29.5714243" lon="103.402065"><ele>719.51</ele><time>2026-05-05T16:09:35.000Z</time></trkpt>
        <trkpt lat="29.5715029" lon="103.4019691"><ele>720.26</ele><time>2026-05-05T16:09:45.000Z</time></trkpt>
        <trkpt lat="29.5715929" lon="103.4018972"><ele>721.33</ele><time>2026-05-05T16:09:55.000Z</time></trkpt>
        <trkpt lat="29.5716896" lon="103.4018686"><ele>722.18</ele><time>2026-05-05T16:10:05.000Z</time></trkpt>
        <trkpt lat="29.571733" lon="103.4018506"><ele>724.08</ele><time>2026-05-05T16:10:11.000Z</time></trkpt>
        <trkpt lat="29.5717928" lon="103.4017922"><ele>726.04</ele><time>2026-05-05T16:12:33.000Z</time></trkpt>
        <trkpt lat="29.5718284" lon="103.4016819"><ele>726.65</ele><time>2026-05-05T16:12:49.000Z</time></trkpt>
        <trkpt lat="29.5718997" lon="103.4016085"><ele>727.49</ele><time>2026-05-05T16:13:03.000Z</time></trkpt>
        <trkpt lat="29.5719819" lon="103.4015352"><ele>727.64</ele><time>2026-05-05T16:13:13.000Z</time></trkpt>
        <trkpt lat="29.5720281" lon="103.4014337"><ele>727.99</ele><time>2026-05-05T16:13:23.000Z</time></trkpt>
        <trkpt lat="29.5720161" lon="103.4013318"><ele>728.25</ele><time>2026-05-05T16:13:33.000Z</time></trkpt>
        <trkpt lat="29.5719964" lon="103.4012638"><ele>728.57</ele><time>2026-05-05T16:13:43.000Z</time></trkpt>
        <trkpt lat="29.5719857" lon="103.4011696"><ele>730.14</ele><time>2026-05-05T16:14:02.000Z</time></trkpt>
        <trkpt lat="29.57197" lon="103.4010629"><ele>731.35</ele><time>2026-05-05T16:14:18.000Z</time></trkpt>
        <trkpt lat="29.5719545" lon="103.4009575"><ele>729.71</ele><time>2026-05-05T16:14:30.000Z</time></trkpt>
        <trkpt lat="29.5719397" lon="103.4008451"><ele>729.96</ele><time>2026-05-05T16:14:50.000Z</time></trkpt>
        <trkpt lat="29.5719133" lon="103.4007346"><ele>733.04</ele><time>2026-05-05T16:15:08.000Z</time></trkpt>
        <trkpt lat="29.5719022" lon="103.4006289"><ele>737.16</ele><time>2026-05-05T16:15:29.000Z</time></trkpt>
        <trkpt lat="29.5718731" lon="103.4005311"><ele>742.99</ele><time>2026-05-05T16:15:51.000Z</time></trkpt>
        <trkpt lat="29.5718622" lon="103.4004276"><ele>749.61</ele><time>2026-05-05T16:16:17.000Z</time></trkpt>
        <trkpt lat="29.571449" lon="103.3976741"><ele>752.61</ele><time>2026-05-05T16:25:22.000Z</time></trkpt>
        <trkpt lat="29.5714481" lon="103.3974938"><ele>763.07</ele><time>2026-05-05T16:25:26.000Z</time></trkpt>
        <trkpt lat="29.5714597" lon="103.3973775"><ele>771.3</ele><time>2026-05-05T16:25:36.000Z</time></trkpt>
        <trkpt lat="29.5714892" lon="103.397274"><ele>776.83</ele><time>2026-05-05T16:25:56.000Z</time></trkpt>
        <trkpt lat="29.5715605" lon="103.3972068"><ele>775.99</ele><time>2026-05-05T16:26:06.000Z</time></trkpt>
        <trkpt lat="29.5716472" lon="103.3971381"><ele>774.66</ele><time>2026-05-05T16:26:18.000Z</time></trkpt>
        <trkpt lat="29.5716998" lon="103.3970519"><ele>773.66</ele><time>2026-05-05T16:26:30.000Z</time></trkpt>
        <trkpt lat="29.5717544" lon="103.3969627"><ele>770.93</ele><time>2026-05-05T16:26:46.000Z</time></trkpt>
        <trkpt lat="29.5717149" lon="103.3969894"><ele>767.9</ele><time>2026-05-05T16:27:20.000Z</time></trkpt>
        <trkpt lat="29.5717395" lon="103.3969424"><ele>767.91</ele><time>2026-05-05T16:28:18.000Z</time></trkpt>
        <trkpt lat="29.5718077" lon="103.3968738"><ele>766.73</ele><time>2026-05-05T16:28:28.000Z</time></trkpt>
        <trkpt lat="29.571893" lon="103.3968071"><ele>764.96</ele><time>2026-05-05T16:28:46.000Z</time></trkpt>
        <trkpt lat="29.5719887" lon="103.3967884"><ele>762.52</ele><time>2026-05-05T16:29:02.000Z</time></trkpt>
        <trkpt lat="29.5720829" lon="103.3967724"><ele>759.36</ele><time>2026-05-05T16:29:18.000Z</time></trkpt>
        <trkpt lat="29.5721786" lon="103.396746"><ele>755.07</ele><time>2026-05-05T16:29:36.000Z</time></trkpt>
        <trkpt lat="29.5722742" lon="103.3967264"><ele>752.03</ele><time>2026-05-05T16:29:52.000Z</time></trkpt>
        <trkpt lat="29.5723529" lon="103.3966719"><ele>748.52</ele><time>2026-05-05T16:30:10.000Z</time></trkpt>
        <trkpt lat="29.5723939" lon="103.3965707"><ele>744.62</ele><time>2026-05-05T16:30:24.000Z</time></trkpt>
        <trkpt lat="29.572386" lon="103.3964529"><ele>741.35</ele><time>2026-05-05T16:30:36.000Z</time></trkpt>
        <trkpt lat="29.5723679" lon="103.3963308"><ele>739.61</ele><time>2026-05-05T16:30:48.000Z</time></trkpt>
        <trkpt lat="29.5723955" lon="103.3962309"><ele>737.03</ele><time>2026-05-05T16:31:02.000Z</time></trkpt>
        <trkpt lat="29.5724162" lon="103.3961287"><ele>732.98</ele><time>2026-05-05T16:31:12.000Z</time></trkpt>
        <trkpt lat="29.5725035" lon="103.3960523"><ele>730.8</ele><time>2026-05-05T16:32:06.000Z</time></trkpt>
        <trkpt lat="29.5725685" lon="103.3959649"><ele>731.39</ele><time>2026-05-05T16:32:24.000Z</time></trkpt>
        <trkpt lat="29.5726379" lon="103.3958895"><ele>728.79</ele><time>2026-05-05T16:32:40.000Z</time></trkpt>
        <trkpt lat="29.5727067" lon="103.3958204"><ele>727.66</ele><time>2026-05-05T16:32:52.000Z</time></trkpt>
        <trkpt lat="29.5727774" lon="103.3957483"><ele>725.97</ele><time>2026-05-05T16:33:06.000Z</time></trkpt>
        <trkpt lat="29.5728351" lon="103.3956561"><ele>723.92</ele><time>2026-05-05T16:33:18.000Z</time></trkpt>
        <trkpt lat="29.5728792" lon="103.39556"><ele>722.8</ele><time>2026-05-05T16:33:28.000Z</time></trkpt>
        <trkpt lat="29.5729177" lon="103.3954463"><ele>721.86</ele><time>2026-05-05T16:33:38.000Z</time></trkpt>
        <trkpt lat="29.5729546" lon="103.3953351"><ele>721.87</ele><time>2026-05-05T16:33:48.000Z</time></trkpt>
        <trkpt lat="29.5727522" lon="103.3945611"><ele>720.16</ele><time>2026-05-05T16:35:10.000Z</time></trkpt>
        <trkpt lat="29.5727568" lon="103.3944534"><ele>712.19</ele><time>2026-05-05T16:35:36.000Z</time></trkpt>
        <trkpt lat="29.5732314" lon="103.3937296"><ele>709.42</ele><time>2026-05-05T16:37:17.000Z</time></trkpt>
        <trkpt lat="29.5733246" lon="103.3937285"><ele>698.19</ele><time>2026-05-05T16:38:27.000Z</time></trkpt>
        <trkpt lat="29.5733606" lon="103.3936228"><ele>692.27</ele><time>2026-05-05T16:38:35.000Z</time></trkpt>
        <trkpt lat="29.5734371" lon="103.3935542"><ele>690.86</ele><time>2026-05-05T16:38:43.000Z</time></trkpt>
        <trkpt lat="29.5735073" lon="103.393547"><ele>688.17</ele><time>2026-05-05T16:38:50.000Z</time></trkpt>
        <trkpt lat="29.5735989" lon="103.3935208"><ele>685.59</ele><time>2026-05-05T16:39:09.000Z</time></trkpt>
        <trkpt lat="29.5736772" lon="103.3934578"><ele>684.7</ele><time>2026-05-05T16:39:29.000Z</time></trkpt>
        <trkpt lat="29.573766" lon="103.3934116"><ele>684.69</ele><time>2026-05-05T16:39:39.000Z</time></trkpt>
        <trkpt lat="29.5738587" lon="103.3933685"><ele>683.72</ele><time>2026-05-05T16:39:49.000Z</time></trkpt>
        <trkpt lat="29.5739279" lon="103.3932955"><ele>682.32</ele><time>2026-05-05T16:39:59.000Z</time></trkpt>
        <trkpt lat="29.5739786" lon="103.3932008"><ele>681.2</ele><time>2026-05-05T16:40:11.000Z</time></trkpt>
        <trkpt lat="29.5740188" lon="103.3931006"><ele>679.44</ele><time>2026-05-05T16:40:25.000Z</time></trkpt>
        <trkpt lat="29.5740458" lon="103.3929869"><ele>678.04</ele><time>2026-05-05T16:40:43.000Z</time></trkpt>
        <trkpt lat="29.5740625" lon="103.3928788"><ele>677.71</ele><time>2026-05-05T16:40:55.000Z</time></trkpt>
        <trkpt lat="29.574093" lon="103.3927803"><ele>678.66</ele><time>2026-05-05T16:41:11.000Z</time></trkpt>
        <trkpt lat="29.5741395" lon="103.3926857"><ele>678.64</ele><time>2026-05-05T16:41:25.000Z</time></trkpt>
        <trkpt lat="29.5741588" lon="103.3925813"><ele>678.82</ele><time>2026-05-05T16:41:39.000Z</time></trkpt>
        <trkpt lat="29.5741087" lon="103.3924742"><ele>680.36</ele><time>2026-05-05T16:42:05.000Z</time></trkpt>
        <trkpt lat="29.574192" lon="103.3923422"><ele>672.1</ele><time>2026-05-05T16:42:36.000Z</time></trkpt>
        <trkpt lat="29.574192" lon="103.3923422"><ele>672.1</ele><time>2026-05-05T16:42:45.000Z</time></trkpt>
      </trkseg>
      <trkseg>
        <trkpt lat="29.5741825" lon="103.3922197"><ele>664.02</ele><time>2026-05-05T16:42:48.000Z</time></trkpt>
        <trkpt lat="29.5741825" lon="103.3922197"><ele>664.02</ele><time>2026-05-05T16:43:08.000Z</time></trkpt>
        <trkpt lat="29.5741444" lon="103.3921093"><ele>657.1</ele><time>2026-05-05T16:43:20.000Z</time></trkpt>
        <trkpt lat="29.5740717" lon="103.3920249"><ele>656.26</ele><time>2026-05-05T16:43:40.000Z</time></trkpt>
        <trkpt lat="29.5739758" lon="103.3920306"><ele>658.76</ele><time>2026-05-05T16:43:54.000Z</time></trkpt>
        <trkpt lat="29.5738775" lon="103.3920564"><ele>659.19</ele><time>2026-05-05T16:44:04.000Z</time></trkpt>
        <trkpt lat="29.5737791" lon="103.3921026"><ele>658.77</ele><time>2026-05-05T16:44:20.000Z</time></trkpt>
        <trkpt lat="29.5736905" lon="103.3920864"><ele>657</ele><time>2026-05-05T16:44:28.000Z</time></trkpt>
        <trkpt lat="29.573608" lon="103.3920246"><ele>656.89</ele><time>2026-05-05T16:44:38.000Z</time></trkpt>
        <trkpt lat="29.5735632" lon="103.3919261"><ele>657.14</ele><time>2026-05-05T16:44:46.000Z</time></trkpt>
        <trkpt lat="29.5735491" lon="103.3919277"><ele>655.5</ele><time>2026-05-05T16:44:48.000Z</time></trkpt>
        <trkpt lat="29.5735253" lon="103.3918635"><ele>654.45</ele><time>2026-05-05T16:45:40.000Z</time></trkpt>
        <trkpt lat="29.5734504" lon="103.3918522"><ele>655.63</ele><time>2026-05-05T16:46:14.000Z</time></trkpt>
        <trkpt lat="29.5733559" lon="103.3918758"><ele>653.55</ele><time>2026-05-05T16:46:33.000Z</time></trkpt>
        <trkpt lat="29.5733942" lon="103.3919366"><ele>652.88</ele><time>2026-05-05T16:46:55.000Z</time></trkpt>
        <trkpt lat="29.5734792" lon="103.3919095"><ele>652.88</ele><time>2026-05-05T16:46:59.000Z</time></trkpt>
        <trkpt lat="29.5734821" lon="103.391827"><ele>652.12</ele><time>2026-05-05T16:47:19.000Z</time></trkpt>
        <trkpt lat="29.5734253" lon="103.3917397"><ele>652.79</ele><time>2026-05-05T16:47:33.000Z</time></trkpt>
        <trkpt lat="29.5733315" lon="103.3917069"><ele>654.97</ele><time>2026-05-05T16:47:45.000Z</time></trkpt>
        <trkpt lat="29.5732268" lon="103.3917103"><ele>656.56</ele><time>2026-05-05T16:47:59.000Z</time></trkpt>
        <trkpt lat="29.5731299" lon="103.3916929"><ele>660.9</ele><time>2026-05-05T16:48:17.000Z</time></trkpt>
        <trkpt lat="29.573026" lon="103.391714"><ele>664.22</ele><time>2026-05-05T16:48:33.000Z</time></trkpt>
        <trkpt lat="29.5729241" lon="103.3917453"><ele>665.52</ele><time>2026-05-05T16:48:41.000Z</time></trkpt>
        <trkpt lat="29.5728308" lon="103.3917906"><ele>666.2</ele><time>2026-05-05T16:48:53.000Z</time></trkpt>
        <trkpt lat="29.5727345" lon="103.3918218"><ele>666.91</ele><time>2026-05-05T16:49:05.000Z</time></trkpt>
        <trkpt lat="29.5726444" lon="103.3917979"><ele>668.94</ele><time>2026-05-05T16:49:21.000Z</time></trkpt>
        <trkpt lat="29.5725504" lon="103.391816"><ele>669.42</ele><time>2026-05-05T16:49:35.000Z</time></trkpt>
        <trkpt lat="29.5724504" lon="103.391795"><ele>667.44</ele><time>2026-05-05T16:49:47.000Z</time></trkpt>
        <trkpt lat="29.5723563" lon="103.3917389"><ele>667.36</ele><time>2026-05-05T16:49:59.000Z</time></trkpt>
        <trkpt lat="29.5722532" lon="103.3917054"><ele>668.27</ele><time>2026-05-05T16:50:11.000Z</time></trkpt>
        <trkpt lat="29.5721633" lon="103.3916404"><ele>668.86</ele><time>2026-05-05T16:50:23.000Z</time></trkpt>
        <trkpt lat="29.5720803" lon="103.3916545"><ele>668.79</ele><time>2026-05-05T16:50:35.000Z</time></trkpt>
        <trkpt lat="29.5719873" lon="103.3916494"><ele>669.26</ele><time>2026-05-05T16:50:45.000Z</time></trkpt>
        <trkpt lat="29.571897" lon="103.3916631"><ele>669.42</ele><time>2026-05-05T16:50:55.000Z</time></trkpt>
        <trkpt lat="29.571807" lon="103.3916733"><ele>670.97</ele><time>2026-05-05T16:51:05.000Z</time></trkpt>
        <trkpt lat="29.571723" lon="103.3916321"><ele>672.93</ele><time>2026-05-05T16:51:15.000Z</time></trkpt>
        <trkpt lat="29.5716331" lon="103.3916294"><ele>673.26</ele><time>2026-05-05T16:51:29.000Z</time></trkpt>
        <trkpt lat="29.5715357" lon="103.3916265"><ele>674.21</ele><time>2026-05-05T16:51:37.000Z</time></trkpt>
        <trkpt lat="29.5714293" lon="103.3916264"><ele>674.85</ele><time>2026-05-05T16:51:49.000Z</time></trkpt>
        <trkpt lat="29.5713225" lon="103.3916315"><ele>674.63</ele><time>2026-05-05T16:51:59.000Z</time></trkpt>
        <trkpt lat="29.5712227" lon="103.3916546"><ele>674.38</ele><time>2026-05-05T16:52:11.000Z</time></trkpt>
        <trkpt lat="29.5711301" lon="103.3916562"><ele>674.07</ele><time>2026-05-05T16:52:25.000Z</time></trkpt>
        <trkpt lat="29.5710346" lon="103.3916324"><ele>675.17</ele><time>2026-05-05T16:52:41.000Z</time></trkpt>
        <trkpt lat="29.5709348" lon="103.3916044"><ele>676.71</ele><time>2026-05-05T16:52:53.000Z</time></trkpt>
        <trkpt lat="29.5708682" lon="103.3915782"><ele>677.17</ele><time>2026-05-05T16:53:03.000Z</time></trkpt>
        <trkpt lat="29.5707849" lon="103.3915481"><ele>677.11</ele><time>2026-05-05T16:53:51.000Z</time></trkpt>
        <trkpt lat="29.5706857" lon="103.3915218"><ele>675.96</ele><time>2026-05-05T16:54:03.000Z</time></trkpt>
        <trkpt lat="29.5705947" lon="103.3915442"><ele>673.8</ele><time>2026-05-05T16:54:15.000Z</time></trkpt>
        <trkpt lat="29.570526" lon="103.3914886"><ele>672.21</ele><time>2026-05-05T16:54:47.000Z</time></trkpt>
        <trkpt lat="29.5704669" lon="103.3914011"><ele>669.65</ele><time>2026-05-05T16:55:13.000Z</time></trkpt>
        <trkpt lat="29.5703954" lon="103.3913109"><ele>667.09</ele><time>2026-05-05T16:55:23.000Z</time></trkpt>
        <trkpt lat="29.5703102" lon="103.3912463"><ele>665.4</ele><time>2026-05-05T16:55:35.000Z</time></trkpt>
        <trkpt lat="29.5702485" lon="103.3912289"><ele>663.33</ele><time>2026-05-05T16:55:41.000Z</time></trkpt>
        <trkpt lat="29.5701645" lon="103.3912468"><ele>662.59</ele><time>2026-05-05T16:55:58.000Z</time></trkpt>
        <trkpt lat="29.5700688" lon="103.3912574"><ele>662.72</ele><time>2026-05-05T16:56:08.000Z</time></trkpt>
        <trkpt lat="29.56997" lon="103.3912295"><ele>664.15</ele><time>2026-05-05T16:56:18.000Z</time></trkpt>
        <trkpt lat="29.5698665" lon="103.3912014"><ele>665.44</ele><time>2026-05-05T16:56:35.000Z</time></trkpt>
        <trkpt lat="29.5697658" lon="103.3911784"><ele>667.02</ele><time>2026-05-05T16:56:45.000Z</time></trkpt>
        <trkpt lat="29.569669" lon="103.3911401"><ele>667.95</ele><time>2026-05-05T16:56:55.000Z</time></trkpt>
        <trkpt lat="29.5695711" lon="103.3911237"><ele>668.19</ele><time>2026-05-05T16:57:05.000Z</time></trkpt>
        <trkpt lat="29.569484" lon="103.3910894"><ele>668.61</ele><time>2026-05-05T16:57:17.000Z</time></trkpt>
        <trkpt lat="29.5693991" lon="103.3910506"><ele>669.96</ele><time>2026-05-05T16:57:29.000Z</time></trkpt>
        <trkpt lat="29.5693865" lon="103.3909582"><ele>671.22</ele><time>2026-05-05T16:58:03.000Z</time></trkpt>
        <trkpt lat="29.5693101" lon="103.3909189"><ele>669.49</ele><time>2026-05-05T16:58:29.000Z</time></trkpt>
        <trkpt lat="29.5692731" lon="103.3908316"><ele>670.05</ele><time>2026-05-05T16:58:37.000Z</time></trkpt>
        <trkpt lat="29.5691952" lon="103.3908343"><ele>670.5</ele><time>2026-05-05T16:58:49.000Z</time></trkpt>
        <trkpt lat="29.5691096" lon="103.3908739"><ele>670.71</ele><time>2026-05-05T16:58:57.000Z</time></trkpt>
        <trkpt lat="29.5690103" lon="103.3909258"><ele>671.38</ele><time>2026-05-05T16:59:09.000Z</time></trkpt>
        <trkpt lat="29.568914" lon="103.3909732"><ele>672.17</ele><time>2026-05-05T16:59:21.000Z</time></trkpt>
        <trkpt lat="29.5688347" lon="103.3910422"><ele>673.6</ele><time>2026-05-05T16:59:33.000Z</time></trkpt>
        <trkpt lat="29.568789" lon="103.3910591"><ele>672.22</ele><time>2026-05-05T16:59:39.000Z</time></trkpt>
        <trkpt lat="29.5687994" lon="103.3911426"><ele>670.92</ele><time>2026-05-05T16:59:49.000Z</time></trkpt>
        <trkpt lat="29.5687395" lon="103.3912326"><ele>671.62</ele><time>2026-05-05T17:00:11.000Z</time></trkpt>
        <trkpt lat="29.5686473" lon="103.3912454"><ele>673.01</ele><time>2026-05-05T17:00:35.000Z</time></trkpt>
        <trkpt lat="29.5685512" lon="103.3911896"><ele>673.1</ele><time>2026-05-05T17:00:43.000Z</time></trkpt>
        <trkpt lat="29.5685096" lon="103.3910618"><ele>672.48</ele><time>2026-05-05T17:00:49.000Z</time></trkpt>
        <trkpt lat="29.5684739" lon="103.3909328"><ele>670.63</ele><time>2026-05-05T17:00:57.000Z</time></trkpt>
        <trkpt lat="29.5684384" lon="103.3908146"><ele>670.07</ele><time>2026-05-05T17:01:07.000Z</time></trkpt>
        <trkpt lat="29.5683802" lon="103.3907297"><ele>670.14</ele><time>2026-05-05T17:01:31.000Z</time></trkpt>
        <trkpt lat="29.5684513" lon="103.3907699"><ele>670.64</ele><time>2026-05-05T17:02:12.000Z</time></trkpt>
        <trkpt lat="29.5685263" lon="103.3908778"><ele>679.58</ele><time>2026-05-05T17:02:15.000Z</time></trkpt>
        <trkpt lat="29.5684789" lon="103.3909111"><ele>677.11</ele><time>2026-05-05T17:02:29.000Z</time></trkpt>
        <trkpt lat="29.568377" lon="103.3909438"><ele>679.44</ele><time>2026-05-05T17:02:54.000Z</time></trkpt>
        <trkpt lat="29.5682682" lon="103.3909707"><ele>681.11</ele><time>2026-05-05T17:03:06.000Z</time></trkpt>
        <trkpt lat="29.568159" lon="103.3909828"><ele>688.41</ele><time>2026-05-05T17:03:22.000Z</time></trkpt>
        <trkpt lat="29.5680779" lon="103.3909155"><ele>698.07</ele><time>2026-05-05T17:03:36.000Z</time></trkpt>
        <trkpt lat="29.565998" lon="103.3897105"><ele>704.14</ele><time>2026-05-05T17:08:26.000Z</time></trkpt>
        <trkpt lat="29.5659244" lon="103.3897718"><ele>709.83</ele><time>2026-05-05T17:08:52.000Z</time></trkpt>
        <trkpt lat="29.5658428" lon="103.3898236"><ele>713.49</ele><time>2026-05-05T17:09:00.000Z</time></trkpt>
        <trkpt lat="29.5657482" lon="103.3898293"><ele>715.2</ele><time>2026-05-05T17:09:10.000Z</time></trkpt>
        <trkpt lat="29.5656534" lon="103.389827"><ele>716.24</ele><time>2026-05-05T17:09:26.000Z</time></trkpt>
        <trkpt lat="29.5656182" lon="103.3897315"><ele>717.97</ele><time>2026-05-05T17:09:44.000Z</time></trkpt>
        <trkpt lat="29.5655483" lon="103.3896664"><ele>719.99</ele><time>2026-05-05T17:09:58.000Z</time></trkpt>
        <trkpt lat="29.5654677" lon="103.3896127"><ele>722.94</ele><time>2026-05-05T17:10:12.000Z</time></trkpt>
        <trkpt lat="29.5653812" lon="103.3895634"><ele>722.92</ele><time>2026-05-05T17:10:22.000Z</time></trkpt>
        <trkpt lat="29.5652861" lon="103.3895228"><ele>721.29</ele><time>2026-05-05T17:10:34.000Z</time></trkpt>
        <trkpt lat="29.5652021" lon="103.3894664"><ele>721.08</ele><time>2026-05-05T17:10:44.000Z</time></trkpt>
        <trkpt lat="29.5651213" lon="103.3893914"><ele>721.06</ele><time>2026-05-05T17:10:58.000Z</time></trkpt>
        <trkpt lat="29.5650723" lon="103.3892911"><ele>718.48</ele><time>2026-05-05T17:11:10.000Z</time></trkpt>
        <trkpt lat="29.5650138" lon="103.3892001"><ele>716.6</ele><time>2026-05-05T17:11:24.000Z</time></trkpt>
        <trkpt lat="29.5648366" lon="103.3890792"><ele>714.93</ele><time>2026-05-05T17:12:18.000Z</time></trkpt>
        <trkpt lat="29.5647085" lon="103.3890456"><ele>713.23</ele><time>2026-05-05T17:12:22.000Z</time></trkpt>
        <trkpt lat="29.5646005" lon="103.3890546"><ele>711.77</ele><time>2026-05-05T17:12:34.000Z</time></trkpt>
        <trkpt lat="29.5645083" lon="103.3890791"><ele>713.9</ele><time>2026-05-05T17:12:50.000Z</time></trkpt>
        <trkpt lat="29.5644225" lon="103.3891151"><ele>714</ele><time>2026-05-05T17:13:02.000Z</time></trkpt>
        <trkpt lat="29.5643291" lon="103.3891089"><ele>716.07</ele><time>2026-05-05T17:13:16.000Z</time></trkpt>
        <trkpt lat="29.5642404" lon="103.3890791"><ele>717.6</ele><time>2026-05-05T17:13:32.000Z</time></trkpt>
        <trkpt lat="29.5641386" lon="103.3890751"><ele>715.26</ele><time>2026-05-05T17:13:44.000Z</time></trkpt>
        <trkpt lat="29.564058" lon="103.3891232"><ele>712.32</ele><time>2026-05-05T17:13:56.000Z</time></trkpt>
        <trkpt lat="29.5639963" lon="103.3892116"><ele>710.51</ele><time>2026-05-05T17:14:10.000Z</time></trkpt>
        <trkpt lat="29.5639735" lon="103.389156"><ele>712.96</ele><time>2026-05-05T17:14:34.000Z</time></trkpt>
        <trkpt lat="29.5639454" lon="103.3890591"><ele>712.45</ele><time>2026-05-05T17:14:50.000Z</time></trkpt>
        <trkpt lat="29.5638744" lon="103.3890674"><ele>710.03</ele><time>2026-05-05T17:15:00.000Z</time></trkpt>
        <trkpt lat="29.563782" lon="103.3890703"><ele>708.69</ele><time>2026-05-05T17:15:14.000Z</time></trkpt>
        <trkpt lat="29.5636767" lon="103.3890716"><ele>709.25</ele><time>2026-05-05T17:15:26.000Z</time></trkpt>
        <trkpt lat="29.5635712" lon="103.389042"><ele>711.57</ele><time>2026-05-05T17:15:38.000Z</time></trkpt>
        <trkpt lat="29.5634679" lon="103.3890181"><ele>713</ele><time>2026-05-05T17:15:50.000Z</time></trkpt>
        <trkpt lat="29.5633753" lon="103.3890504"><ele>716.29</ele><time>2026-05-05T17:16:02.000Z</time></trkpt>
        <trkpt lat="29.563322" lon="103.3891485"><ele>718.78</ele><time>2026-05-05T17:16:30.000Z</time></trkpt>
        <trkpt lat="29.5633695" lon="103.3891321"><ele>719.41</ele><time>2026-05-05T17:17:28.000Z</time></trkpt>
        <trkpt lat="29.5633522" lon="103.3891926"><ele>722.38</ele><time>2026-05-05T17:17:45.000Z</time></trkpt>
        <trkpt lat="29.563327" lon="103.389139"><ele>723.18</ele><time>2026-05-05T17:17:57.000Z</time></trkpt>
        <trkpt lat="29.5633547" lon="103.3892372"><ele>723.03</ele><time>2026-05-05T17:20:26.000Z</time></trkpt>
        <trkpt lat="29.5632254" lon="103.3892597"><ele>725.1</ele><time>2026-05-05T17:21:40.000Z</time></trkpt>
        <trkpt lat="29.5631417" lon="103.38922"><ele>729.42</ele><time>2026-05-05T17:21:48.000Z</time></trkpt>
        <trkpt lat="29.5630478" lon="103.3891915"><ele>735.73</ele><time>2026-05-05T17:22:02.000Z</time></trkpt>
        <trkpt lat="29.5629601" lon="103.3892202"><ele>739.86</ele><time>2026-05-05T17:22:16.000Z</time></trkpt>
        <trkpt lat="29.5628624" lon="103.389235"><ele>741.07</ele><time>2026-05-05T17:22:38.000Z</time></trkpt>
        <trkpt lat="29.5627687" lon="103.3892464"><ele>740.88</ele><time>2026-05-05T17:22:54.000Z</time></trkpt>
        <trkpt lat="29.5626817" lon="103.3892923"><ele>742.31</ele><time>2026-05-05T17:23:26.000Z</time></trkpt>
        <trkpt lat="29.5626141" lon="103.3893659"><ele>741.14</ele><time>2026-05-05T17:23:38.000Z</time></trkpt>
        <trkpt lat="29.5625332" lon="103.389375"><ele>739.21</ele><time>2026-05-05T17:23:54.000Z</time></trkpt>
        <trkpt lat="29.562444" lon="103.3893517"><ele>735.05</ele><time>2026-05-05T17:24:10.000Z</time></trkpt>
        <trkpt lat="29.5623871" lon="103.3892657"><ele>733.9</ele><time>2026-05-05T17:24:26.000Z</time></trkpt>
        <trkpt lat="29.5623135" lon="103.3892838"><ele>733.85</ele><time>2026-05-05T17:24:38.000Z</time></trkpt>
        <trkpt lat="29.5622414" lon="103.3893771"><ele>734.1</ele><time>2026-05-05T17:24:50.000Z</time></trkpt>
        <trkpt lat="29.5622142" lon="103.389399"><ele>734.44</ele><time>2026-05-05T17:24:58.000Z</time></trkpt>
        <trkpt lat="29.5621556" lon="103.3893593"><ele>731.65</ele><time>2026-05-05T17:25:10.000Z</time></trkpt>
        <trkpt lat="29.5620739" lon="103.3893845"><ele>730.78</ele><time>2026-05-05T17:25:30.000Z</time></trkpt>
        <trkpt lat="29.5619799" lon="103.3893749"><ele>730.88</ele><time>2026-05-05T17:25:46.000Z</time></trkpt>
        <trkpt lat="29.5619213" lon="103.3894464"><ele>732.74</ele><time>2026-05-05T17:26:08.000Z</time></trkpt>
        <trkpt lat="29.5618415" lon="103.3894695"><ele>732.75</ele><time>2026-05-05T17:26:16.000Z</time></trkpt>
        <trkpt lat="29.561747" lon="103.3894407"><ele>733.75</ele><time>2026-05-05T17:26:48.000Z</time></trkpt>
        <trkpt lat="29.5616592" lon="103.38938"><ele>734.5</ele><time>2026-05-05T17:26:58.000Z</time></trkpt>
        <trkpt lat="29.5615643" lon="103.3893346"><ele>736.67</ele><time>2026-05-05T17:27:08.000Z</time></trkpt>
        <trkpt lat="29.5614643" lon="103.3892939"><ele>736.86</ele><time>2026-05-05T17:27:18.000Z</time></trkpt>
        <trkpt lat="29.5613645" lon="103.3892682"><ele>736.11</ele><time>2026-05-05T17:27:28.000Z</time></trkpt>
        <trkpt lat="29.5612706" lon="103.389268"><ele>736.18</ele><time>2026-05-05T17:27:38.000Z</time></trkpt>
        <trkpt lat="29.5611788" lon="103.3892662"><ele>736.64</ele><time>2026-05-05T17:27:48.000Z</time></trkpt>
        <trkpt lat="29.5610807" lon="103.3892828"><ele>738.3</ele><time>2026-05-05T17:28:00.000Z</time></trkpt>
        <trkpt lat="29.560987" lon="103.3893042"><ele>741.43</ele><time>2026-05-05T17:28:10.000Z</time></trkpt>
        <trkpt lat="29.5608992" lon="103.3893383"><ele>743.2</ele><time>2026-05-05T17:28:20.000Z</time></trkpt>
        <trkpt lat="29.5608132" lon="103.3893817"><ele>743.69</ele><time>2026-05-05T17:28:28.000Z</time></trkpt>
        <trkpt lat="29.5607171" lon="103.3894258"><ele>743.5</ele><time>2026-05-05T17:28:38.000Z</time></trkpt>
        <trkpt lat="29.5606238" lon="103.3894407"><ele>742.88</ele><time>2026-05-05T17:28:46.000Z</time></trkpt>
        <trkpt lat="29.5605305" lon="103.3894816"><ele>743.56</ele><time>2026-05-05T17:28:54.000Z</time></trkpt>
        <trkpt lat="29.5604382" lon="103.389496"><ele>744.28</ele><time>2026-05-05T17:29:08.000Z</time></trkpt>
        <trkpt lat="29.5603442" lon="103.3894781"><ele>743.58</ele><time>2026-05-05T17:29:18.000Z</time></trkpt>
        <trkpt lat="29.5602505" lon="103.3894327"><ele>745.21</ele><time>2026-05-05T17:29:30.000Z</time></trkpt>
        <trkpt lat="29.5602411" lon="103.3893286"><ele>747.77</ele><time>2026-05-05T17:29:48.000Z</time></trkpt>
        <trkpt lat="29.5601981" lon="103.3892359"><ele>748.29</ele><time>2026-05-05T17:30:12.000Z</time></trkpt>
        <trkpt lat="29.5601599" lon="103.3891293"><ele>750.08</ele><time>2026-05-05T17:30:30.000Z</time></trkpt>
        <trkpt lat="29.560128" lon="103.3890192"><ele>750.73</ele><time>2026-05-05T17:30:56.000Z</time></trkpt>
        <trkpt lat="29.5600956" lon="103.3889145"><ele>752.33</ele><time>2026-05-05T17:31:08.000Z</time></trkpt>
        <trkpt lat="29.5601027" lon="103.3888058"><ele>755.2</ele><time>2026-05-05T17:31:28.000Z</time></trkpt>
        <trkpt lat="29.5601608" lon="103.3887241"><ele>759.59</ele><time>2026-05-05T17:31:40.000Z</time></trkpt>
        <trkpt lat="29.5601074" lon="103.388674"><ele>761.67</ele><time>2026-05-05T17:31:52.000Z</time></trkpt>
        <trkpt lat="29.5599162" lon="103.3886233"><ele>762.66</ele><time>2026-05-05T17:32:56.000Z</time></trkpt>
        <trkpt lat="29.5598247" lon="103.3885121"><ele>748.04</ele><time>2026-05-05T17:33:00.000Z</time></trkpt>
        <trkpt lat="29.5597379" lon="103.3883979"><ele>729.42</ele><time>2026-05-05T17:33:04.000Z</time></trkpt>
        <trkpt lat="29.5596623" lon="103.3883088"><ele>729.03</ele><time>2026-05-05T17:33:08.000Z</time></trkpt>
        <trkpt lat="29.5595859" lon="103.3882327"><ele>736.67</ele><time>2026-05-05T17:33:12.000Z</time></trkpt>
        <trkpt lat="29.5595042" lon="103.3881748"><ele>745.17</ele><time>2026-05-05T17:33:20.000Z</time></trkpt>
        <trkpt lat="29.5594123" lon="103.3881351"><ele>753.52</ele><time>2026-05-05T17:33:30.000Z</time></trkpt>
        <trkpt lat="29.5593364" lon="103.3880763"><ele>759.59</ele><time>2026-05-05T17:33:42.000Z</time></trkpt>
        <trkpt lat="29.55927" lon="103.388004"><ele>761.91</ele><time>2026-05-05T17:33:54.000Z</time></trkpt>
        <trkpt lat="29.5591834" lon="103.3879641"><ele>762.41</ele><time>2026-05-05T17:34:04.000Z</time></trkpt>
        <trkpt lat="29.5590847" lon="103.3879726"><ele>761.2</ele><time>2026-05-05T17:34:14.000Z</time></trkpt>
        <trkpt lat="29.5589905" lon="103.3879692"><ele>761.13</ele><time>2026-05-05T17:34:28.000Z</time></trkpt>
        <trkpt lat="29.558895" lon="103.3879399"><ele>762.72</ele><time>2026-05-05T17:34:42.000Z</time></trkpt>
        <trkpt lat="29.5588038" lon="103.3879159"><ele>764.47</ele><time>2026-05-05T17:34:54.000Z</time></trkpt>
        <trkpt lat="29.558711" lon="103.3878735"><ele>766.79</ele><time>2026-05-05T17:35:04.000Z</time></trkpt>
        <trkpt lat="29.5584934" lon="103.3876847"><ele>767.17</ele><time>2026-05-05T17:35:36.000Z</time></trkpt>
        <trkpt lat="29.5583593" lon="103.3875707"><ele>768.4</ele><time>2026-05-05T17:35:49.000Z</time></trkpt>
        <trkpt lat="29.5582685" lon="103.3874998"><ele>771.68</ele><time>2026-05-05T17:35:59.000Z</time></trkpt>
        <trkpt lat="29.5582098" lon="103.3874239"><ele>772.33</ele><time>2026-05-05T17:36:11.000Z</time></trkpt>
        <trkpt lat="29.5581533" lon="103.3873508"><ele>772.98</ele><time>2026-05-05T17:36:27.000Z</time></trkpt>
        <trkpt lat="29.5580808" lon="103.3873028"><ele>775.9</ele><time>2026-05-05T17:36:47.000Z</time></trkpt>
        <trkpt lat="29.5579988" lon="103.3872484"><ele>778.37</ele><time>2026-05-05T17:37:07.000Z</time></trkpt>
        <trkpt lat="29.5579177" lon="103.3871886"><ele>780.17</ele><time>2026-05-05T17:37:19.000Z</time></trkpt>
        <trkpt lat="29.557825" lon="103.3871408"><ele>779.79</ele><time>2026-05-05T17:37:31.000Z</time></trkpt>
        <trkpt lat="29.5577357" lon="103.387093"><ele>779.65</ele><time>2026-05-05T17:37:43.000Z</time></trkpt>
        <trkpt lat="29.5576666" lon="103.3870254"><ele>779.82</ele><time>2026-05-05T17:37:57.000Z</time></trkpt>
        <trkpt lat="29.5576711" lon="103.3869267"><ele>781.39</ele><time>2026-05-05T17:38:11.000Z</time></trkpt>
        <trkpt lat="29.5576539" lon="103.3868234"><ele>783.07</ele><time>2026-05-05T17:38:27.000Z</time></trkpt>
        <trkpt lat="29.5575826" lon="103.3867508"><ele>785.48</ele><time>2026-05-05T17:38:43.000Z</time></trkpt>
        <trkpt lat="29.5575235" lon="103.3866578"><ele>785.49</ele><time>2026-05-05T17:38:55.000Z</time></trkpt>
        <trkpt lat="29.5574529" lon="103.3865721"><ele>785.37</ele><time>2026-05-05T17:39:09.000Z</time></trkpt>
        <trkpt lat="29.5573617" lon="103.3865201"><ele>786.78</ele><time>2026-05-05T17:39:23.000Z</time></trkpt>
        <trkpt lat="29.5572597" lon="103.3864933"><ele>787.55</ele><time>2026-05-05T17:39:39.000Z</time></trkpt>
        <trkpt lat="29.5571692" lon="103.3864452"><ele>787.71</ele><time>2026-05-05T17:39:55.000Z</time></trkpt>
        <trkpt lat="29.5570732" lon="103.3864545"><ele>788.98</ele><time>2026-05-05T17:40:11.000Z</time></trkpt>
        <trkpt lat="29.5569995" lon="103.3864078"><ele>788.15</ele><time>2026-05-05T17:40:25.000Z</time></trkpt>
        <trkpt lat="29.5569887" lon="103.3863065"><ele>787.03</ele><time>2026-05-05T17:40:39.000Z</time></trkpt>
        <trkpt lat="29.5569628" lon="103.3861986"><ele>786.02</ele><time>2026-05-05T17:40:51.000Z</time></trkpt>
        <trkpt lat="29.5568979" lon="103.3861194"><ele>785.76</ele><time>2026-05-05T17:41:01.000Z</time></trkpt>
        <trkpt lat="29.5568368" lon="103.3860391"><ele>784.8</ele><time>2026-05-05T17:41:11.000Z</time></trkpt>
        <trkpt lat="29.5567435" lon="103.3860309"><ele>785.56</ele><time>2026-05-05T17:41:59.000Z</time></trkpt>
        <trkpt lat="29.5566544" lon="103.3860902"><ele>786.49</ele><time>2026-05-05T17:42:13.000Z</time></trkpt>
        <trkpt lat="29.556562" lon="103.3861248"><ele>786.88</ele><time>2026-05-05T17:42:30.000Z</time></trkpt>
        <trkpt lat="29.5564682" lon="103.3861341"><ele>786.89</ele><time>2026-05-05T17:43:09.000Z</time></trkpt>
        <trkpt lat="29.5564306" lon="103.3861054"><ele>790.91</ele><time>2026-05-05T17:43:17.000Z</time></trkpt>
        <trkpt lat="29.5564473" lon="103.3860071"><ele>794.76</ele><time>2026-05-05T17:43:33.000Z</time></trkpt>
        <trkpt lat="29.556416" lon="103.3859668"><ele>798.59</ele><time>2026-05-05T17:44:07.000Z</time></trkpt>
        <trkpt lat="29.5563437" lon="103.3860002"><ele>803.83</ele><time>2026-05-05T17:44:55.000Z</time></trkpt>
        <trkpt lat="29.5562483" lon="103.3860347"><ele>809.72</ele><time>2026-05-05T17:45:37.000Z</time></trkpt>
        <trkpt lat="29.5561549" lon="103.3860718"><ele>813.57</ele><time>2026-05-05T17:45:57.000Z</time></trkpt>
        <trkpt lat="29.556055" lon="103.3860968"><ele>817.37</ele><time>2026-05-05T17:47:01.000Z</time></trkpt>
        <trkpt lat="29.5556857" lon="103.3852188"><ele>820.94</ele><time>2026-05-05T17:57:34.000Z</time></trkpt>
        <trkpt lat="29.5557009" lon="103.385112"><ele>850.5</ele><time>2026-05-05T17:57:47.000Z</time></trkpt>
        <trkpt lat="29.5556267" lon="103.3850907"><ele>872.28</ele><time>2026-05-05T17:58:34.000Z</time></trkpt>
        <trkpt lat="29.5555324" lon="103.3850905"><ele>884.81</ele><time>2026-05-05T17:58:56.000Z</time></trkpt>
        <trkpt lat="29.5554364" lon="103.3851188"><ele>892.94</ele><time>2026-05-05T17:59:16.000Z</time></trkpt>
        <trkpt lat="29.5554814" lon="103.3850522"><ele>899.15</ele><time>2026-05-05T18:01:53.000Z</time></trkpt>
        <trkpt lat="29.5554282" lon="103.3851405"><ele>902.36</ele><time>2026-05-05T18:03:02.000Z</time></trkpt>
        <trkpt lat="29.5556913" lon="103.385257"><ele>903.71</ele><time>2026-05-05T18:06:34.000Z</time></trkpt>
        <trkpt lat="29.5557075" lon="103.3851525"><ele>898.02</ele><time>2026-05-05T18:08:14.000Z</time></trkpt>
        <trkpt lat="29.555638" lon="103.3850862"><ele>898.24</ele><time>2026-05-05T18:08:39.000Z</time></trkpt>
        <trkpt lat="29.5555433" lon="103.3850709"><ele>898.17</ele><time>2026-05-05T18:09:19.000Z</time></trkpt>
        <trkpt lat="29.55545" lon="103.3850585"><ele>899.56</ele><time>2026-05-05T18:09:37.000Z</time></trkpt>
        <trkpt lat="29.5555534" lon="103.3850755"><ele>898.59</ele><time>2026-05-05T18:11:00.000Z</time></trkpt>
        <trkpt lat="29.5556508" lon="103.385091"><ele>901.03</ele><time>2026-05-05T18:13:51.000Z</time></trkpt>
        <trkpt lat="29.5556981" lon="103.3851852"><ele>901.61</ele><time>2026-05-05T18:14:14.000Z</time></trkpt>
        <trkpt lat="29.5555708" lon="103.3852404"><ele>900.35</ele><time>2026-05-05T18:16:05.000Z</time></trkpt>
        <trkpt lat="29.5556626" lon="103.3852416"><ele>895.41</ele><time>2026-05-05T18:17:19.000Z</time></trkpt>
        <trkpt lat="29.5556889" lon="103.385134"><ele>896.15</ele><time>2026-05-05T18:17:25.000Z</time></trkpt>
        <trkpt lat="29.5556156" lon="103.3850914"><ele>899.9</ele><time>2026-05-05T18:17:48.000Z</time></trkpt>
        <trkpt lat="29.5555303" lon="103.3850494"><ele>901.13</ele><time>2026-05-05T18:18:07.000Z</time></trkpt>
        <trkpt lat="29.5554534" lon="103.3850998"><ele>901.95</ele><time>2026-05-05T18:18:17.000Z</time></trkpt>
        <trkpt lat="29.5554403" lon="103.3850251"><ele>903.42</ele><time>2026-05-05T18:21:14.000Z</time></trkpt>
        <trkpt lat="29.5553765" lon="103.3849468"><ele>903.71</ele><time>2026-05-05T18:21:28.000Z</time></trkpt>
        <trkpt lat="29.5552905" lon="103.3849676"><ele>903.39</ele><time>2026-05-05T18:21:44.000Z</time></trkpt>
        <trkpt lat="29.5551997" lon="103.3849978"><ele>906.5</ele><time>2026-05-05T18:22:00.000Z</time></trkpt>
        <trkpt lat="29.555109" lon="103.3849976"><ele>909.88</ele><time>2026-05-05T18:22:20.000Z</time></trkpt>
        <trkpt lat="29.555008" lon="103.3849984"><ele>913.84</ele><time>2026-05-05T18:22:36.000Z</time></trkpt>
        <trkpt lat="29.5549405" lon="103.3849353"><ele>917.29</ele><time>2026-05-05T18:22:50.000Z</time></trkpt>
        <trkpt lat="29.5548635" lon="103.3848661"><ele>921</ele><time>2026-05-05T18:23:06.000Z</time></trkpt>
        <trkpt lat="29.5546095" lon="103.384601"><ele>924.16</ele><time>2026-05-05T18:24:21.000Z</time></trkpt>
        <trkpt lat="29.5546736" lon="103.384526"><ele>930.65</ele><time>2026-05-05T18:25:07.000Z</time></trkpt>
        <trkpt lat="29.5547557" lon="103.3844794"><ele>934.77</ele><time>2026-05-05T18:25:25.000Z</time></trkpt>
        <trkpt lat="29.554846" lon="103.3844532"><ele>939.45</ele><time>2026-05-05T18:25:47.000Z</time></trkpt>
        <trkpt lat="29.5549124" lon="103.3843709"><ele>945.38</ele><time>2026-05-05T18:27:03.000Z</time></trkpt>
        <trkpt lat="29.5549738" lon="103.3842954"><ele>948.72</ele><time>2026-05-05T18:27:53.000Z</time></trkpt>
        <trkpt lat="29.5550536" lon="103.3842476"><ele>951.39</ele><time>2026-05-05T18:28:09.000Z</time></trkpt>
        <trkpt lat="29.5550834" lon="103.3841563"><ele>955.09</ele><time>2026-05-05T18:28:31.000Z</time></trkpt>
        <trkpt lat="29.5550239" lon="103.3840926"><ele>957.95</ele><time>2026-05-05T18:28:53.000Z</time></trkpt>
        <trkpt lat="29.5549729" lon="103.3839932"><ele>960.16</ele><time>2026-05-05T18:29:05.000Z</time></trkpt>
        <trkpt lat="29.5549524" lon="103.3838789"><ele>963.13</ele><time>2026-05-05T18:29:15.000Z</time></trkpt>
        <trkpt lat="29.5549913" lon="103.3837765"><ele>963.38</ele><time>2026-05-05T18:29:27.000Z</time></trkpt>
        <trkpt lat="29.5550472" lon="103.3836744"><ele>963.78</ele><time>2026-05-05T18:29:39.000Z</time></trkpt>
        <trkpt lat="29.5550353" lon="103.3835725"><ele>964.26</ele><time>2026-05-05T18:29:51.000Z</time></trkpt>
        <trkpt lat="29.5549904" lon="103.3834701"><ele>963.28</ele><time>2026-05-05T18:30:03.000Z</time></trkpt>
        <trkpt lat="29.5549031" lon="103.3834067"><ele>962.18</ele><time>2026-05-05T18:30:13.000Z</time></trkpt>
        <trkpt lat="29.5548128" lon="103.3833569"><ele>962.02</ele><time>2026-05-05T18:30:23.000Z</time></trkpt>
        <trkpt lat="29.5547244" lon="103.383299"><ele>962.14</ele><time>2026-05-05T18:30:35.000Z</time></trkpt>
        <trkpt lat="29.5546326" lon="103.3832404"><ele>961.94</ele><time>2026-05-05T18:30:47.000Z</time></trkpt>
        <trkpt lat="29.5545482" lon="103.383177"><ele>962.4</ele><time>2026-05-05T18:30:59.000Z</time></trkpt>
        <trkpt lat="29.5544729" lon="103.3831139"><ele>962.89</ele><time>2026-05-05T18:31:09.000Z</time></trkpt>
        <trkpt lat="29.5544365" lon="103.3830204"><ele>964.51</ele><time>2026-05-05T18:31:27.000Z</time></trkpt>
        <trkpt lat="29.5543717" lon="103.3829508"><ele>967.53</ele><time>2026-05-05T18:31:43.000Z</time></trkpt>
        <trkpt lat="29.5543692" lon="103.3828521"><ele>968.25</ele><time>2026-05-05T18:32:05.000Z</time></trkpt>
        <trkpt lat="29.5544245" lon="103.3827478"><ele>969.46</ele><time>2026-05-05T18:33:05.000Z</time></trkpt>
        <trkpt lat="29.5544306" lon="103.3826374"><ele>971.05</ele><time>2026-05-05T18:33:27.000Z</time></trkpt>
        <trkpt lat="29.5543626" lon="103.3825609"><ele>976.07</ele><time>2026-05-05T18:35:39.000Z</time></trkpt>
        <trkpt lat="29.5543016" lon="103.3824778"><ele>980.98</ele><time>2026-05-05T18:35:57.000Z</time></trkpt>
        <trkpt lat="29.5542424" lon="103.3823969"><ele>985.87</ele><time>2026-05-05T18:36:15.000Z</time></trkpt>
        <trkpt lat="29.5542194" lon="103.3822911"><ele>988.34</ele><time>2026-05-05T18:36:29.000Z</time></trkpt>
        <trkpt lat="29.5542263" lon="103.3821803"><ele>989.72</ele><time>2026-05-05T18:36:47.000Z</time></trkpt>
        <trkpt lat="29.5542329" lon="103.3820726"><ele>990.94</ele><time>2026-05-05T18:37:03.000Z</time></trkpt>
        <trkpt lat="29.5542215" lon="103.3819555"><ele>990.44</ele><time>2026-05-05T18:37:17.000Z</time></trkpt>
        <trkpt lat="29.5540528" lon="103.3807171"><ele>990.59</ele><time>2026-05-05T18:40:51.000Z</time></trkpt>
        <trkpt lat="29.5540586" lon="103.3804051"><ele>996.88</ele><time>2026-05-05T18:42:43.000Z</time></trkpt>
        <trkpt lat="29.5540267" lon="103.3803057"><ele>1007.57</ele><time>2026-05-05T18:42:47.000Z</time></trkpt>
        <trkpt lat="29.5540232" lon="103.3801867"><ele>1011.69</ele><time>2026-05-05T18:42:59.000Z</time></trkpt>
        <trkpt lat="29.5540227" lon="103.3800759"><ele>1012.73</ele><time>2026-05-05T18:43:11.000Z</time></trkpt>
        <trkpt lat="29.5539828" lon="103.3799765"><ele>1014.47</ele><time>2026-05-05T18:43:23.000Z</time></trkpt>
        <trkpt lat="29.5539518" lon="103.3798749"><ele>1015.7</ele><time>2026-05-05T18:43:35.000Z</time></trkpt>
        <trkpt lat="29.5539553" lon="103.3797645"><ele>1018.26</ele><time>2026-05-05T18:44:59.000Z</time></trkpt>
        <trkpt lat="29.5539542" lon="103.3796597"><ele>1021.81</ele><time>2026-05-05T18:46:45.000Z</time></trkpt>
        <trkpt lat="29.5539" lon="103.3795765"><ele>1024.29</ele><time>2026-05-05T18:47:17.000Z</time></trkpt>
        <trkpt lat="29.5538935" lon="103.379473"><ele>1026.1</ele><time>2026-05-05T18:48:44.000Z</time></trkpt>
        <trkpt lat="29.5538642" lon="103.379367"><ele>1028.91</ele><time>2026-05-05T18:48:58.000Z</time></trkpt>
        <trkpt lat="29.5538389" lon="103.3792425"><ele>1032.44</ele><time>2026-05-05T18:50:02.000Z</time></trkpt>
        <trkpt lat="29.5538008" lon="103.3791363"><ele>1034.37</ele><time>2026-05-05T18:50:15.000Z</time></trkpt>
        <trkpt lat="29.5537857" lon="103.3790267"><ele>1035.72</ele><time>2026-05-05T18:50:29.000Z</time></trkpt>
        <trkpt lat="29.5537797" lon="103.3789174"><ele>1037.2</ele><time>2026-05-05T18:50:41.000Z</time></trkpt>
        <trkpt lat="29.5537947" lon="103.3788097"><ele>1038.37</ele><time>2026-05-05T18:50:51.000Z</time></trkpt>
        <trkpt lat="29.5538271" lon="103.37871"><ele>1039.79</ele><time>2026-05-05T18:51:01.000Z</time></trkpt>
        <trkpt lat="29.5538208" lon="103.3786021"><ele>1040.87</ele><time>2026-05-05T18:51:13.000Z</time></trkpt>
        <trkpt lat="29.5538068" lon="103.3784936"><ele>1042.23</ele><time>2026-05-05T18:51:29.000Z</time></trkpt>
        <trkpt lat="29.5537746" lon="103.3783913"><ele>1045.05</ele><time>2026-05-05T18:51:45.000Z</time></trkpt>
        <trkpt lat="29.5537224" lon="103.3782987"><ele>1047.43</ele><time>2026-05-05T18:52:31.000Z</time></trkpt>
        <trkpt lat="29.5536523" lon="103.3782135"><ele>1049.92</ele><time>2026-05-05T18:53:13.000Z</time></trkpt>
        <trkpt lat="29.5536015" lon="103.3781209"><ele>1052.43</ele><time>2026-05-05T18:53:25.000Z</time></trkpt>
        <trkpt lat="29.5535598" lon="103.3780236"><ele>1052.88</ele><time>2026-05-05T18:53:39.000Z</time></trkpt>
        <trkpt lat="29.5535065" lon="103.3779337"><ele>1055.81</ele><time>2026-05-05T18:53:57.000Z</time></trkpt>
        <trkpt lat="29.5534455" lon="103.3778493"><ele>1057.28</ele><time>2026-05-05T18:54:31.000Z</time></trkpt>
        <trkpt lat="29.553385" lon="103.3777662"><ele>1060.69</ele><time>2026-05-05T18:55:25.000Z</time></trkpt>
        <trkpt lat="29.5532974" lon="103.377726"><ele>1065.42</ele><time>2026-05-05T18:56:33.000Z</time></trkpt>
        <trkpt lat="29.553222" lon="103.3776612"><ele>1066.76</ele><time>2026-05-05T18:56:53.000Z</time></trkpt>
        <trkpt lat="29.5531764" lon="103.3775729"><ele>1068.91</ele><time>2026-05-05T18:57:29.000Z</time></trkpt>
        <trkpt lat="29.5531335" lon="103.3774818"><ele>1074.66</ele><time>2026-05-05T18:57:47.000Z</time></trkpt>
        <trkpt lat="29.5530631" lon="103.3774174"><ele>1079.25</ele><time>2026-05-05T18:58:03.000Z</time></trkpt>
        <trkpt lat="29.5529869" lon="103.377357"><ele>1084.13</ele><time>2026-05-05T18:59:53.000Z</time></trkpt>
        <trkpt lat="29.5529183" lon="103.3772899"><ele>1088.6</ele><time>2026-05-05T19:00:11.000Z</time></trkpt>
        <trkpt lat="29.5528496" lon="103.3772165"><ele>1092.2</ele><time>2026-05-05T19:00:27.000Z</time></trkpt>
        <trkpt lat="29.5527535" lon="103.3771866"><ele>1096.71</ele><time>2026-05-05T19:01:07.000Z</time></trkpt>
        <trkpt lat="29.5526584" lon="103.3771536"><ele>1101.65</ele><time>2026-05-05T19:01:25.000Z</time></trkpt>
        <trkpt lat="29.5525726" lon="103.3770965"><ele>1104.67</ele><time>2026-05-05T19:02:15.000Z</time></trkpt>
        <trkpt lat="29.5524894" lon="103.3770482"><ele>1107.43</ele><time>2026-05-05T19:02:31.000Z</time></trkpt>
        <trkpt lat="29.5523948" lon="103.3770204"><ele>1113.14</ele><time>2026-05-05T19:03:35.000Z</time></trkpt>
        <trkpt lat="29.5523069" lon="103.3769755"><ele>1118.95</ele><time>2026-05-05T19:03:57.000Z</time></trkpt>
        <trkpt lat="29.5522157" lon="103.3769534"><ele>1124.16</ele><time>2026-05-05T19:04:47.000Z</time></trkpt>
        <trkpt lat="29.552125" lon="103.376926"><ele>1128.75</ele><time>2026-05-05T19:05:03.000Z</time></trkpt>
        <trkpt lat="29.5520561" lon="103.3768574"><ele>1131.15</ele><time>2026-05-05T19:05:21.000Z</time></trkpt>
        <trkpt lat="29.5519786" lon="103.3768063"><ele>1135.47</ele><time>2026-05-05T19:05:51.000Z</time></trkpt>
        <trkpt lat="29.5518899" lon="103.3768153"><ele>1139.58</ele><time>2026-05-05T19:06:05.000Z</time></trkpt>
        <trkpt lat="29.5517975" lon="103.3768033"><ele>1140.8</ele><time>2026-05-05T19:06:21.000Z</time></trkpt>
        <trkpt lat="29.5517673" lon="103.3767201"><ele>1141.35</ele><time>2026-05-05T19:06:37.000Z</time></trkpt>
        <trkpt lat="29.5517878" lon="103.3766152"><ele>1143.5</ele><time>2026-05-05T19:06:47.000Z</time></trkpt>
        <trkpt lat="29.5518372" lon="103.3765689"><ele>1145.51</ele><time>2026-05-05T19:06:57.000Z</time></trkpt>
        <trkpt lat="29.5518431" lon="103.3766556"><ele>1145.89</ele><time>2026-05-05T19:07:54.000Z</time></trkpt>
        <trkpt lat="29.5518422" lon="103.376689"><ele>1149.84</ele><time>2026-05-05T19:07:56.000Z</time></trkpt>
        <trkpt lat="29.5518464" lon="103.3765905"><ele>1150.78</ele><time>2026-05-05T19:09:00.000Z</time></trkpt>
        <trkpt lat="29.5518145" lon="103.3764902"><ele>1155.53</ele><time>2026-05-05T19:09:56.000Z</time></trkpt>
        <trkpt lat="29.5517808" lon="103.3763855"><ele>1160.29</ele><time>2026-05-05T19:11:22.000Z</time></trkpt>
        <trkpt lat="29.5516852" lon="103.3763629"><ele>1162.72</ele><time>2026-05-05T19:11:49.000Z</time></trkpt>
        <trkpt lat="29.5516749" lon="103.3762693"><ele>1164.26</ele><time>2026-05-05T19:12:17.000Z</time></trkpt>
        <trkpt lat="29.5517008" lon="103.3761681"><ele>1166.59</ele><time>2026-05-05T19:12:33.000Z</time></trkpt>
        <trkpt lat="29.5517023" lon="103.3760564"><ele>1169.93</ele><time>2026-05-05T19:13:25.000Z</time></trkpt>
        <trkpt lat="29.5517151" lon="103.3759301"><ele>1173.61</ele><time>2026-05-05T19:14:49.000Z</time></trkpt>
        <trkpt lat="29.5517104" lon="103.3758123"><ele>1178.62</ele><time>2026-05-05T19:15:09.000Z</time></trkpt>
        <trkpt lat="29.5516816" lon="103.3757128"><ele>1183.94</ele><time>2026-05-05T19:15:25.000Z</time></trkpt>
        <trkpt lat="29.5516418" lon="103.3756092"><ele>1187.21</ele><time>2026-05-05T19:15:41.000Z</time></trkpt>
        <trkpt lat="29.5515705" lon="103.3755379"><ele>1188.73</ele><time>2026-05-05T19:16:00.000Z</time></trkpt>
        <trkpt lat="29.5514958" lon="103.3754598"><ele>1189.35</ele><time>2026-05-05T19:16:14.000Z</time></trkpt>
        <trkpt lat="29.5514131" lon="103.3753975"><ele>1189.77</ele><time>2026-05-05T19:16:32.000Z</time></trkpt>
        <trkpt lat="29.5513317" lon="103.3753273"><ele>1189.53</ele><time>2026-05-05T19:16:46.000Z</time></trkpt>
        <trkpt lat="29.5512421" lon="103.3753032"><ele>1189.53</ele><time>2026-05-05T19:17:02.000Z</time></trkpt>
        <trkpt lat="29.5511534" lon="103.375278"><ele>1190.89</ele><time>2026-05-05T19:17:21.000Z</time></trkpt>
        <trkpt lat="29.5510749" lon="103.3752309"><ele>1192.14</ele><time>2026-05-05T19:18:29.000Z</time></trkpt>
        <trkpt lat="29.55099" lon="103.3752758"><ele>1194.37</ele><time>2026-05-05T19:18:56.000Z</time></trkpt>
        <trkpt lat="29.5508995" lon="103.3753033"><ele>1195.54</ele><time>2026-05-05T19:19:12.000Z</time></trkpt>
        <trkpt lat="29.5506102" lon="103.375097"><ele>1197.02</ele><time>2026-05-05T19:20:01.000Z</time></trkpt>
        <trkpt lat="29.5500506" lon="103.374603"><ele>1201.01</ele><time>2026-05-05T19:22:09.000Z</time></trkpt>
        <trkpt lat="29.5500539" lon="103.3744987"><ele>1210.81</ele><time>2026-05-05T19:22:47.000Z</time></trkpt>
        <trkpt lat="29.5501327" lon="103.3744283"><ele>1219.21</ele><time>2026-05-05T19:23:12.000Z</time></trkpt>
        <trkpt lat="29.5501923" lon="103.3743451"><ele>1221.74</ele><time>2026-05-05T19:23:22.000Z</time></trkpt>
        <trkpt lat="29.5502681" lon="103.3742861"><ele>1223.29</ele><time>2026-05-05T19:23:36.000Z</time></trkpt>
        <trkpt lat="29.5503496" lon="103.3742366"><ele>1224.71</ele><time>2026-05-05T19:23:52.000Z</time></trkpt>
        <trkpt lat="29.5504332" lon="103.3741702"><ele>1226.78</ele><time>2026-05-05T19:24:08.000Z</time></trkpt>
        <trkpt lat="29.5505165" lon="103.3741005"><ele>1228.73</ele><time>2026-05-05T19:24:22.000Z</time></trkpt>
        <trkpt lat="29.5506131" lon="103.3740802"><ele>1229.69</ele><time>2026-05-05T19:24:34.000Z</time></trkpt>
        <trkpt lat="29.550707" lon="103.3740766"><ele>1229.84</ele><time>2026-05-05T19:24:46.000Z</time></trkpt>
        <trkpt lat="29.5507726" lon="103.3739977"><ele>1229.87</ele><time>2026-05-05T19:24:56.000Z</time></trkpt>
        <trkpt lat="29.5508439" lon="103.3739267"><ele>1227.62</ele><time>2026-05-05T19:25:12.000Z</time></trkpt>
        <trkpt lat="29.5509243" lon="103.373872"><ele>1227.26</ele><time>2026-05-05T19:25:28.000Z</time></trkpt>
        <trkpt lat="29.5510014" lon="103.373813"><ele>1226.63</ele><time>2026-05-05T19:25:44.000Z</time></trkpt>
        <trkpt lat="29.5510946" lon="103.3737839"><ele>1225.77</ele><time>2026-05-05T19:26:00.000Z</time></trkpt>
        <trkpt lat="29.5511868" lon="103.3737912"><ele>1226.07</ele><time>2026-05-05T19:26:18.000Z</time></trkpt>
        <trkpt lat="29.5512683" lon="103.3737455"><ele>1225.67</ele><time>2026-05-05T19:26:34.000Z</time></trkpt>
        <trkpt lat="29.5513153" lon="103.3736461"><ele>1224.84</ele><time>2026-05-05T19:26:44.000Z</time></trkpt>
        <trkpt lat="29.5513139" lon="103.3735355"><ele>1222.41</ele><time>2026-05-05T19:26:54.000Z</time></trkpt>
        <trkpt lat="29.5513454" lon="103.3734285"><ele>1219.38</ele><time>2026-05-05T19:27:08.000Z</time></trkpt>
        <trkpt lat="29.5513531" lon="103.3733197"><ele>1217.1</ele><time>2026-05-05T19:27:18.000Z</time></trkpt>
        <trkpt lat="29.5513146" lon="103.3732211"><ele>1216.55</ele><time>2026-05-05T19:27:30.000Z</time></trkpt>
        <trkpt lat="29.5512587" lon="103.3731281"><ele>1216.53</ele><time>2026-05-05T19:27:40.000Z</time></trkpt>
        <trkpt lat="29.5512028" lon="103.3730396"><ele>1218.61</ele><time>2026-05-05T19:27:50.000Z</time></trkpt>
        <trkpt lat="29.5511559" lon="103.3729412"><ele>1221.84</ele><time>2026-05-05T19:28:04.000Z</time></trkpt>
        <trkpt lat="29.5510688" lon="103.3728993"><ele>1223.96</ele><time>2026-05-05T19:28:22.000Z</time></trkpt>
        <trkpt lat="29.5509745" lon="103.3729019"><ele>1223.62</ele><time>2026-05-05T19:28:32.000Z</time></trkpt>
        <trkpt lat="29.550874" lon="103.3728949"><ele>1224.74</ele><time>2026-05-05T19:28:44.000Z</time></trkpt>
        <trkpt lat="29.5507778" lon="103.3729005"><ele>1225.98</ele><time>2026-05-05T19:28:54.000Z</time></trkpt>
        <trkpt lat="29.5506857" lon="103.3728949"><ele>1226.7</ele><time>2026-05-05T19:29:04.000Z</time></trkpt>
        <trkpt lat="29.5505839" lon="103.3729035"><ele>1226.52</ele><time>2026-05-05T19:29:16.000Z</time></trkpt>
        <trkpt lat="29.5504834" lon="103.3729131"><ele>1227.44</ele><time>2026-05-05T19:29:28.000Z</time></trkpt>
        <trkpt lat="29.5503905" lon="103.3729562"><ele>1229.4</ele><time>2026-05-05T19:29:42.000Z</time></trkpt>
        <trkpt lat="29.5502883" lon="103.3729655"><ele>1229.52</ele><time>2026-05-05T19:29:54.000Z</time></trkpt>
        <trkpt lat="29.5501973" lon="103.3729273"><ele>1230.27</ele><time>2026-05-05T19:30:08.000Z</time></trkpt>
        <trkpt lat="29.5501837" lon="103.3728294"><ele>1227.91</ele><time>2026-05-05T19:30:26.000Z</time></trkpt>
        <trkpt lat="29.5502547" lon="103.3727507"><ele>1223.99</ele><time>2026-05-05T19:30:38.000Z</time></trkpt>
        <trkpt lat="29.5503352" lon="103.3726675"><ele>1220.5</ele><time>2026-05-05T19:30:50.000Z</time></trkpt>
        <trkpt lat="29.5504159" lon="103.372594"><ele>1218.23</ele><time>2026-05-05T19:31:04.000Z</time></trkpt>
        <trkpt lat="29.5504954" lon="103.3725248"><ele>1216.4</ele><time>2026-05-05T19:31:22.000Z</time></trkpt>
        <trkpt lat="29.5505644" lon="103.3724398"><ele>1215.83</ele><time>2026-05-05T19:31:40.000Z</time></trkpt>
        <trkpt lat="29.5505966" lon="103.3723413"><ele>1214.37</ele><time>2026-05-05T19:31:52.000Z</time></trkpt>
        <trkpt lat="29.550638" lon="103.372233"><ele>1212.97</ele><time>2026-05-05T19:32:04.000Z</time></trkpt>
        <trkpt lat="29.5506651" lon="103.3721286"><ele>1213.22</ele><time>2026-05-05T19:32:14.000Z</time></trkpt>
        <trkpt lat="29.5505914" lon="103.3719249"><ele>1213.73</ele><time>2026-05-05T19:32:46.000Z</time></trkpt>
        <trkpt lat="29.5505475" lon="103.3717824"><ele>1214.75</ele><time>2026-05-05T19:32:56.000Z</time></trkpt>
        <trkpt lat="29.5504981" lon="103.3716744"><ele>1217.02</ele><time>2026-05-05T19:33:08.000Z</time></trkpt>
        <trkpt lat="29.5504299" lon="103.3715971"><ele>1217.46</ele><time>2026-05-05T19:33:22.000Z</time></trkpt>
        <trkpt lat="29.5503879" lon="103.3715074"><ele>1217.37</ele><time>2026-05-05T19:33:38.000Z</time></trkpt>
        <trkpt lat="29.5503065" lon="103.3714668"><ele>1217.14</ele><time>2026-05-05T19:33:52.000Z</time></trkpt>
        <trkpt lat="29.5502986" lon="103.3713855"><ele>1216.97</ele><time>2026-05-05T19:34:20.000Z</time></trkpt>
        <trkpt lat="29.5503288" lon="103.3712886"><ele>1217.72</ele><time>2026-05-05T19:34:35.000Z</time></trkpt>
        <trkpt lat="29.550398" lon="103.3712026"><ele>1214.8</ele><time>2026-05-05T19:34:45.000Z</time></trkpt>
        <trkpt lat="29.5504519" lon="103.3710904"><ele>1212.85</ele><time>2026-05-05T19:34:57.000Z</time></trkpt>
        <trkpt lat="29.5504854" lon="103.3709807"><ele>1211.13</ele><time>2026-05-05T19:35:07.000Z</time></trkpt>
        <trkpt lat="29.5504742" lon="103.3708674"><ele>1209.85</ele><time>2026-05-05T19:35:19.000Z</time></trkpt>
        <trkpt lat="29.5504146" lon="103.3707866"><ele>1208.16</ele><time>2026-05-05T19:35:40.000Z</time></trkpt>
        <trkpt lat="29.5503724" lon="103.3706943"><ele>1208.81</ele><time>2026-05-05T19:35:54.000Z</time></trkpt>
        <trkpt lat="29.5503625" lon="103.3705907"><ele>1208.21</ele><time>2026-05-05T19:36:10.000Z</time></trkpt>
        <trkpt lat="29.5504111" lon="103.3704935"><ele>1207.34</ele><time>2026-05-05T19:37:16.000Z</time></trkpt>
        <trkpt lat="29.5504077" lon="103.3703889"><ele>1204.14</ele><time>2026-05-05T19:37:30.000Z</time></trkpt>
        <trkpt lat="29.5504086" lon="103.3702852"><ele>1202.76</ele><time>2026-05-05T19:38:08.000Z</time></trkpt>
        <trkpt lat="29.5503645" lon="103.3701984"><ele>1203.13</ele><time>2026-05-05T19:38:48.000Z</time></trkpt>
        <trkpt lat="29.5502072" lon="103.370071"><ele>1201.5</ele><time>2026-05-05T19:39:04.000Z</time></trkpt>
        <trkpt lat="29.550158" lon="103.3699559"><ele>1199.78</ele><time>2026-05-05T19:40:02.000Z</time></trkpt>
        <trkpt lat="29.5496446" lon="103.3686735"><ele>1207.15</ele><time>2026-05-05T19:47:53.000Z</time></trkpt>
        <trkpt lat="29.5496055" lon="103.3686203"><ele>1227.02</ele><time>2026-05-05T19:47:55.000Z</time></trkpt>
        <trkpt lat="29.549694" lon="103.3685806"><ele>1244.67</ele><time>2026-05-05T19:49:39.000Z</time></trkpt>
        <trkpt lat="29.5497378" lon="103.3683001"><ele>1254.45</ele><time>2026-05-05T19:53:43.000Z</time></trkpt>
        <trkpt lat="29.5500466" lon="103.3679915"><ele>1267.65</ele><time>2026-05-05T20:00:27.000Z</time></trkpt>
        <trkpt lat="29.5499303" lon="103.3679285"><ele>1294.11</ele><time>2026-05-05T20:00:33.000Z</time></trkpt>
        <trkpt lat="29.5500023" lon="103.3678629"><ele>1311.97</ele><time>2026-05-05T20:01:39.000Z</time></trkpt>
        <trkpt lat="29.5499647" lon="103.3677648"><ele>1324.46</ele><time>2026-05-05T20:02:53.000Z</time></trkpt>
        <trkpt lat="29.5500523" lon="103.3677264"><ele>1333.09</ele><time>2026-05-05T20:03:29.000Z</time></trkpt>
        <trkpt lat="29.5501368" lon="103.3676731"><ele>1339.58</ele><time>2026-05-05T20:04:11.000Z</time></trkpt>
        <trkpt lat="29.5502185" lon="103.3676078"><ele>1346.54</ele><time>2026-05-05T20:04:27.000Z</time></trkpt>
        <trkpt lat="29.5502525" lon="103.3675101"><ele>1350.41</ele><time>2026-05-05T20:05:17.000Z</time></trkpt>
        <trkpt lat="29.5502726" lon="103.3673909"><ele>1353.56</ele><time>2026-05-05T20:06:21.000Z</time></trkpt>
        <trkpt lat="29.5501911" lon="103.3673291"><ele>1358.46</ele><time>2026-05-05T20:06:57.000Z</time></trkpt>
        <trkpt lat="29.5501029" lon="103.3673323"><ele>1364.02</ele><time>2026-05-05T20:07:13.000Z</time></trkpt>
        <trkpt lat="29.5501487" lon="103.3672433"><ele>1370.2</ele><time>2026-05-05T20:08:23.000Z</time></trkpt>
        <trkpt lat="29.5501986" lon="103.3671437"><ele>1376.17</ele><time>2026-05-05T20:09:33.000Z</time></trkpt>
        <trkpt lat="29.5502393" lon="103.367039"><ele>1381.12</ele><time>2026-05-05T20:09:51.000Z</time></trkpt>
        <trkpt lat="29.5502854" lon="103.3669425"><ele>1386.61</ele><time>2026-05-05T20:10:15.000Z</time></trkpt>
        <trkpt lat="29.5502048" lon="103.3668721"><ele>1395.33</ele><time>2026-05-05T20:12:45.000Z</time></trkpt>
        <trkpt lat="29.5501295" lon="103.3667944"><ele>1403.64</ele><time>2026-05-05T20:13:33.000Z</time></trkpt>
        <trkpt lat="29.5500702" lon="103.3667107"><ele>1407.4</ele><time>2026-05-05T20:14:41.000Z</time></trkpt>
        <trkpt lat="29.55001" lon="103.366622"><ele>1412.81</ele><time>2026-05-05T20:15:31.000Z</time></trkpt>
        <trkpt lat="29.5499267" lon="103.3665794"><ele>1415.24</ele><time>2026-05-05T20:15:51.000Z</time></trkpt>
        <trkpt lat="29.5498368" lon="103.3665959"><ele>1417.47</ele><time>2026-05-05T20:16:29.000Z</time></trkpt>
        <trkpt lat="29.5497455" lon="103.3666277"><ele>1422.83</ele><time>2026-05-05T20:16:47.000Z</time></trkpt>
        <trkpt lat="29.5496774" lon="103.3665748"><ele>1428.6</ele><time>2026-05-05T20:17:57.000Z</time></trkpt>
        <trkpt lat="29.5495926" lon="103.36653"><ele>1431.81</ele><time>2026-05-05T20:18:55.000Z</time></trkpt>
        <trkpt lat="29.5495159" lon="103.3664675"><ele>1434.09</ele><time>2026-05-05T20:20:15.000Z</time></trkpt>
        <trkpt lat="29.5494503" lon="103.3663936"><ele>1438.65</ele><time>2026-05-05T20:21:13.000Z</time></trkpt>
        <trkpt lat="29.5494277" lon="103.3662825"><ele>1441.89</ele><time>2026-05-05T20:22:13.000Z</time></trkpt>
        <trkpt lat="29.5494112" lon="103.366296"><ele>1446.55</ele><time>2026-05-05T20:22:15.000Z</time></trkpt>
        <trkpt lat="29.5494957" lon="103.3662524"><ele>1449.56</ele><time>2026-05-05T20:26:58.000Z</time></trkpt>
        <trkpt lat="29.5495622" lon="103.3661656"><ele>1455.4</ele><time>2026-05-05T20:27:12.000Z</time></trkpt>
        <trkpt lat="29.54964" lon="103.366108"><ele>1459.85</ele><time>2026-05-05T20:27:26.000Z</time></trkpt>
        <trkpt lat="29.5497071" lon="103.3660258"><ele>1462.55</ele><time>2026-05-05T20:27:44.000Z</time></trkpt>
        <trkpt lat="29.5496898" lon="103.3659337"><ele>1465.84</ele><time>2026-05-05T20:28:08.000Z</time></trkpt>
        <trkpt lat="29.5496476" lon="103.3658338"><ele>1469.99</ele><time>2026-05-05T20:28:32.000Z</time></trkpt>
        <trkpt lat="29.5503927" lon="103.3641231"><ele>1474.62</ele><time>2026-05-05T20:32:33.000Z</time></trkpt>
        <trkpt lat="29.5504086" lon="103.3640176"><ele>1477.35</ele><time>2026-05-05T20:33:05.000Z</time></trkpt>
        <trkpt lat="29.5508098" lon="103.3631048"><ele>1479.36</ele><time>2026-05-05T20:40:40.000Z</time></trkpt>
        <trkpt lat="29.550812" lon="103.363145"><ele>1493.46</ele><time>2026-05-05T20:40:42.000Z</time></trkpt>
        <trkpt lat="29.550841" lon="103.3630702"><ele>1512.07</ele><time>2026-05-05T20:41:28.000Z</time></trkpt>
        <trkpt lat="29.5508005" lon="103.3629849"><ele>1523.06</ele><time>2026-05-05T20:42:24.000Z</time></trkpt>
        <trkpt lat="29.5506047" lon="103.3628827"><ele>1527.98</ele><time>2026-05-05T20:44:14.000Z</time></trkpt>
        <trkpt lat="29.5506087" lon="103.3622292"><ele>1536.26</ele><time>2026-05-05T20:50:54.000Z</time></trkpt>
        <trkpt lat="29.5504051" lon="103.3615783"><ele>1563.84</ele><time>2026-05-05T20:55:23.000Z</time></trkpt>
        <trkpt lat="29.5503296" lon="103.3615003"><ele>1589.82</ele><time>2026-05-05T20:56:28.000Z</time></trkpt>
        <trkpt lat="29.5503084" lon="103.3613889"><ele>1601.79</ele><time>2026-05-05T20:57:23.000Z</time></trkpt>
        <trkpt lat="29.5500685" lon="103.3598049"><ele>1606.9</ele><time>2026-05-05T21:07:50.000Z</time></trkpt>
        <trkpt lat="29.5500258" lon="103.3597077"><ele>1619.58</ele><time>2026-05-05T21:09:01.000Z</time></trkpt>
        <trkpt lat="29.5500258" lon="103.3597077"><ele>1619.58</ele><time>2026-05-05T21:10:41.000Z</time></trkpt>
      </trkseg>
      <trkseg>
        <trkpt lat="29.5499063" lon="103.3595328"><ele>1626.63</ele><time>2026-05-05T21:14:17.000Z</time></trkpt>
        <trkpt lat="29.5499063" lon="103.3595328"><ele>1626.63</ele><time>2026-05-05T21:14:29.000Z</time></trkpt>
        <trkpt lat="29.5498885" lon="103.3594264"><ele>1632.14</ele><time>2026-05-05T21:14:47.000Z</time></trkpt>
        <trkpt lat="29.5503502" lon="103.3569661"><ele>1636.68</ele><time>2026-05-05T21:23:44.000Z</time></trkpt>
        <trkpt lat="29.5502543" lon="103.3569537"><ele>1664.06</ele><time>2026-05-05T21:23:56.000Z</time></trkpt>
        <trkpt lat="29.550153" lon="103.3569566"><ele>1680.78</ele><time>2026-05-05T21:24:08.000Z</time></trkpt>
        <trkpt lat="29.5500537" lon="103.3569686"><ele>1691.19</ele><time>2026-05-05T21:24:22.000Z</time></trkpt>
        <trkpt lat="29.5500505" lon="103.3568893"><ele>1697.63</ele><time>2026-05-05T21:24:38.000Z</time></trkpt>
        <trkpt lat="29.5500001" lon="103.3568244"><ele>1700.27</ele><time>2026-05-05T21:25:30.000Z</time></trkpt>
        <trkpt lat="29.5500001" lon="103.3568244"><ele>1700.27</ele><time>2026-05-05T21:27:06.000Z</time></trkpt>
      </trkseg>
      <trkseg>
        <trkpt lat="29.5500343" lon="103.3568103"><ele>1701.28</ele><time>2026-05-05T22:13:54.000Z</time></trkpt>
        <trkpt lat="29.5500343" lon="103.3568103"><ele>1701.28</ele><time>2026-05-05T22:17:02.000Z</time></trkpt>
        <trkpt lat="29.5500082" lon="103.356704"><ele>1705.37</ele><time>2026-05-05T22:17:12.000Z</time></trkpt>
        <trkpt lat="29.5500195" lon="103.3565873"><ele>1710.61</ele><time>2026-05-05T22:17:24.000Z</time></trkpt>
        <trkpt lat="29.5499959" lon="103.3564793"><ele>1711.34</ele><time>2026-05-05T22:17:34.000Z</time></trkpt>
        <trkpt lat="29.5500299" lon="103.3563777"><ele>1710.14</ele><time>2026-05-05T22:17:48.000Z</time></trkpt>
        <trkpt lat="29.5500957" lon="103.3563007"><ele>1707.67</ele><time>2026-05-05T22:18:00.000Z</time></trkpt>
        <trkpt lat="29.5501693" lon="103.3562195"><ele>1704.19</ele><time>2026-05-05T22:18:12.000Z</time></trkpt>
        <trkpt lat="29.5502145" lon="103.3561186"><ele>1702.17</ele><time>2026-05-05T22:18:26.000Z</time></trkpt>
        <trkpt lat="29.5502338" lon="103.356005"><ele>1698.83</ele><time>2026-05-05T22:18:40.000Z</time></trkpt>
        <trkpt lat="29.5502523" lon="103.3558934"><ele>1696.56</ele><time>2026-05-05T22:18:50.000Z</time></trkpt>
        <trkpt lat="29.5502864" lon="103.3557876"><ele>1694.06</ele><time>2026-05-05T22:19:00.000Z</time></trkpt>
        <trkpt lat="29.5503444" lon="103.3557044"><ele>1691.45</ele><time>2026-05-05T22:19:10.000Z</time></trkpt>
        <trkpt lat="29.5504357" lon="103.3556677"><ele>1690</ele><time>2026-05-05T22:19:24.000Z</time></trkpt>
        <trkpt lat="29.5505385" lon="103.3556713"><ele>1690.71</ele><time>2026-05-05T22:19:36.000Z</time></trkpt>
        <trkpt lat="29.5506382" lon="103.3556998"><ele>1690.89</ele><time>2026-05-05T22:19:48.000Z</time></trkpt>
        <trkpt lat="29.5507439" lon="103.355704"><ele>1689.57</ele><time>2026-05-05T22:20:02.000Z</time></trkpt>
        <trkpt lat="29.5508426" lon="103.3556676"><ele>1688.95</ele><time>2026-05-05T22:20:16.000Z</time></trkpt>
        <trkpt lat="29.5509391" lon="103.3556257"><ele>1688.13</ele><time>2026-05-05T22:20:28.000Z</time></trkpt>
        <trkpt lat="29.5510379" lon="103.3556142"><ele>1686.36</ele><time>2026-05-05T22:20:56.000Z</time></trkpt>
        <trkpt lat="29.5511263" lon="103.3555662"><ele>1685.41</ele><time>2026-05-05T22:21:06.000Z</time></trkpt>
        <trkpt lat="29.5511915" lon="103.3554914"><ele>1683.81</ele><time>2026-05-05T22:21:16.000Z</time></trkpt>
        <trkpt lat="29.5512613" lon="103.3554256"><ele>1680.77</ele><time>2026-05-05T22:21:30.000Z</time></trkpt>
        <trkpt lat="29.5513013" lon="103.3553326"><ele>1680.23</ele><time>2026-05-05T22:21:44.000Z</time></trkpt>
        <trkpt lat="29.5513422" lon="103.3552521"><ele>1676.63</ele><time>2026-05-05T22:22:02.000Z</time></trkpt>
        <trkpt lat="29.5513629" lon="103.3551462"><ele>1672.18</ele><time>2026-05-05T22:23:02.000Z</time></trkpt>
        <trkpt lat="29.5514301" lon="103.3550634"><ele>1668.84</ele><time>2026-05-05T22:23:18.000Z</time></trkpt>
        <trkpt lat="29.5514817" lon="103.3549669"><ele>1667.45</ele><time>2026-05-05T22:23:32.000Z</time></trkpt>
        <trkpt lat="29.5515272" lon="103.3548698"><ele>1662.46</ele><time>2026-05-05T22:23:42.000Z</time></trkpt>
        <trkpt lat="29.5515638" lon="103.3547644"><ele>1659.25</ele><time>2026-05-05T22:23:56.000Z</time></trkpt>
        <trkpt lat="29.5515951" lon="103.3546629"><ele>1656.01</ele><time>2026-05-05T22:24:08.000Z</time></trkpt>
        <trkpt lat="29.55164" lon="103.3545716"><ele>1654.12</ele><time>2026-05-05T22:24:22.000Z</time></trkpt>
        <trkpt lat="29.5517011" lon="103.3544929"><ele>1651.19</ele><time>2026-05-05T22:24:32.000Z</time></trkpt>
        <trkpt lat="29.5517737" lon="103.3544189"><ele>1651.24</ele><time>2026-05-05T22:24:44.000Z</time></trkpt>
        <trkpt lat="29.5518261" lon="103.354322"><ele>1648.49</ele><time>2026-05-05T22:25:00.000Z</time></trkpt>
        <trkpt lat="29.551809" lon="103.3542176"><ele>1647.08</ele><time>2026-05-05T22:25:14.000Z</time></trkpt>
        <trkpt lat="29.5518313" lon="103.3541216"><ele>1645.18</ele><time>2026-05-05T22:25:24.000Z</time></trkpt>
        <trkpt lat="29.5519005" lon="103.3540566"><ele>1642.13</ele><time>2026-05-05T22:25:36.000Z</time></trkpt>
        <trkpt lat="29.5519522" lon="103.3539708"><ele>1638.97</ele><time>2026-05-05T22:25:50.000Z</time></trkpt>
        <trkpt lat="29.5519349" lon="103.3538784"><ele>1638.62</ele><time>2026-05-05T22:26:06.000Z</time></trkpt>
        <trkpt lat="29.5518688" lon="103.3538061"><ele>1637.77</ele><time>2026-05-05T22:26:18.000Z</time></trkpt>
        <trkpt lat="29.5518126" lon="103.3537134"><ele>1638.87</ele><time>2026-05-05T22:26:38.000Z</time></trkpt>
        <trkpt lat="29.5517374" lon="103.3536237"><ele>1639.58</ele><time>2026-05-05T22:26:52.000Z</time></trkpt>
        <trkpt lat="29.5516958" lon="103.3535124"><ele>1639.53</ele><time>2026-05-05T22:27:06.000Z</time></trkpt>
        <trkpt lat="29.5516842" lon="103.3534001"><ele>1639.52</ele><time>2026-05-05T22:27:20.000Z</time></trkpt>
        <trkpt lat="29.5517197" lon="103.3532978"><ele>1639.09</ele><time>2026-05-05T22:27:38.000Z</time></trkpt>
        <trkpt lat="29.551757" lon="103.3531905"><ele>1639.92</ele><time>2026-05-05T22:27:52.000Z</time></trkpt>
        <trkpt lat="29.5517909" lon="103.3530874"><ele>1637.81</ele><time>2026-05-05T22:28:08.000Z</time></trkpt>
        <trkpt lat="29.5518131" lon="103.3529817"><ele>1636.32</ele><time>2026-05-05T22:28:26.000Z</time></trkpt>
        <trkpt lat="29.5518611" lon="103.3528842"><ele>1633.4</ele><time>2026-05-05T22:28:48.000Z</time></trkpt>
        <trkpt lat="29.552363" lon="103.3522859"><ele>1630.77</ele><time>2026-05-05T22:32:25.000Z</time></trkpt>
        <trkpt lat="29.5522952" lon="103.352195"><ele>1615.42</ele><time>2026-05-05T22:32:45.000Z</time></trkpt>
        <trkpt lat="29.5546284" lon="103.3533034"><ele>1600.32</ele><time>2026-05-05T22:44:25.000Z</time></trkpt>
        <trkpt lat="29.5546399" lon="103.3533257"><ele>1615.54</ele><time>2026-05-05T22:44:27.000Z</time></trkpt>
        <trkpt lat="29.5546583" lon="103.3534234"><ele>1623.7</ele><time>2026-05-05T22:44:55.000Z</time></trkpt>
        <trkpt lat="29.55467" lon="103.3535423"><ele>1629.63</ele><time>2026-05-05T22:45:15.000Z</time></trkpt>
        <trkpt lat="29.554697" lon="103.3536499"><ele>1633.24</ele><time>2026-05-05T22:45:29.000Z</time></trkpt>
        <trkpt lat="29.554937" lon="103.3537401"><ele>1632.01</ele><time>2026-05-05T22:46:21.000Z</time></trkpt>
        <trkpt lat="29.5550322" lon="103.353677"><ele>1624.81</ele><time>2026-05-05T22:46:32.000Z</time></trkpt>
        <trkpt lat="29.5551039" lon="103.3535861"><ele>1621.6</ele><time>2026-05-05T22:47:02.000Z</time></trkpt>
        <trkpt lat="29.5551753" lon="103.3535103"><ele>1616.11</ele><time>2026-05-05T22:47:22.000Z</time></trkpt>
        <trkpt lat="29.5552471" lon="103.3534437"><ele>1612.45</ele><time>2026-05-05T22:47:46.000Z</time></trkpt>
        <trkpt lat="29.5553283" lon="103.3534003"><ele>1609.66</ele><time>2026-05-05T22:48:04.000Z</time></trkpt>
        <trkpt lat="29.5554236" lon="103.3533801"><ele>1607.23</ele><time>2026-05-05T22:48:18.000Z</time></trkpt>
        <trkpt lat="29.5555185" lon="103.3533643"><ele>1605.07</ele><time>2026-05-05T22:48:32.000Z</time></trkpt>
        <trkpt lat="29.5556129" lon="103.3533504"><ele>1602.53</ele><time>2026-05-05T22:48:48.000Z</time></trkpt>
        <trkpt lat="29.555703" lon="103.3533071"><ele>1600.32</ele><time>2026-05-05T22:49:06.000Z</time></trkpt>
        <trkpt lat="29.555794" lon="103.3533073"><ele>1598.14</ele><time>2026-05-05T22:49:18.000Z</time></trkpt>
        <trkpt lat="29.5558814" lon="103.3533517"><ele>1596.32</ele><time>2026-05-05T22:49:28.000Z</time></trkpt>
        <trkpt lat="29.5559729" lon="103.3534089"><ele>1596.19</ele><time>2026-05-05T22:49:40.000Z</time></trkpt>
        <trkpt lat="29.5560557" lon="103.3534691"><ele>1595.39</ele><time>2026-05-05T22:49:52.000Z</time></trkpt>
        <trkpt lat="29.5561469" lon="103.3535017"><ele>1595.38</ele><time>2026-05-05T22:50:04.000Z</time></trkpt>
        <trkpt lat="29.5562407" lon="103.3535168"><ele>1595.42</ele><time>2026-05-05T22:50:20.000Z</time></trkpt>
        <trkpt lat="29.5563373" lon="103.3535122"><ele>1597.17</ele><time>2026-05-05T22:50:42.000Z</time></trkpt>
        <trkpt lat="29.5577817" lon="103.3517135"><ele>1601.61</ele><time>2026-05-05T22:57:53.000Z</time></trkpt>
        <trkpt lat="29.5577371" lon="103.3515722"><ele>1588.51</ele><time>2026-05-05T22:57:59.000Z</time></trkpt>
        <trkpt lat="29.5577949" lon="103.351494"><ele>1580.08</ele><time>2026-05-05T22:58:17.000Z</time></trkpt>
        <trkpt lat="29.5578847" lon="103.3514894"><ele>1567.51</ele><time>2026-05-05T22:58:31.000Z</time></trkpt>
        <trkpt lat="29.5579861" lon="103.3515126"><ele>1561.91</ele><time>2026-05-05T22:58:49.000Z</time></trkpt>
        <trkpt lat="29.5580877" lon="103.3515448"><ele>1558.26</ele><time>2026-05-05T22:59:11.000Z</time></trkpt>
        <trkpt lat="29.5598249" lon="103.3503805"><ele>1558.2</ele><time>2026-05-05T23:05:19.000Z</time></trkpt>
        <trkpt lat="29.5602468" lon="103.350914"><ele>1567.22</ele><time>2026-05-05T23:12:35.000Z</time></trkpt>
        <trkpt lat="29.5603982" lon="103.3510383"><ele>1575.2</ele><time>2026-05-05T23:15:43.000Z</time></trkpt>
        <trkpt lat="29.5606646" lon="103.3515633"><ele>1588.26</ele><time>2026-05-05T23:25:02.000Z</time></trkpt>
        <trkpt lat="29.5607581" lon="103.3515463"><ele>1620.45</ele><time>2026-05-05T23:25:28.000Z</time></trkpt>
        <trkpt lat="29.5608508" lon="103.3515718"><ele>1642.03</ele><time>2026-05-05T23:26:18.000Z</time></trkpt>
        <trkpt lat="29.5609407" lon="103.3515358"><ele>1653.9</ele><time>2026-05-05T23:26:36.000Z</time></trkpt>
        <trkpt lat="29.561018" lon="103.3515735"><ele>1662.57</ele><time>2026-05-05T23:26:48.000Z</time></trkpt>
        <trkpt lat="29.5611044" lon="103.3516083"><ele>1666.74</ele><time>2026-05-05T23:27:08.000Z</time></trkpt>
        <trkpt lat="29.5611979" lon="103.3516185"><ele>1668.58</ele><time>2026-05-05T23:27:20.000Z</time></trkpt>
        <trkpt lat="29.5614926" lon="103.3517269"><ele>1669.85</ele><time>2026-05-05T23:31:46.000Z</time></trkpt>
        <trkpt lat="29.5615149" lon="103.351842"><ele>1689.93</ele><time>2026-05-05T23:31:51.000Z</time></trkpt>
        <trkpt lat="29.5615456" lon="103.3519488"><ele>1697.48</ele><time>2026-05-05T23:32:40.000Z</time></trkpt>
        <trkpt lat="29.5619142" lon="103.3522411"><ele>1703.13</ele><time>2026-05-05T23:36:50.000Z</time></trkpt>
        <trkpt lat="29.5620083" lon="103.3522428"><ele>1708.29</ele><time>2026-05-05T23:37:52.000Z</time></trkpt>
        <trkpt lat="29.5621005" lon="103.3522908"><ele>1721.7</ele><time>2026-05-05T23:38:08.000Z</time></trkpt>
        <trkpt lat="29.5621773" lon="103.3522223"><ele>1726.56</ele><time>2026-05-05T23:39:22.000Z</time></trkpt>
        <trkpt lat="29.5630652" lon="103.3496175"><ele>1736.39</ele><time>2026-05-05T23:53:24.000Z</time></trkpt>
        <trkpt lat="29.5631256" lon="103.3495287"><ele>1761.26</ele><time>2026-05-05T23:53:35.000Z</time></trkpt>
        <trkpt lat="29.5631611" lon="103.349431"><ele>1773.45</ele><time>2026-05-05T23:53:45.000Z</time></trkpt>
        <trkpt lat="29.5631815" lon="103.3493268"><ele>1779.49</ele><time>2026-05-05T23:53:55.000Z</time></trkpt>
        <trkpt lat="29.5632154" lon="103.3492258"><ele>1782.53</ele><time>2026-05-05T23:54:05.000Z</time></trkpt>
        <trkpt lat="29.5632668" lon="103.3491285"><ele>1783.39</ele><time>2026-05-05T23:54:17.000Z</time></trkpt>
        <trkpt lat="29.5632792" lon="103.3490194"><ele>1784.39</ele><time>2026-05-05T23:54:29.000Z</time></trkpt>
        <trkpt lat="29.5632979" lon="103.348909"><ele>1786.11</ele><time>2026-05-05T23:54:39.000Z</time></trkpt>
        <trkpt lat="29.5633049" lon="103.3487952"><ele>1787.28</ele><time>2026-05-05T23:54:51.000Z</time></trkpt>
        <trkpt lat="29.5633008" lon="103.348681"><ele>1790.01</ele><time>2026-05-05T23:55:01.000Z</time></trkpt>
        <trkpt lat="29.563302" lon="103.3485623"><ele>1791.08</ele><time>2026-05-05T23:55:11.000Z</time></trkpt>
        <trkpt lat="29.5633126" lon="103.3484457"><ele>1791.59</ele><time>2026-05-05T23:55:21.000Z</time></trkpt>
        <trkpt lat="29.5633421" lon="103.3483433"><ele>1791.69</ele><time>2026-05-05T23:55:31.000Z</time></trkpt>
        <trkpt lat="29.5634001" lon="103.3482623"><ele>1791.69</ele><time>2026-05-05T23:55:41.000Z</time></trkpt>
        <trkpt lat="29.5634609" lon="103.348165"><ele>1792.14</ele><time>2026-05-05T23:55:53.000Z</time></trkpt>
        <trkpt lat="29.5635104" lon="103.3480562"><ele>1792.41</ele><time>2026-05-05T23:56:03.000Z</time></trkpt>
        <trkpt lat="29.5635683" lon="103.3479617"><ele>1792.34</ele><time>2026-05-05T23:56:13.000Z</time></trkpt>
        <trkpt lat="29.5636195" lon="103.3478684"><ele>1791.87</ele><time>2026-05-05T23:56:23.000Z</time></trkpt>
        <trkpt lat="29.5636584" lon="103.3477551"><ele>1791.3</ele><time>2026-05-05T23:56:33.000Z</time></trkpt>
        <trkpt lat="29.5636694" lon="103.3476378"><ele>1788.19</ele><time>2026-05-05T23:56:43.000Z</time></trkpt>
        <trkpt lat="29.5636674" lon="103.3475212"><ele>1785.3</ele><time>2026-05-05T23:56:55.000Z</time></trkpt>
        <trkpt lat="29.5636742" lon="103.3474514"><ele>1782.71</ele><time>2026-05-05T23:57:03.000Z</time></trkpt>
        <trkpt lat="29.5636406" lon="103.3473717"><ele>1781.55</ele><time>2026-05-05T23:57:13.000Z</time></trkpt>
        <trkpt lat="29.5635767" lon="103.3472945"><ele>1782.09</ele><time>2026-05-05T23:57:23.000Z</time></trkpt>
        <trkpt lat="29.5635014" lon="103.3472123"><ele>1782.2</ele><time>2026-05-05T23:57:35.000Z</time></trkpt>
        <trkpt lat="29.5634185" lon="103.3471502"><ele>1783.28</ele><time>2026-05-05T23:57:45.000Z</time></trkpt>
        <trkpt lat="29.5633265" lon="103.3470945"><ele>1784.04</ele><time>2026-05-05T23:57:55.000Z</time></trkpt>
        <trkpt lat="29.5632547" lon="103.3470147"><ele>1784.64</ele><time>2026-05-05T23:58:05.000Z</time></trkpt>
        <trkpt lat="29.5631833" lon="103.3469323"><ele>1785.13</ele><time>2026-05-05T23:58:15.000Z</time></trkpt>
        <trkpt lat="29.5631108" lon="103.3468552"><ele>1785.31</ele><time>2026-05-05T23:58:25.000Z</time></trkpt>
        <trkpt lat="29.5630365" lon="103.3467801"><ele>1783.07</ele><time>2026-05-05T23:58:35.000Z</time></trkpt>
        <trkpt lat="29.5629582" lon="103.3467173"><ele>1780.83</ele><time>2026-05-05T23:58:45.000Z</time></trkpt>
        <trkpt lat="29.5629211" lon="103.3466224"><ele>1777.61</ele><time>2026-05-05T23:58:55.000Z</time></trkpt>
        <trkpt lat="29.5628677" lon="103.3465233"><ele>1776.3</ele><time>2026-05-05T23:59:07.000Z</time></trkpt>
        <trkpt lat="29.5627846" lon="103.346473"><ele>1775.71</ele><time>2026-05-05T23:59:17.000Z</time></trkpt>
        <trkpt lat="29.5626958" lon="103.3464345"><ele>1775.7</ele><time>2026-05-05T23:59:27.000Z</time></trkpt>
        <trkpt lat="29.5626099" lon="103.3463815"><ele>1777.18</ele><time>2026-05-05T23:59:37.000Z</time></trkpt>
        <trkpt lat="29.5625332" lon="103.3463171"><ele>1777.99</ele><time>2026-05-05T23:59:47.000Z</time></trkpt>
        <trkpt lat="29.562463" lon="103.3462443"><ele>1777.88</ele><time>2026-05-05T23:59:57.000Z</time></trkpt>
        <trkpt lat="29.562394" lon="103.3461657"><ele>1777.04</ele><time>2026-05-06T00:00:07.000Z</time></trkpt>
        <trkpt lat="29.5623334" lon="103.3460796"><ele>1774.88</ele><time>2026-05-06T00:00:17.000Z</time></trkpt>
        <trkpt lat="29.5622878" lon="103.3459782"><ele>1772.1</ele><time>2026-05-06T00:00:27.000Z</time></trkpt>
        <trkpt lat="29.5622428" lon="103.3458747"><ele>1771.16</ele><time>2026-05-06T00:00:39.000Z</time></trkpt>
        <trkpt lat="29.5622223" lon="103.3458547"><ele>1771.65</ele><time>2026-05-06T00:00:45.000Z</time></trkpt>
        <trkpt lat="29.5615191" lon="103.3454196"><ele>1771.87</ele><time>2026-05-06T00:06:02.000Z</time></trkpt>
        <trkpt lat="29.5614485" lon="103.345333"><ele>1774.87</ele><time>2026-05-06T00:06:47.000Z</time></trkpt>
        <trkpt lat="29.5613823" lon="103.3452521"><ele>1776.52</ele><time>2026-05-06T00:07:07.000Z</time></trkpt>
        <trkpt lat="29.5612291" lon="103.3450321"><ele>1778.95</ele><time>2026-05-06T00:10:12.000Z</time></trkpt>
        <trkpt lat="29.5612291" lon="103.3450321"><ele>1778.95</ele><time>2026-05-06T00:10:45.000Z</time></trkpt>
      </trkseg>
      <trkseg>
        <trkpt lat="29.5611357" lon="103.3450576"><ele>1783.27</ele><time>2026-05-06T00:11:11.000Z</time></trkpt>
        <trkpt lat="29.5611357" lon="103.3450576"><ele>1783.27</ele><time>2026-05-06T00:11:47.000Z</time></trkpt>
        <trkpt lat="29.5611476" lon="103.3449547"><ele>1789.33</ele><time>2026-05-06T00:12:23.000Z</time></trkpt>
        <trkpt lat="29.5610692" lon="103.3449595"><ele>1793.73</ele><time>2026-05-06T00:12:37.000Z</time></trkpt>
        <trkpt lat="29.5610147" lon="103.3450368"><ele>1798.42</ele><time>2026-05-06T00:13:25.000Z</time></trkpt>
        <trkpt lat="29.5609349" lon="103.345039"><ele>1804.28</ele><time>2026-05-06T00:14:17.000Z</time></trkpt>
        <trkpt lat="29.5609037" lon="103.3449604"><ele>1810.71</ele><time>2026-05-06T00:15:03.000Z</time></trkpt>
        <trkpt lat="29.5608254" lon="103.3449078"><ele>1814.71</ele><time>2026-05-06T00:16:05.000Z</time></trkpt>
        <trkpt lat="29.5607951" lon="103.3448024"><ele>1821.96</ele><time>2026-05-06T00:17:36.000Z</time></trkpt>
        <trkpt lat="29.5607886" lon="103.3446907"><ele>1829.24</ele><time>2026-05-06T00:18:00.000Z</time></trkpt>
        <trkpt lat="29.5607183" lon="103.3446297"><ele>1834.35</ele><time>2026-05-06T00:18:52.000Z</time></trkpt>
        <trkpt lat="29.5606293" lon="103.344602"><ele>1838.51</ele><time>2026-05-06T00:19:10.000Z</time></trkpt>
        <trkpt lat="29.5606147" lon="103.3446096"><ele>1841.38</ele><time>2026-05-06T00:19:14.000Z</time></trkpt>
        <trkpt lat="29.5605646" lon="103.3445652"><ele>1843.14</ele><time>2026-05-06T00:19:52.000Z</time></trkpt>
        <trkpt lat="29.5604817" lon="103.3445189"><ele>1847.09</ele><time>2026-05-06T00:20:42.000Z</time></trkpt>
        <trkpt lat="29.5604052" lon="103.3444517"><ele>1850.82</ele><time>2026-05-06T00:21:34.000Z</time></trkpt>
        <trkpt lat="29.5603178" lon="103.3443974"><ele>1853.71</ele><time>2026-05-06T00:22:38.000Z</time></trkpt>
        <trkpt lat="29.5602572" lon="103.3443204"><ele>1860.03</ele><time>2026-05-06T00:23:04.000Z</time></trkpt>
        <trkpt lat="29.5602001" lon="103.3442243"><ele>1866.84</ele><time>2026-05-06T00:24:54.000Z</time></trkpt>
        <trkpt lat="29.5601126" lon="103.3442531"><ele>1877.72</ele><time>2026-05-06T00:25:10.000Z</time></trkpt>
        <trkpt lat="29.5601381" lon="103.3441462"><ele>1886.63</ele><time>2026-05-06T00:27:10.000Z</time></trkpt>
        <trkpt lat="29.5602159" lon="103.3440813"><ele>1890.87</ele><time>2026-05-06T00:28:36.000Z</time></trkpt>
        <trkpt lat="29.5601475" lon="103.3439978"><ele>1895.39</ele><time>2026-05-06T00:29:02.000Z</time></trkpt>
        <trkpt lat="29.560188" lon="103.3439128"><ele>1899.72</ele><time>2026-05-06T00:29:54.000Z</time></trkpt>
        <trkpt lat="29.5601242" lon="103.3438524"><ele>1905.09</ele><time>2026-05-06T00:30:56.000Z</time></trkpt>
        <trkpt lat="29.5600438" lon="103.3437957"><ele>1909.3</ele><time>2026-05-06T00:31:22.000Z</time></trkpt>
        <trkpt lat="29.5599839" lon="103.343716"><ele>1913.59</ele><time>2026-05-06T00:38:10.000Z</time></trkpt>
        <trkpt lat="29.5598934" lon="103.3437212"><ele>1916.57</ele><time>2026-05-06T00:38:34.000Z</time></trkpt>
        <trkpt lat="29.5598143" lon="103.343672"><ele>1920.92</ele><time>2026-05-06T00:38:52.000Z</time></trkpt>
        <trkpt lat="29.5597874" lon="103.3435755"><ele>1923.48</ele><time>2026-05-06T00:39:24.000Z</time></trkpt>
        <trkpt lat="29.5597187" lon="103.3435361"><ele>1927.84</ele><time>2026-05-06T00:39:56.000Z</time></trkpt>
        <trkpt lat="29.5596512" lon="103.3435816"><ele>1931.34</ele><time>2026-05-06T00:40:42.000Z</time></trkpt>
        <trkpt lat="29.5595813" lon="103.3435526"><ele>1935.93</ele><time>2026-05-06T00:41:26.000Z</time></trkpt>
        <trkpt lat="29.5594883" lon="103.3435457"><ele>1939.54</ele><time>2026-05-06T00:42:50.000Z</time></trkpt>
        <trkpt lat="29.559429" lon="103.3436265"><ele>1948.13</ele><time>2026-05-06T00:43:10.000Z</time></trkpt>
        <trkpt lat="29.5593511" lon="103.3436005"><ele>1952.44</ele><time>2026-05-06T00:43:52.000Z</time></trkpt>
        <trkpt lat="29.5592757" lon="103.3436432"><ele>1956.67</ele><time>2026-05-06T00:44:30.000Z</time></trkpt>
        <trkpt lat="29.5592727" lon="103.3437314"><ele>1960.09</ele><time>2026-05-06T00:45:06.000Z</time></trkpt>
        <trkpt lat="29.5592162" lon="103.3437991"><ele>1966.14</ele><time>2026-05-06T00:45:40.000Z</time></trkpt>
        <trkpt lat="29.5591652" lon="103.3437482"><ele>1971.23</ele><time>2026-05-06T00:46:20.000Z</time></trkpt>
        <trkpt lat="29.5590924" lon="103.3436858"><ele>1973.33</ele><time>2026-05-06T00:47:04.000Z</time></trkpt>
        <trkpt lat="29.5590104" lon="103.3437317"><ele>1977.68</ele><time>2026-05-06T00:48:20.000Z</time></trkpt>
        <trkpt lat="29.5589221" lon="103.34377"><ele>1985.26</ele><time>2026-05-06T00:48:46.000Z</time></trkpt>
        <trkpt lat="29.5588912" lon="103.3438701"><ele>1992.73</ele><time>2026-05-06T00:49:45.000Z</time></trkpt>
        <trkpt lat="29.5589114" lon="103.343977"><ele>1997.45</ele><time>2026-05-06T00:49:57.000Z</time></trkpt>
        <trkpt lat="29.5589426" lon="103.3440868"><ele>2000.24</ele><time>2026-05-06T00:50:13.000Z</time></trkpt>
        <trkpt lat="29.5589139" lon="103.3441846"><ele>2002.08</ele><time>2026-05-06T00:51:19.000Z</time></trkpt>
        <trkpt lat="29.5589085" lon="103.3442909"><ele>2006.84</ele><time>2026-05-06T00:51:41.000Z</time></trkpt>
        <trkpt lat="29.5588365" lon="103.3442654"><ele>2012.14</ele><time>2026-05-06T00:52:21.000Z</time></trkpt>
        <trkpt lat="29.558746" lon="103.3442449"><ele>2018.9</ele><time>2026-05-06T00:52:35.000Z</time></trkpt>
        <trkpt lat="29.5587111" lon="103.344217"><ele>2023.38</ele><time>2026-05-06T00:52:49.000Z</time></trkpt>
        <trkpt lat="29.5584636" lon="103.3441461"><ele>2025.86</ele><time>2026-05-06T00:55:35.000Z</time></trkpt>
        <trkpt lat="29.5583884" lon="103.3440876"><ele>2032.57</ele><time>2026-05-06T00:55:50.000Z</time></trkpt>
        <trkpt lat="29.5583019" lon="103.3440576"><ele>2036.37</ele><time>2026-05-06T00:56:06.000Z</time></trkpt>
        <trkpt lat="29.557891" lon="103.344059"><ele>2036.62</ele><time>2026-05-06T01:01:56.000Z</time></trkpt>
        <trkpt lat="29.5577518" lon="103.3440135"><ele>2038.74</ele><time>2026-05-06T01:02:56.000Z</time></trkpt>
        <trkpt lat="29.5576591" lon="103.3439748"><ele>2043.92</ele><time>2026-05-06T01:03:06.000Z</time></trkpt>
        <trkpt lat="29.5575807" lon="103.3438968"><ele>2043.38</ele><time>2026-05-06T01:03:46.000Z</time></trkpt>
        <trkpt lat="29.5575657" lon="103.3438199"><ele>2044.16</ele><time>2026-05-06T01:03:54.000Z</time></trkpt>
        <trkpt lat="29.5575316" lon="103.3437323"><ele>2043.04</ele><time>2026-05-06T01:04:40.000Z</time></trkpt>
        <trkpt lat="29.5574564" lon="103.3436827"><ele>2040.51</ele><time>2026-05-06T01:04:50.000Z</time></trkpt>
        <trkpt lat="29.5573709" lon="103.3436456"><ele>2040.36</ele><time>2026-05-06T01:05:00.000Z</time></trkpt>
        <trkpt lat="29.5572885" lon="103.3435962"><ele>2038.94</ele><time>2026-05-06T01:05:18.000Z</time></trkpt>
        <trkpt lat="29.5571848" lon="103.3436045"><ele>2039.75</ele><time>2026-05-06T01:07:02.000Z</time></trkpt>
        <trkpt lat="29.5570996" lon="103.343652"><ele>2042.82</ele><time>2026-05-06T01:07:22.000Z</time></trkpt>
        <trkpt lat="29.5570108" lon="103.3437021"><ele>2045.27</ele><time>2026-05-06T01:08:04.000Z</time></trkpt>
        <trkpt lat="29.5569372" lon="103.3437654"><ele>2050.06</ele><time>2026-05-06T01:08:46.000Z</time></trkpt>
        <trkpt lat="29.5568535" lon="103.3437411"><ele>2053.84</ele><time>2026-05-06T01:09:06.000Z</time></trkpt>
        <trkpt lat="29.5567655" lon="103.3437606"><ele>2058.54</ele><time>2026-05-06T01:09:50.000Z</time></trkpt>
        <trkpt lat="29.5567137" lon="103.3438407"><ele>2063.62</ele><time>2026-05-06T01:10:36.000Z</time></trkpt>
        <trkpt lat="29.5566398" lon="103.3439085"><ele>2065.98</ele><time>2026-05-06T01:11:14.000Z</time></trkpt>
        <trkpt lat="29.5566093" lon="103.3440092"><ele>2071.25</ele><time>2026-05-06T01:12:00.000Z</time></trkpt>
        <trkpt lat="29.556572" lon="103.3441069"><ele>2076.94</ele><time>2026-05-06T01:12:44.000Z</time></trkpt>
        <trkpt lat="29.5565156" lon="103.3441873"><ele>2082.8</ele><time>2026-05-06T01:13:34.000Z</time></trkpt>
        <trkpt lat="29.5564298" lon="103.3442277"><ele>2087.44</ele><time>2026-05-06T01:14:04.000Z</time></trkpt>
        <trkpt lat="29.5563402" lon="103.3442643"><ele>2091.03</ele><time>2026-05-06T01:14:42.000Z</time></trkpt>
        <trkpt lat="29.5562889" lon="103.3443422"><ele>2095.98</ele><time>2026-05-06T01:14:58.000Z</time></trkpt>
        <trkpt lat="29.5562329" lon="103.3444356"><ele>2099.57</ele><time>2026-05-06T01:15:34.000Z</time></trkpt>
        <trkpt lat="29.5561789" lon="103.3445258"><ele>2103.75</ele><time>2026-05-06T01:16:02.000Z</time></trkpt>
        <trkpt lat="29.5561038" lon="103.3445796"><ele>2106.69</ele><time>2026-05-06T01:16:28.000Z</time></trkpt>
        <trkpt lat="29.5560388" lon="103.3446554"><ele>2110.24</ele><time>2026-05-06T01:17:20.000Z</time></trkpt>
        <trkpt lat="29.5559999" lon="103.3447481"><ele>2113.72</ele><time>2026-05-06T01:17:36.000Z</time></trkpt>
        <trkpt lat="29.5559557" lon="103.344845"><ele>2117.69</ele><time>2026-05-06T01:19:34.000Z</time></trkpt>
        <trkpt lat="29.5559154" lon="103.3449414"><ele>2118.3</ele><time>2026-05-06T01:20:02.000Z</time></trkpt>
        <trkpt lat="29.5558314" lon="103.3449757"><ele>2123.14</ele><time>2026-05-06T01:20:28.000Z</time></trkpt>
        <trkpt lat="29.5557373" lon="103.3449747"><ele>2128.58</ele><time>2026-05-06T01:21:18.000Z</time></trkpt>
        <trkpt lat="29.5556458" lon="103.3449439"><ele>2131.87</ele><time>2026-05-06T01:21:56.000Z</time></trkpt>
        <trkpt lat="29.5555886" lon="103.3450006"><ele>2135.44</ele><time>2026-05-06T01:22:34.000Z</time></trkpt>
        <trkpt lat="29.5555565" lon="103.3450997"><ele>2139.8</ele><time>2026-05-06T01:23:22.000Z</time></trkpt>
        <trkpt lat="29.5555029" lon="103.3451889"><ele>2142.48</ele><time>2026-05-06T01:23:48.000Z</time></trkpt>
        <trkpt lat="29.5554359" lon="103.3451643"><ele>2145.13</ele><time>2026-05-06T01:24:18.000Z</time></trkpt>
        <trkpt lat="29.5553857" lon="103.3450748"><ele>2150.5</ele><time>2026-05-06T01:24:38.000Z</time></trkpt>
        <trkpt lat="29.5553083" lon="103.3450144"><ele>2156</ele><time>2026-05-06T01:24:56.000Z</time></trkpt>
        <trkpt lat="29.5552596" lon="103.3450693"><ele>2160.62</ele><time>2026-05-06T01:25:14.000Z</time></trkpt>
        <trkpt lat="29.5551867" lon="103.3451258"><ele>2164.42</ele><time>2026-05-06T01:25:26.000Z</time></trkpt>
        <trkpt lat="29.5550973" lon="103.3451484"><ele>2166.58</ele><time>2026-05-06T01:25:38.000Z</time></trkpt>
        <trkpt lat="29.5549999" lon="103.3451625"><ele>2168.28</ele><time>2026-05-06T01:25:54.000Z</time></trkpt>
        <trkpt lat="29.5549102" lon="103.3451972"><ele>2170.61</ele><time>2026-05-06T01:26:12.000Z</time></trkpt>
        <trkpt lat="29.554847" lon="103.3452711"><ele>2171.82</ele><time>2026-05-06T01:26:50.000Z</time></trkpt>
        <trkpt lat="29.5547739" lon="103.3453314"><ele>2171.98</ele><time>2026-05-06T01:27:30.000Z</time></trkpt>
        <trkpt lat="29.5546878" lon="103.3453743"><ele>2174.59</ele><time>2026-05-06T01:28:16.000Z</time></trkpt>
        <trkpt lat="29.5546012" lon="103.3454144"><ele>2178.46</ele><time>2026-05-06T01:28:58.000Z</time></trkpt>
        <trkpt lat="29.55451" lon="103.3454221"><ele>2180.77</ele><time>2026-05-06T01:29:24.000Z</time></trkpt>
        <trkpt lat="29.5544174" lon="103.345433"><ele>2185.34</ele><time>2026-05-06T01:30:06.000Z</time></trkpt>
        <trkpt lat="29.5543206" lon="103.3454483"><ele>2190.18</ele><time>2026-05-06T01:31:12.000Z</time></trkpt>
        <trkpt lat="29.5542298" lon="103.3454608"><ele>2194.34</ele><time>2026-05-06T01:31:50.000Z</time></trkpt>
        <trkpt lat="29.5541373" lon="103.3454798"><ele>2198.91</ele><time>2026-05-06T01:32:28.000Z</time></trkpt>
        <trkpt lat="29.5540468" lon="103.3454794"><ele>2203.64</ele><time>2026-05-06T01:32:50.000Z</time></trkpt>
        <trkpt lat="29.5539618" lon="103.3454295"><ele>2208.64</ele><time>2026-05-06T01:33:24.000Z</time></trkpt>
        <trkpt lat="29.5538807" lon="103.3453719"><ele>2213.73</ele><time>2026-05-06T01:33:40.000Z</time></trkpt>
        <trkpt lat="29.5537913" lon="103.3453416"><ele>2217.29</ele><time>2026-05-06T01:33:54.000Z</time></trkpt>
        <trkpt lat="29.5537025" lon="103.3453101"><ele>2220.31</ele><time>2026-05-06T01:34:12.000Z</time></trkpt>
        <trkpt lat="29.5536018" lon="103.345311"><ele>2223.17</ele><time>2026-05-06T01:34:40.000Z</time></trkpt>
        <trkpt lat="29.5535058" lon="103.3453104"><ele>2226.56</ele><time>2026-05-06T01:35:18.000Z</time></trkpt>
        <trkpt lat="29.5534166" lon="103.3453481"><ele>2228.07</ele><time>2026-05-06T01:35:36.000Z</time></trkpt>
        <trkpt lat="29.5531736" lon="103.3453066"><ele>2230.68</ele><time>2026-05-06T01:40:49.000Z</time></trkpt>
        <trkpt lat="29.5528534" lon="103.3454262"><ele>2241.73</ele><time>2026-05-06T01:41:31.000Z</time></trkpt>
        <trkpt lat="29.552712" lon="103.3454414"><ele>2247.01</ele><time>2026-05-06T01:41:43.000Z</time></trkpt>
        <trkpt lat="29.5474308" lon="103.3408533"><ele>2247.68</ele><time>2026-05-06T02:07:55.000Z</time></trkpt>
        <trkpt lat="29.5477393" lon="103.3402639"><ele>2285.78</ele><time>2026-05-06T02:11:36.000Z</time></trkpt>
        <trkpt lat="29.5469796" lon="103.3396886"><ele>2298.23</ele><time>2026-05-06T02:15:42.000Z</time></trkpt>
        <trkpt lat="29.5465655" lon="103.3388325"><ele>2331.64</ele><time>2026-05-06T02:22:18.000Z</time></trkpt>
        <trkpt lat="29.5465622" lon="103.3389229"><ele>2352.54</ele><time>2026-05-06T02:23:25.000Z</time></trkpt>
        <trkpt lat="29.5463554" lon="103.3378609"><ele>2375.88</ele><time>2026-05-06T02:30:30.000Z</time></trkpt>
        <trkpt lat="29.5465923" lon="103.3371014"><ele>2395.32</ele><time>2026-05-06T02:34:22.000Z</time></trkpt>
        <trkpt lat="29.5465202" lon="103.3370175"><ele>2409.86</ele><time>2026-05-06T02:35:15.000Z</time></trkpt>
        <trkpt lat="29.5465017" lon="103.3368964"><ele>2418.7</ele><time>2026-05-06T02:35:31.000Z</time></trkpt>
        <trkpt lat="29.546471" lon="103.3367944"><ele>2424.9</ele><time>2026-05-06T02:35:41.000Z</time></trkpt>
        <trkpt lat="29.5464552" lon="103.3366919"><ele>2428.14</ele><time>2026-05-06T02:35:53.000Z</time></trkpt>
        <trkpt lat="29.5464763" lon="103.336581"><ele>2428.96</ele><time>2026-05-06T02:36:03.000Z</time></trkpt>
        <trkpt lat="29.5465065" lon="103.3364718"><ele>2429.03</ele><time>2026-05-06T02:36:21.000Z</time></trkpt>
        <trkpt lat="29.5465395" lon="103.3363681"><ele>2426.08</ele><time>2026-05-06T02:36:37.000Z</time></trkpt>
        <trkpt lat="29.5465431" lon="103.3362576"><ele>2423.48</ele><time>2026-05-06T02:36:59.000Z</time></trkpt>
        <trkpt lat="29.5465487" lon="103.3361504"><ele>2421.79</ele><time>2026-05-06T02:37:11.000Z</time></trkpt>
        <trkpt lat="29.5466093" lon="103.3360653"><ele>2419.81</ele><time>2026-05-06T02:37:27.000Z</time></trkpt>
        <trkpt lat="29.5466595" lon="103.3359753"><ele>2418.67</ele><time>2026-05-06T02:37:41.000Z</time></trkpt>
        <trkpt lat="29.5467022" lon="103.3358827"><ele>2416.13</ele><time>2026-05-06T02:37:55.000Z</time></trkpt>
        <trkpt lat="29.5467224" lon="103.3357721"><ele>2414.8</ele><time>2026-05-06T02:38:07.000Z</time></trkpt>
        <trkpt lat="29.5467383" lon="103.3356639"><ele>2414.27</ele><time>2026-05-06T02:38:21.000Z</time></trkpt>
        <trkpt lat="29.5467712" lon="103.335549"><ele>2411.68</ele><time>2026-05-06T02:38:35.000Z</time></trkpt>
        <trkpt lat="29.5467933" lon="103.3354412"><ele>2408.27</ele><time>2026-05-06T02:38:47.000Z</time></trkpt>
        <trkpt lat="29.5468203" lon="103.3353333"><ele>2407.54</ele><time>2026-05-06T02:38:59.000Z</time></trkpt>
        <trkpt lat="29.5468562" lon="103.3352321"><ele>2407.66</ele><time>2026-05-06T02:39:13.000Z</time></trkpt>
        <trkpt lat="29.5468554" lon="103.3351195"><ele>2407.04</ele><time>2026-05-06T02:39:31.000Z</time></trkpt>
        <trkpt lat="29.5468136" lon="103.3350176"><ele>2406.9</ele><time>2026-05-06T02:39:43.000Z</time></trkpt>
        <trkpt lat="29.5467425" lon="103.3349388"><ele>2406.62</ele><time>2026-05-06T02:39:55.000Z</time></trkpt>
        <trkpt lat="29.5466484" lon="103.3348962"><ele>2407.31</ele><time>2026-05-06T02:40:07.000Z</time></trkpt>
        <trkpt lat="29.5465683" lon="103.3348263"><ele>2406.06</ele><time>2026-05-06T02:40:21.000Z</time></trkpt>
        <trkpt lat="29.5464799" lon="103.3347767"><ele>2404.82</ele><time>2026-05-06T02:40:35.000Z</time></trkpt>
        <trkpt lat="29.5463879" lon="103.3347471"><ele>2403.93</ele><time>2026-05-06T02:40:55.000Z</time></trkpt>
        <trkpt lat="29.5462934" lon="103.3347424"><ele>2404.76</ele><time>2026-05-06T02:41:27.000Z</time></trkpt>
        <trkpt lat="29.5462036" lon="103.3347674"><ele>2407.97</ele><time>2026-05-06T02:41:55.000Z</time></trkpt>
        <trkpt lat="29.5461112" lon="103.3347596"><ele>2411.88</ele><time>2026-05-06T02:42:45.000Z</time></trkpt>
        <trkpt lat="29.5460184" lon="103.3347411"><ele>2413.2</ele><time>2026-05-06T02:42:57.000Z</time></trkpt>
        <trkpt lat="29.5459269" lon="103.3347173"><ele>2414.06</ele><time>2026-05-06T02:43:13.000Z</time></trkpt>
        <trkpt lat="29.5458843" lon="103.3346271"><ele>2413.56</ele><time>2026-05-06T02:43:29.000Z</time></trkpt>
        <trkpt lat="29.5458327" lon="103.3345372"><ele>2412.44</ele><time>2026-05-06T02:43:41.000Z</time></trkpt>
        <trkpt lat="29.5457508" lon="103.3344722"><ele>2411.71</ele><time>2026-05-06T02:43:57.000Z</time></trkpt>
        <trkpt lat="29.5456587" lon="103.3344309"><ele>2408.58</ele><time>2026-05-06T02:44:09.000Z</time></trkpt>
        <trkpt lat="29.5455589" lon="103.3343974"><ele>2407.44</ele><time>2026-05-06T02:44:23.000Z</time></trkpt>
        <trkpt lat="29.5454754" lon="103.3343399"><ele>2404.3</ele><time>2026-05-06T02:44:49.000Z</time></trkpt>
        <trkpt lat="29.5453929" lon="103.3342831"><ele>2401.2</ele><time>2026-05-06T02:45:01.000Z</time></trkpt>
        <trkpt lat="29.5453198" lon="103.3342051"><ele>2401.76</ele><time>2026-05-06T02:45:17.000Z</time></trkpt>
        <trkpt lat="29.5452554" lon="103.3341184"><ele>2402.01</ele><time>2026-05-06T02:45:35.000Z</time></trkpt>
        <trkpt lat="29.5451697" lon="103.3340656"><ele>2402.15</ele><time>2026-05-06T02:45:49.000Z</time></trkpt>
        <trkpt lat="29.5450705" lon="103.3340491"><ele>2403.18</ele><time>2026-05-06T02:46:01.000Z</time></trkpt>
        <trkpt lat="29.5449632" lon="103.3340568"><ele>2405.71</ele><time>2026-05-06T02:46:15.000Z</time></trkpt>
        <trkpt lat="29.5448583" lon="103.3340753"><ele>2407.81</ele><time>2026-05-06T02:46:27.000Z</time></trkpt>
        <trkpt lat="29.5447863" lon="103.3341492"><ele>2408.49</ele><time>2026-05-06T02:46:37.000Z</time></trkpt>
        <trkpt lat="29.5447266" lon="103.3342357"><ele>2410.3</ele><time>2026-05-06T02:46:47.000Z</time></trkpt>
        <trkpt lat="29.5446384" lon="103.3342765"><ele>2411.18</ele><time>2026-05-06T02:47:01.000Z</time></trkpt>
        <trkpt lat="29.5445492" lon="103.3342467"><ele>2411.67</ele><time>2026-05-06T02:47:13.000Z</time></trkpt>
        <trkpt lat="29.5444607" lon="103.3341798"><ele>2410.58</ele><time>2026-05-06T02:47:25.000Z</time></trkpt>
        <trkpt lat="29.5443697" lon="103.3341553"><ele>2409.5</ele><time>2026-05-06T02:47:37.000Z</time></trkpt>
        <trkpt lat="29.5442822" lon="103.3341192"><ele>2408.25</ele><time>2026-05-06T02:47:51.000Z</time></trkpt>
        <trkpt lat="29.5441864" lon="103.3341044"><ele>2406.68</ele><time>2026-05-06T02:48:05.000Z</time></trkpt>
        <trkpt lat="29.5440903" lon="103.3340782"><ele>2404.85</ele><time>2026-05-06T02:48:19.000Z</time></trkpt>
        <trkpt lat="29.5440023" lon="103.3340216"><ele>2404.08</ele><time>2026-05-06T02:48:35.000Z</time></trkpt>
        <trkpt lat="29.5439403" lon="103.3339375"><ele>2403.26</ele><time>2026-05-06T02:48:51.000Z</time></trkpt>
        <trkpt lat="29.5438512" lon="103.333907"><ele>2402.27</ele><time>2026-05-06T02:49:05.000Z</time></trkpt>
        <trkpt lat="29.5437536" lon="103.3339147"><ele>2402.58</ele><time>2026-05-06T02:49:19.000Z</time></trkpt>
        <trkpt lat="29.5436638" lon="103.3338765"><ele>2404.86</ele><time>2026-05-06T02:50:03.000Z</time></trkpt>
        <trkpt lat="29.5435917" lon="103.333804"><ele>2406.06</ele><time>2026-05-06T02:50:19.000Z</time></trkpt>
        <trkpt lat="29.543539" lon="103.3337158"><ele>2407.32</ele><time>2026-05-06T02:50:35.000Z</time></trkpt>
        <trkpt lat="29.5434669" lon="103.3336445"><ele>2408.02</ele><time>2026-05-06T02:50:51.000Z</time></trkpt>
        <trkpt lat="29.5434218" lon="103.3335532"><ele>2410.7</ele><time>2026-05-06T02:51:07.000Z</time></trkpt>
        <trkpt lat="29.5433964" lon="103.3334405"><ele>2409.85</ele><time>2026-05-06T02:51:21.000Z</time></trkpt>
        <trkpt lat="29.5433845" lon="103.3333268"><ele>2406.68</ele><time>2026-05-06T02:51:35.000Z</time></trkpt>
        <trkpt lat="29.54337" lon="103.3332117"><ele>2403.55</ele><time>2026-05-06T02:51:49.000Z</time></trkpt>
        <trkpt lat="29.5433243" lon="103.3331187"><ele>2400.55</ele><time>2026-05-06T02:52:33.000Z</time></trkpt>
        <trkpt lat="29.5432651" lon="103.3330373"><ele>2397.31</ele><time>2026-05-06T02:52:51.000Z</time></trkpt>
        <trkpt lat="29.5431867" lon="103.3329662"><ele>2394.73</ele><time>2026-05-06T02:53:05.000Z</time></trkpt>
        <trkpt lat="29.5430862" lon="103.3329523"><ele>2394.49</ele><time>2026-05-06T02:53:15.000Z</time></trkpt>
        <trkpt lat="29.5429845" lon="103.3329424"><ele>2397.26</ele><time>2026-05-06T02:53:27.000Z</time></trkpt>
        <trkpt lat="29.5429082" lon="103.3328821"><ele>2398.99</ele><time>2026-05-06T02:53:41.000Z</time></trkpt>
        <trkpt lat="29.542848" lon="103.3327886"><ele>2399.82</ele><time>2026-05-06T02:53:55.000Z</time></trkpt>
        <trkpt lat="29.5427989" lon="103.3326898"><ele>2399.69</ele><time>2026-05-06T02:54:11.000Z</time></trkpt>
        <trkpt lat="29.5427156" lon="103.3326439"><ele>2398.72</ele><time>2026-05-06T02:54:33.000Z</time></trkpt>
        <trkpt lat="29.5426272" lon="103.3326135"><ele>2399.31</ele><time>2026-05-06T02:54:43.000Z</time></trkpt>
        <trkpt lat="29.5425901" lon="103.3325242"><ele>2398.98</ele><time>2026-05-06T02:54:55.000Z</time></trkpt>
        <trkpt lat="29.5425588" lon="103.3324178"><ele>2397.17</ele><time>2026-05-06T02:55:11.000Z</time></trkpt>
        <trkpt lat="29.542504" lon="103.3323161"><ele>2396.93</ele><time>2026-05-06T02:55:23.000Z</time></trkpt>
        <trkpt lat="29.54245" lon="103.3322099"><ele>2397.46</ele><time>2026-05-06T02:55:34.000Z</time></trkpt>
        <trkpt lat="29.542391" lon="103.3321186"><ele>2398.96</ele><time>2026-05-06T02:55:44.000Z</time></trkpt>
        <trkpt lat="29.5423358" lon="103.3320309"><ele>2400.58</ele><time>2026-05-06T02:55:54.000Z</time></trkpt>
        <trkpt lat="29.5422875" lon="103.3319391"><ele>2401.99</ele><time>2026-05-06T02:56:04.000Z</time></trkpt>
        <trkpt lat="29.542254" lon="103.331842"><ele>2402.77</ele><time>2026-05-06T02:56:16.000Z</time></trkpt>
        <trkpt lat="29.5422342" lon="103.3317269"><ele>2398.21</ele><time>2026-05-06T02:56:27.000Z</time></trkpt>
        <trkpt lat="29.5422669" lon="103.3316249"><ele>2397.29</ele><time>2026-05-06T02:56:51.000Z</time></trkpt>
        <trkpt lat="29.5423005" lon="103.3315226"><ele>2394.77</ele><time>2026-05-06T02:57:17.000Z</time></trkpt>
        <trkpt lat="29.542311" lon="103.3314092"><ele>2391.03</ele><time>2026-05-06T02:57:59.000Z</time></trkpt>
        <trkpt lat="29.5423548" lon="103.331301"><ele>2391.29</ele><time>2026-05-06T02:58:16.000Z</time></trkpt>
        <trkpt lat="29.5424144" lon="103.3312106"><ele>2390.6</ele><time>2026-05-06T02:58:26.000Z</time></trkpt>
        <trkpt lat="29.5425505" lon="103.330972"><ele>2389.82</ele><time>2026-05-06T02:59:04.000Z</time></trkpt>
        <trkpt lat="29.5426343" lon="103.330827"><ele>2382.9</ele><time>2026-05-06T02:59:12.000Z</time></trkpt>
        <trkpt lat="29.5425991" lon="103.330842"><ele>2381.08</ele><time>2026-05-06T02:59:48.000Z</time></trkpt>
        <trkpt lat="29.5425488" lon="103.330944"><ele>2384.25</ele><time>2026-05-06T02:59:58.000Z</time></trkpt>
        <trkpt lat="29.5424893" lon="103.3310552"><ele>2386.71</ele><time>2026-05-06T03:00:08.000Z</time></trkpt>
        <trkpt lat="29.5424168" lon="103.3311661"><ele>2388.44</ele><time>2026-05-06T03:00:20.000Z</time></trkpt>
        <trkpt lat="29.5423528" lon="103.3312645"><ele>2390</ele><time>2026-05-06T03:00:30.000Z</time></trkpt>
        <trkpt lat="29.542297" lon="103.3313756"><ele>2390.32</ele><time>2026-05-06T03:00:42.000Z</time></trkpt>
        <trkpt lat="29.5422402" lon="103.3314726"><ele>2391.13</ele><time>2026-05-06T03:00:52.000Z</time></trkpt>
        <trkpt lat="29.5421694" lon="103.331545"><ele>2392.05</ele><time>2026-05-06T03:01:03.000Z</time></trkpt>
        <trkpt lat="29.5420779" lon="103.3315864"><ele>2392.7</ele><time>2026-05-06T03:01:17.000Z</time></trkpt>
        <trkpt lat="29.5419819" lon="103.3316094"><ele>2392.77</ele><time>2026-05-06T03:01:27.000Z</time></trkpt>
        <trkpt lat="29.5418824" lon="103.3316173"><ele>2390.23</ele><time>2026-05-06T03:01:37.000Z</time></trkpt>
        <trkpt lat="29.5417859" lon="103.3316105"><ele>2388.39</ele><time>2026-05-06T03:01:47.000Z</time></trkpt>
        <trkpt lat="29.5416864" lon="103.3315809"><ele>2387.19</ele><time>2026-05-06T03:01:59.000Z</time></trkpt>
        <trkpt lat="29.5415896" lon="103.3315368"><ele>2385.84</ele><time>2026-05-06T03:02:09.000Z</time></trkpt>
        <trkpt lat="29.5415058" lon="103.3314731"><ele>2384.46</ele><time>2026-05-06T03:02:19.000Z</time></trkpt>
        <trkpt lat="29.5414365" lon="103.3313963"><ele>2383.55</ele><time>2026-05-06T03:02:29.000Z</time></trkpt>
        <trkpt lat="29.5413642" lon="103.3313212"><ele>2382.89</ele><time>2026-05-06T03:02:39.000Z</time></trkpt>
        <trkpt lat="29.5413724" lon="103.3312255"><ele>2383.01</ele><time>2026-05-06T03:02:51.000Z</time></trkpt>
        <trkpt lat="29.5415255" lon="103.3312202"><ele>2381.76</ele><time>2026-05-06T03:04:01.000Z</time></trkpt>
        <trkpt lat="29.5414081" lon="103.3314958"><ele>2380.9</ele><time>2026-05-06T03:06:45.000Z</time></trkpt>
        <trkpt lat="29.54138" lon="103.3316809"><ele>2380.6</ele><time>2026-05-06T03:07:19.000Z</time></trkpt>
        <trkpt lat="29.54138" lon="103.3316809"><ele>2380.6</ele><time>2026-05-06T03:07:46.000Z</time></trkpt>
      </trkseg>
      <trkseg>
        <trkpt lat="29.5412679" lon="103.3316962"><ele>2380.13</ele><time>2026-05-06T04:07:19.000Z</time></trkpt>
        <trkpt lat="29.5412679" lon="103.3316962"><ele>2380.13</ele><time>2026-05-06T04:10:42.000Z</time></trkpt>
        <trkpt lat="29.5412971" lon="103.33159"><ele>2395.82</ele><time>2026-05-06T04:11:00.000Z</time></trkpt>
        <trkpt lat="29.5412533" lon="103.3316626"><ele>2403.76</ele><time>2026-05-06T04:11:28.000Z</time></trkpt>
        <trkpt lat="29.5411829" lon="103.3317363"><ele>2395.61</ele><time>2026-05-06T04:11:38.000Z</time></trkpt>
        <trkpt lat="29.5411023" lon="103.3317715"><ele>2390.23</ele><time>2026-05-06T04:11:54.000Z</time></trkpt>
        <trkpt lat="29.5410098" lon="103.3317908"><ele>2387.62</ele><time>2026-05-06T04:12:28.000Z</time></trkpt>
        <trkpt lat="29.5409079" lon="103.3317959"><ele>2388.07</ele><time>2026-05-06T04:12:44.000Z</time></trkpt>
        <trkpt lat="29.5408179" lon="103.3317618"><ele>2390.66</ele><time>2026-05-06T04:12:56.000Z</time></trkpt>
        <trkpt lat="29.5407275" lon="103.3317401"><ele>2390.95</ele><time>2026-05-06T04:13:08.000Z</time></trkpt>
        <trkpt lat="29.5406343" lon="103.3317581"><ele>2391.89</ele><time>2026-05-06T04:13:18.000Z</time></trkpt>
        <trkpt lat="29.5405456" lon="103.3318119"><ele>2392.36</ele><time>2026-05-06T04:13:32.000Z</time></trkpt>
        <trkpt lat="29.5404555" lon="103.3318641"><ele>2392.36</ele><time>2026-05-06T04:13:46.000Z</time></trkpt>
        <trkpt lat="29.54036" lon="103.3319152"><ele>2393.97</ele><time>2026-05-06T04:13:58.000Z</time></trkpt>
        <trkpt lat="29.5402713" lon="103.3319535"><ele>2397.06</ele><time>2026-05-06T04:14:10.000Z</time></trkpt>
        <trkpt lat="29.5401844" lon="103.3320178"><ele>2401.5</ele><time>2026-05-06T04:14:22.000Z</time></trkpt>
        <trkpt lat="29.5400981" lon="103.3320578"><ele>2402.45</ele><time>2026-05-06T04:14:34.000Z</time></trkpt>
        <trkpt lat="29.5400252" lon="103.3321224"><ele>2400.11</ele><time>2026-05-06T04:14:50.000Z</time></trkpt>
        <trkpt lat="29.5399511" lon="103.3321862"><ele>2400.82</ele><time>2026-05-06T04:15:06.000Z</time></trkpt>
        <trkpt lat="29.5398566" lon="103.3322413"><ele>2397.9</ele><time>2026-05-06T04:15:18.000Z</time></trkpt>
        <trkpt lat="29.5397624" lon="103.3322875"><ele>2394.06</ele><time>2026-05-06T04:15:28.000Z</time></trkpt>
        <trkpt lat="29.5397252" lon="103.3323798"><ele>2392.03</ele><time>2026-05-06T04:19:20.000Z</time></trkpt>
        <trkpt lat="29.5396325" lon="103.3324"><ele>2392.56</ele><time>2026-05-06T04:19:30.000Z</time></trkpt>
        <trkpt lat="29.5395356" lon="103.3324427"><ele>2393.3</ele><time>2026-05-06T04:19:40.000Z</time></trkpt>
        <trkpt lat="29.5394483" lon="103.3324827"><ele>2394.73</ele><time>2026-05-06T04:20:00.000Z</time></trkpt>
        <trkpt lat="29.5393868" lon="103.3325672"><ele>2397.72</ele><time>2026-05-06T04:20:18.000Z</time></trkpt>
        <trkpt lat="29.5393241" lon="103.3326609"><ele>2400.3</ele><time>2026-05-06T04:20:32.000Z</time></trkpt>
        <trkpt lat="29.5392581" lon="103.3327458"><ele>2401.64</ele><time>2026-05-06T04:20:46.000Z</time></trkpt>
        <trkpt lat="29.5391784" lon="103.3328128"><ele>2404.45</ele><time>2026-05-06T04:21:06.000Z</time></trkpt>
        <trkpt lat="29.5391027" lon="103.3328742"><ele>2408.12</ele><time>2026-05-06T04:21:16.000Z</time></trkpt>
        <trkpt lat="29.5390324" lon="103.3329454"><ele>2411.55</ele><time>2026-05-06T04:21:26.000Z</time></trkpt>
        <trkpt lat="29.5389647" lon="103.3330252"><ele>2413.93</ele><time>2026-05-06T04:21:38.000Z</time></trkpt>
        <trkpt lat="29.5388763" lon="103.3330791"><ele>2414.19</ele><time>2026-05-06T04:21:48.000Z</time></trkpt>
        <trkpt lat="29.5387815" lon="103.3331197"><ele>2415.4</ele><time>2026-05-06T04:21:58.000Z</time></trkpt>
        <trkpt lat="29.5386856" lon="103.3331497"><ele>2416.45</ele><time>2026-05-06T04:22:08.000Z</time></trkpt>
        <trkpt lat="29.5385858" lon="103.3331616"><ele>2416.89</ele><time>2026-05-06T04:22:18.000Z</time></trkpt>
        <trkpt lat="29.5384862" lon="103.3331686"><ele>2417.82</ele><time>2026-05-06T04:22:30.000Z</time></trkpt>
        <trkpt lat="29.5383881" lon="103.3331674"><ele>2418.13</ele><time>2026-05-06T04:22:42.000Z</time></trkpt>
        <trkpt lat="29.5382942" lon="103.3331899"><ele>2417.03</ele><time>2026-05-06T04:22:54.000Z</time></trkpt>
        <trkpt lat="29.5382144" lon="103.3332564"><ele>2416.9</ele><time>2026-05-06T04:23:04.000Z</time></trkpt>
        <trkpt lat="29.5381275" lon="103.3333282"><ele>2416.11</ele><time>2026-05-06T04:23:16.000Z</time></trkpt>
        <trkpt lat="29.5380391" lon="103.3333937"><ele>2415.9</ele><time>2026-05-06T04:23:26.000Z</time></trkpt>
        <trkpt lat="29.5379509" lon="103.3334384"><ele>2417.18</ele><time>2026-05-06T04:23:36.000Z</time></trkpt>
        <trkpt lat="29.5378532" lon="103.3334758"><ele>2418.03</ele><time>2026-05-06T04:23:48.000Z</time></trkpt>
        <trkpt lat="29.5377637" lon="103.3335324"><ele>2419.48</ele><time>2026-05-06T04:23:58.000Z</time></trkpt>
        <trkpt lat="29.5376939" lon="103.333615"><ele>2420.44</ele><time>2026-05-06T04:24:10.000Z</time></trkpt>
        <trkpt lat="29.5376195" lon="103.3336898"><ele>2420.18</ele><time>2026-05-06T04:24:22.000Z</time></trkpt>
        <trkpt lat="29.5375294" lon="103.3337263"><ele>2419.94</ele><time>2026-05-06T04:24:34.000Z</time></trkpt>
        <trkpt lat="29.5374352" lon="103.3337209"><ele>2420.95</ele><time>2026-05-06T04:24:48.000Z</time></trkpt>
        <trkpt lat="29.5373437" lon="103.3337301"><ele>2421.98</ele><time>2026-05-06T04:25:00.000Z</time></trkpt>
        <trkpt lat="29.5372782" lon="103.3337908"><ele>2423.32</ele><time>2026-05-06T04:25:10.000Z</time></trkpt>
        <trkpt lat="29.5372468" lon="103.3338902"><ele>2424.9</ele><time>2026-05-06T04:25:22.000Z</time></trkpt>
        <trkpt lat="29.5372247" lon="103.334009"><ele>2426.31</ele><time>2026-05-06T04:25:40.000Z</time></trkpt>
        <trkpt lat="29.5371848" lon="103.3341127"><ele>2427.37</ele><time>2026-05-06T04:25:54.000Z</time></trkpt>
        <trkpt lat="29.537108" lon="103.334174"><ele>2430.27</ele><time>2026-05-06T04:26:10.000Z</time></trkpt>
        <trkpt lat="29.5370239" lon="103.3342246"><ele>2431.6</ele><time>2026-05-06T04:26:22.000Z</time></trkpt>
        <trkpt lat="29.5369296" lon="103.3342505"><ele>2435.08</ele><time>2026-05-06T04:26:38.000Z</time></trkpt>
        <trkpt lat="29.5368283" lon="103.3342724"><ele>2436.92</ele><time>2026-05-06T04:26:54.000Z</time></trkpt>
        <trkpt lat="29.5367288" lon="103.3343077"><ele>2439.17</ele><time>2026-05-06T04:27:10.000Z</time></trkpt>
        <trkpt lat="29.5366368" lon="103.334351"><ele>2442.51</ele><time>2026-05-06T04:27:22.000Z</time></trkpt>
        <trkpt lat="29.5365411" lon="103.3343414"><ele>2447.02</ele><time>2026-05-06T04:27:34.000Z</time></trkpt>
        <trkpt lat="29.5364393" lon="103.3343265"><ele>2450.63</ele><time>2026-05-06T04:27:46.000Z</time></trkpt>
        <trkpt lat="29.5364024" lon="103.3343157"><ele>2450.31</ele><time>2026-05-06T04:27:50.000Z</time></trkpt>
        <trkpt lat="29.5363344" lon="103.3343355"><ele>2450.02</ele><time>2026-05-06T04:28:14.000Z</time></trkpt>
        <trkpt lat="29.5362454" lon="103.334331"><ele>2448.07</ele><time>2026-05-06T04:28:32.000Z</time></trkpt>
        <trkpt lat="29.5361523" lon="103.3343027"><ele>2446.9</ele><time>2026-05-06T04:28:46.000Z</time></trkpt>
        <trkpt lat="29.5360723" lon="103.3342443"><ele>2448.06</ele><time>2026-05-06T04:28:58.000Z</time></trkpt>
        <trkpt lat="29.5359946" lon="103.3341788"><ele>2447.95</ele><time>2026-05-06T04:29:12.000Z</time></trkpt>
        <trkpt lat="29.5359182" lon="103.3341174"><ele>2449.56</ele><time>2026-05-06T04:29:26.000Z</time></trkpt>
        <trkpt lat="29.5358331" lon="103.3340772"><ele>2452.46</ele><time>2026-05-06T04:29:40.000Z</time></trkpt>
        <trkpt lat="29.5357389" lon="103.3340554"><ele>2457.73</ele><time>2026-05-06T04:29:52.000Z</time></trkpt>
        <trkpt lat="29.5356535" lon="103.3339992"><ele>2464.27</ele><time>2026-05-06T04:30:04.000Z</time></trkpt>
        <trkpt lat="29.5355978" lon="103.3339108"><ele>2467.2</ele><time>2026-05-06T04:30:18.000Z</time></trkpt>
        <trkpt lat="29.5355534" lon="103.3338127"><ele>2466.4</ele><time>2026-05-06T04:30:36.000Z</time></trkpt>
        <trkpt lat="29.5347941" lon="103.3320578"><ele>2466.54</ele><time>2026-05-06T04:36:06.000Z</time></trkpt>
        <trkpt lat="29.5347527" lon="103.3321675"><ele>2483.33</ele><time>2026-05-06T04:36:35.000Z</time></trkpt>
        <trkpt lat="29.534737" lon="103.3322886"><ele>2487.73</ele><time>2026-05-06T04:36:45.000Z</time></trkpt>
        <trkpt lat="29.5347269" lon="103.3324121"><ele>2490.01</ele><time>2026-05-06T04:36:55.000Z</time></trkpt>
        <trkpt lat="29.5347362" lon="103.332533"><ele>2491.67</ele><time>2026-05-06T04:37:07.000Z</time></trkpt>
        <trkpt lat="29.5347606" lon="103.3326473"><ele>2492.88</ele><time>2026-05-06T04:37:19.000Z</time></trkpt>
        <trkpt lat="29.534798" lon="103.3327617"><ele>2494.14</ele><time>2026-05-06T04:37:31.000Z</time></trkpt>
        <trkpt lat="29.5348537" lon="103.3328558"><ele>2495.14</ele><time>2026-05-06T04:37:42.000Z</time></trkpt>
        <trkpt lat="29.5348643" lon="103.332958"><ele>2495.67</ele><time>2026-05-06T04:37:54.000Z</time></trkpt>
        <trkpt lat="29.5347941" lon="103.3329835"><ele>2496.41</ele><time>2026-05-06T04:38:24.000Z</time></trkpt>
        <trkpt lat="29.5346978" lon="103.3329991"><ele>2497.75</ele><time>2026-05-06T04:38:40.000Z</time></trkpt>
        <trkpt lat="29.5345982" lon="103.3330116"><ele>2499.49</ele><time>2026-05-06T04:38:54.000Z</time></trkpt>
        <trkpt lat="29.5345048" lon="103.3330508"><ele>2501.02</ele><time>2026-05-06T04:39:18.000Z</time></trkpt>
        <trkpt lat="29.5344142" lon="103.3330851"><ele>2504.01</ele><time>2026-05-06T04:39:30.000Z</time></trkpt>
        <trkpt lat="29.5343207" lon="103.3330796"><ele>2506.94</ele><time>2026-05-06T04:39:58.000Z</time></trkpt>
        <trkpt lat="29.5342307" lon="103.3330976"><ele>2511.03</ele><time>2026-05-06T04:40:14.000Z</time></trkpt>
        <trkpt lat="29.5341419" lon="103.333131"><ele>2513.64</ele><time>2026-05-06T04:41:02.000Z</time></trkpt>
        <trkpt lat="29.5340398" lon="103.3331635"><ele>2516.52</ele><time>2026-05-06T04:41:22.000Z</time></trkpt>
        <trkpt lat="29.533938" lon="103.3331746"><ele>2519.77</ele><time>2026-05-06T04:41:38.000Z</time></trkpt>
        <trkpt lat="29.5338527" lon="103.3331228"><ele>2522.96</ele><time>2026-05-06T04:42:28.000Z</time></trkpt>
        <trkpt lat="29.5337748" lon="103.3330607"><ele>2527.82</ele><time>2026-05-06T04:42:46.000Z</time></trkpt>
        <trkpt lat="29.5336875" lon="103.3330039"><ele>2531.35</ele><time>2026-05-06T04:43:22.000Z</time></trkpt>
        <trkpt lat="29.5336158" lon="103.3329272"><ele>2534.75</ele><time>2026-05-06T04:44:00.000Z</time></trkpt>
        <trkpt lat="29.5335389" lon="103.3328519"><ele>2538.76</ele><time>2026-05-06T04:44:34.000Z</time></trkpt>
        <trkpt lat="29.5334568" lon="103.3327943"><ele>2542.79</ele><time>2026-05-06T04:44:48.000Z</time></trkpt>
        <trkpt lat="29.5333817" lon="103.3327278"><ele>2545.25</ele><time>2026-05-06T04:45:20.000Z</time></trkpt>
        <trkpt lat="29.5333101" lon="103.3326556"><ele>2549.81</ele><time>2026-05-06T04:46:12.000Z</time></trkpt>
        <trkpt lat="29.5332326" lon="103.3325935"><ele>2553.84</ele><time>2026-05-06T04:46:44.000Z</time></trkpt>
        <trkpt lat="29.5331635" lon="103.3325382"><ele>2558.02</ele><time>2026-05-06T04:47:02.000Z</time></trkpt>
        <trkpt lat="29.5330988" lon="103.3324677"><ele>2560.99</ele><time>2026-05-06T04:47:34.000Z</time></trkpt>
        <trkpt lat="29.5330287" lon="103.3323942"><ele>2565.3</ele><time>2026-05-06T04:47:48.000Z</time></trkpt>
        <trkpt lat="29.5329501" lon="103.3323217"><ele>2568.54</ele><time>2026-05-06T04:48:04.000Z</time></trkpt>
        <trkpt lat="29.5328778" lon="103.3322459"><ele>2571.87</ele><time>2026-05-06T04:48:26.000Z</time></trkpt>
        <trkpt lat="29.5328066" lon="103.3321713"><ele>2575.06</ele><time>2026-05-06T04:48:46.000Z</time></trkpt>
        <trkpt lat="29.532752" lon="103.3320812"><ele>2577.56</ele><time>2026-05-06T04:49:18.000Z</time></trkpt>
        <trkpt lat="29.5320713" lon="103.3303744"><ele>2579.56</ele><time>2026-05-06T05:01:48.000Z</time></trkpt>
        <trkpt lat="29.5322136" lon="103.3302633"><ele>2608.07</ele><time>2026-05-06T05:02:56.000Z</time></trkpt>
        <trkpt lat="29.5321395" lon="103.3302008"><ele>2634.01</ele><time>2026-05-06T05:03:58.000Z</time></trkpt>
        <trkpt lat="29.532042" lon="103.3302357"><ele>2646.18</ele><time>2026-05-06T05:04:30.000Z</time></trkpt>
        <trkpt lat="29.5319422" lon="103.3302377"><ele>2654.15</ele><time>2026-05-06T05:05:06.000Z</time></trkpt>
        <trkpt lat="29.5318659" lon="103.330225"><ele>2659.77</ele><time>2026-05-06T05:05:30.000Z</time></trkpt>
        <trkpt lat="29.5317857" lon="103.3301727"><ele>2665.69</ele><time>2026-05-06T05:06:28.000Z</time></trkpt>
        <trkpt lat="29.5317196" lon="103.330095"><ele>2670.43</ele><time>2026-05-06T05:07:04.000Z</time></trkpt>
        <trkpt lat="29.5316437" lon="103.330032"><ele>2674.36</ele><time>2026-05-06T05:07:26.000Z</time></trkpt>
        <trkpt lat="29.5315579" lon="103.329984"><ele>2677.94</ele><time>2026-05-06T05:08:02.000Z</time></trkpt>
        <trkpt lat="29.5314715" lon="103.3299383"><ele>2681.64</ele><time>2026-05-06T05:08:22.000Z</time></trkpt>
        <trkpt lat="29.5313928" lon="103.3298772"><ele>2684.58</ele><time>2026-05-06T05:09:22.000Z</time></trkpt>
        <trkpt lat="29.5313234" lon="103.3298074"><ele>2689.7</ele><time>2026-05-06T05:10:18.000Z</time></trkpt>
        <trkpt lat="29.5312585" lon="103.3297343"><ele>2694.64</ele><time>2026-05-06T05:11:04.000Z</time></trkpt>
        <trkpt lat="29.5312055" lon="103.3296445"><ele>2700.02</ele><time>2026-05-06T05:11:52.000Z</time></trkpt>
        <trkpt lat="29.5311777" lon="103.3295391"><ele>2706.12</ele><time>2026-05-06T05:12:44.000Z</time></trkpt>
        <trkpt lat="29.5311479" lon="103.329431"><ele>2713.54</ele><time>2026-05-06T05:13:14.000Z</time></trkpt>
        <trkpt lat="29.5311347" lon="103.3293193"><ele>2718.54</ele><time>2026-05-06T05:13:32.000Z</time></trkpt>
        <trkpt lat="29.531125" lon="103.3292092"><ele>2721.88</ele><time>2026-05-06T05:13:48.000Z</time></trkpt>
        <trkpt lat="29.5311175" lon="103.3291035"><ele>2725.33</ele><time>2026-05-06T05:14:02.000Z</time></trkpt>
        <trkpt lat="29.5311235" lon="103.3289933"><ele>2728.11</ele><time>2026-05-06T05:14:20.000Z</time></trkpt>
        <trkpt lat="29.5311218" lon="103.3288793"><ele>2730.94</ele><time>2026-05-06T05:14:40.000Z</time></trkpt>
        <trkpt lat="29.5311335" lon="103.328767"><ele>2733.73</ele><time>2026-05-06T05:14:58.000Z</time></trkpt>
        <trkpt lat="29.5311566" lon="103.3286577"><ele>2735.62</ele><time>2026-05-06T05:15:20.000Z</time></trkpt>
        <trkpt lat="29.5311685" lon="103.3285483"><ele>2737.68</ele><time>2026-05-06T05:16:06.000Z</time></trkpt>
        <trkpt lat="29.531199" lon="103.3284476"><ele>2737.76</ele><time>2026-05-06T05:16:30.000Z</time></trkpt>
        <trkpt lat="29.5312375" lon="103.3283484"><ele>2738.67</ele><time>2026-05-06T05:16:44.000Z</time></trkpt>
        <trkpt lat="29.5312638" lon="103.3282462"><ele>2740.96</ele><time>2026-05-06T05:16:56.000Z</time></trkpt>
        <trkpt lat="29.5312802" lon="103.3281388"><ele>2742.73</ele><time>2026-05-06T05:17:08.000Z</time></trkpt>
        <trkpt lat="29.5312847" lon="103.3280295"><ele>2743.91</ele><time>2026-05-06T05:17:22.000Z</time></trkpt>
        <trkpt lat="29.5312965" lon="103.3279201"><ele>2745.26</ele><time>2026-05-06T05:17:38.000Z</time></trkpt>
        <trkpt lat="29.5312787" lon="103.3278183"><ele>2747.1</ele><time>2026-05-06T05:18:04.000Z</time></trkpt>
        <trkpt lat="29.5312649" lon="103.3277139"><ele>2749.1</ele><time>2026-05-06T05:18:22.000Z</time></trkpt>
        <trkpt lat="29.5312575" lon="103.3276104"><ele>2750.72</ele><time>2026-05-06T05:18:56.000Z</time></trkpt>
        <trkpt lat="29.5312588" lon="103.3275024"><ele>2753.77</ele><time>2026-05-06T05:19:16.000Z</time></trkpt>
        <trkpt lat="29.531261" lon="103.3273953"><ele>2757.03</ele><time>2026-05-06T05:19:54.000Z</time></trkpt>
        <trkpt lat="29.5312628" lon="103.3272889"><ele>2758.98</ele><time>2026-05-06T05:20:38.000Z</time></trkpt>
        <trkpt lat="29.5312367" lon="103.327186"><ele>2762.34</ele><time>2026-05-06T05:20:58.000Z</time></trkpt>
        <trkpt lat="29.5311863" lon="103.3270961"><ele>2765.99</ele><time>2026-05-06T05:21:36.000Z</time></trkpt>
        <trkpt lat="29.5311103" lon="103.3270174"><ele>2769.58</ele><time>2026-05-06T05:22:00.000Z</time></trkpt>
        <trkpt lat="29.5310256" lon="103.3269628"><ele>2773.4</ele><time>2026-05-06T05:22:16.000Z</time></trkpt>
        <trkpt lat="29.5309287" lon="103.32694"><ele>2776.87</ele><time>2026-05-06T05:22:32.000Z</time></trkpt>
        <trkpt lat="29.530869" lon="103.3268676"><ele>2778.86</ele><time>2026-05-06T05:23:24.000Z</time></trkpt>
        <trkpt lat="29.530783" lon="103.3268112"><ele>2782.2</ele><time>2026-05-06T05:24:10.000Z</time></trkpt>
        <trkpt lat="29.5306502" lon="103.3268042"><ele>2785.85</ele><time>2026-05-06T05:26:10.000Z</time></trkpt>
        <trkpt lat="29.530657" lon="103.3268477"><ele>2788.44</ele><time>2026-05-06T05:26:16.000Z</time></trkpt>
        <trkpt lat="29.5303968" lon="103.3268974"><ele>2790.53</ele><time>2026-05-06T05:28:03.000Z</time></trkpt>
        <trkpt lat="29.530388" lon="103.3269017"><ele>2795.07</ele><time>2026-05-06T05:28:05.000Z</time></trkpt>
        <trkpt lat="29.5296521" lon="103.3278264"><ele>2801.15</ele><time>2026-05-06T05:31:56.000Z</time></trkpt>
        <trkpt lat="29.5296508" lon="103.3278143"><ele>2802.02</ele><time>2026-05-06T05:31:59.000Z</time></trkpt>
        <trkpt lat="29.529566" lon="103.3277877"><ele>2807.12</ele><time>2026-05-06T05:32:35.000Z</time></trkpt>
        <trkpt lat="29.5294743" lon="103.3277728"><ele>2812.19</ele><time>2026-05-06T05:32:47.000Z</time></trkpt>
        <trkpt lat="29.5293775" lon="103.3277581"><ele>2815.17</ele><time>2026-05-06T05:33:01.000Z</time></trkpt>
        <trkpt lat="29.5292864" lon="103.3277919"><ele>2815.47</ele><time>2026-05-06T05:33:21.000Z</time></trkpt>
        <trkpt lat="29.5292378" lon="103.3278921"><ele>2814.42</ele><time>2026-05-06T05:33:31.000Z</time></trkpt>
        <trkpt lat="29.5292072" lon="103.3280107"><ele>2814.47</ele><time>2026-05-06T05:33:49.000Z</time></trkpt>
        <trkpt lat="29.5291831" lon="103.3281243"><ele>2814.86</ele><time>2026-05-06T05:34:09.000Z</time></trkpt>
        <trkpt lat="29.5291542" lon="103.3282331"><ele>2817.42</ele><time>2026-05-06T05:34:49.000Z</time></trkpt>
        <trkpt lat="29.5291451" lon="103.3283412"><ele>2819.4</ele><time>2026-05-06T05:35:11.000Z</time></trkpt>
        <trkpt lat="29.5291364" lon="103.3284476"><ele>2820.96</ele><time>2026-05-06T05:35:31.000Z</time></trkpt>
        <trkpt lat="29.5290896" lon="103.3285383"><ele>2824.22</ele><time>2026-05-06T05:36:09.000Z</time></trkpt>
        <trkpt lat="29.5290449" lon="103.3286305"><ele>2831.05</ele><time>2026-05-06T05:36:27.000Z</time></trkpt>
        <trkpt lat="29.5290106" lon="103.3287271"><ele>2835.59</ele><time>2026-05-06T05:36:43.000Z</time></trkpt>
        <trkpt lat="29.5289836" lon="103.3288378"><ele>2838.94</ele><time>2026-05-06T05:37:17.000Z</time></trkpt>
        <trkpt lat="29.5289415" lon="103.3289379"><ele>2841.31</ele><time>2026-05-06T05:37:33.000Z</time></trkpt>
        <trkpt lat="29.5288849" lon="103.3290275"><ele>2844.14</ele><time>2026-05-06T05:37:49.000Z</time></trkpt>
        <trkpt lat="29.5288324" lon="103.3291225"><ele>2846.37</ele><time>2026-05-06T05:38:07.000Z</time></trkpt>
        <trkpt lat="29.5287749" lon="103.3292123"><ele>2848.16</ele><time>2026-05-06T05:38:35.000Z</time></trkpt>
        <trkpt lat="29.5287237" lon="103.3293002"><ele>2850.28</ele><time>2026-05-06T05:38:51.000Z</time></trkpt>
        <trkpt lat="29.5286836" lon="103.3293987"><ele>2852.16</ele><time>2026-05-06T05:39:05.000Z</time></trkpt>
        <trkpt lat="29.5286494" lon="103.3295012"><ele>2853.64</ele><time>2026-05-06T05:39:19.000Z</time></trkpt>
        <trkpt lat="29.528619" lon="103.3296092"><ele>2854.4</ele><time>2026-05-06T05:39:37.000Z</time></trkpt>
        <trkpt lat="29.5285985" lon="103.3297171"><ele>2855.32</ele><time>2026-05-06T05:39:55.000Z</time></trkpt>
        <trkpt lat="29.5285848" lon="103.3298299"><ele>2855.22</ele><time>2026-05-06T05:40:13.000Z</time></trkpt>
        <trkpt lat="29.5285702" lon="103.3299399"><ele>2858.21</ele><time>2026-05-06T05:40:29.000Z</time></trkpt>
        <trkpt lat="29.5285259" lon="103.3300351"><ele>2859.66</ele><time>2026-05-06T05:40:41.000Z</time></trkpt>
        <trkpt lat="29.528449" lon="103.3301084"><ele>2860.81</ele><time>2026-05-06T05:40:55.000Z</time></trkpt>
        <trkpt lat="29.5283722" lon="103.3301814"><ele>2860.59</ele><time>2026-05-06T05:41:09.000Z</time></trkpt>
        <trkpt lat="29.5283073" lon="103.330258"><ele>2861.64</ele><time>2026-05-06T05:41:19.000Z</time></trkpt>
        <trkpt lat="29.5282717" lon="103.3303523"><ele>2863.9</ele><time>2026-05-06T05:41:31.000Z</time></trkpt>
        <trkpt lat="29.5282785" lon="103.3304644"><ele>2865.25</ele><time>2026-05-06T05:41:55.000Z</time></trkpt>
        <trkpt lat="29.5282898" lon="103.3305762"><ele>2864.98</ele><time>2026-05-06T05:42:15.000Z</time></trkpt>
        <trkpt lat="29.5282604" lon="103.3306806"><ele>2866.32</ele><time>2026-05-06T05:42:47.000Z</time></trkpt>
        <trkpt lat="29.5281961" lon="103.330762"><ele>2865.54</ele><time>2026-05-06T05:43:17.000Z</time></trkpt>
        <trkpt lat="29.5281305" lon="103.3308487"><ele>2866.92</ele><time>2026-05-06T05:43:47.000Z</time></trkpt>
        <trkpt lat="29.5280955" lon="103.3309538"><ele>2869.51</ele><time>2026-05-06T05:44:03.000Z</time></trkpt>
        <trkpt lat="29.5280502" lon="103.3310584"><ele>2872.3</ele><time>2026-05-06T05:44:19.000Z</time></trkpt>
        <trkpt lat="29.528017" lon="103.3311678"><ele>2873.94</ele><time>2026-05-06T05:44:49.000Z</time></trkpt>
        <trkpt lat="29.5279519" lon="103.3312478"><ele>2876.75</ele><time>2026-05-06T05:45:27.000Z</time></trkpt>
        <trkpt lat="29.5278852" lon="103.3313246"><ele>2879.18</ele><time>2026-05-06T05:45:47.000Z</time></trkpt>
        <trkpt lat="29.5278129" lon="103.3313939"><ele>2879.69</ele><time>2026-05-06T05:46:03.000Z</time></trkpt>
        <trkpt lat="29.5277606" lon="103.3314831"><ele>2880.59</ele><time>2026-05-06T05:46:19.000Z</time></trkpt>
        <trkpt lat="29.5277199" lon="103.3315858"><ele>2881.42</ele><time>2026-05-06T05:46:47.000Z</time></trkpt>
        <trkpt lat="29.5276921" lon="103.3316988"><ele>2883.45</ele><time>2026-05-06T05:47:01.000Z</time></trkpt>
        <trkpt lat="29.5276765" lon="103.3318106"><ele>2885.8</ele><time>2026-05-06T05:47:13.000Z</time></trkpt>
        <trkpt lat="29.527672" lon="103.3319258"><ele>2887.43</ele><time>2026-05-06T05:47:27.000Z</time></trkpt>
        <trkpt lat="29.5276599" lon="103.3320376"><ele>2890.98</ele><time>2026-05-06T05:47:43.000Z</time></trkpt>
        <trkpt lat="29.527591" lon="103.332099"><ele>2890.28</ele><time>2026-05-06T05:48:31.000Z</time></trkpt>
        <trkpt lat="29.5275259" lon="103.3321721"><ele>2891.24</ele><time>2026-05-06T05:48:57.000Z</time></trkpt>
        <trkpt lat="29.5275225" lon="103.3322722"><ele>2894.31</ele><time>2026-05-06T05:49:37.000Z</time></trkpt>
        <trkpt lat="29.5275667" lon="103.3323645"><ele>2899.09</ele><time>2026-05-06T05:49:55.000Z</time></trkpt>
        <trkpt lat="29.527515" lon="103.3324207"><ele>2900.7</ele><time>2026-05-06T05:50:13.000Z</time></trkpt>
        <trkpt lat="29.5274361" lon="103.3324769"><ele>2899.26</ele><time>2026-05-06T05:50:31.000Z</time></trkpt>
        <trkpt lat="29.5273379" lon="103.3324957"><ele>2900.45</ele><time>2026-05-06T05:50:49.000Z</time></trkpt>
        <trkpt lat="29.5272388" lon="103.3324147"><ele>2902.67</ele><time>2026-05-06T05:52:15.000Z</time></trkpt>
        <trkpt lat="29.527214" lon="103.3322933"><ele>2906.47</ele><time>2026-05-06T05:52:29.000Z</time></trkpt>
        <trkpt lat="29.5259898" lon="103.3339936"><ele>2908.54</ele><time>2026-05-06T06:01:02.000Z</time></trkpt>
        <trkpt lat="29.5258959" lon="103.3339801"><ele>2938.35</ele><time>2026-05-06T06:01:37.000Z</time></trkpt>
        <trkpt lat="29.525802" lon="103.3340267"><ele>2951.19</ele><time>2026-05-06T06:02:11.000Z</time></trkpt>
        <trkpt lat="29.5257098" lon="103.3340625"><ele>2960.18</ele><time>2026-05-06T06:02:27.000Z</time></trkpt>
        <trkpt lat="29.5256296" lon="103.3341303"><ele>2964.05</ele><time>2026-05-06T06:02:49.000Z</time></trkpt>
        <trkpt lat="29.5255666" lon="103.3342212"><ele>2964.35</ele><time>2026-05-06T06:03:05.000Z</time></trkpt>
        <trkpt lat="29.5251704" lon="103.3348945"><ele>2964.69</ele><time>2026-05-06T06:05:52.000Z</time></trkpt>
        <trkpt lat="29.5250784" lon="103.3348992"><ele>2981.23</ele><time>2026-05-06T06:06:08.000Z</time></trkpt>
        <trkpt lat="29.5249976" lon="103.3348294"><ele>2986.05</ele><time>2026-05-06T06:06:20.000Z</time></trkpt>
        <trkpt lat="29.5249064" lon="103.3347818"><ele>2988.37</ele><time>2026-05-06T06:06:30.000Z</time></trkpt>
        <trkpt lat="29.5248071" lon="103.3347602"><ele>2990.04</ele><time>2026-05-06T06:06:42.000Z</time></trkpt>
        <trkpt lat="29.5247188" lon="103.3347218"><ele>2990.96</ele><time>2026-05-06T06:07:04.000Z</time></trkpt>
        <trkpt lat="29.5246209" lon="103.3347186"><ele>2989.5</ele><time>2026-05-06T06:07:28.000Z</time></trkpt>
        <trkpt lat="29.5245252" lon="103.3347364"><ele>2990.91</ele><time>2026-05-06T06:07:40.000Z</time></trkpt>
        <trkpt lat="29.524446" lon="103.3347902"><ele>2993.62</ele><time>2026-05-06T06:07:50.000Z</time></trkpt>
        <trkpt lat="29.5243588" lon="103.3348491"><ele>2994.58</ele><time>2026-05-06T06:08:03.000Z</time></trkpt>
        <trkpt lat="29.52427" lon="103.3348915"><ele>2995.46</ele><time>2026-05-06T06:08:14.000Z</time></trkpt>
        <trkpt lat="29.524176" lon="103.3349121"><ele>2994.84</ele><time>2026-05-06T06:08:26.000Z</time></trkpt>
        <trkpt lat="29.5240782" lon="103.3349214"><ele>2993.47</ele><time>2026-05-06T06:08:38.000Z</time></trkpt>
        <trkpt lat="29.5239792" lon="103.3349145"><ele>2992.28</ele><time>2026-05-06T06:08:52.000Z</time></trkpt>
        <trkpt lat="29.5238893" lon="103.3348742"><ele>2991.6</ele><time>2026-05-06T06:09:08.000Z</time></trkpt>
        <trkpt lat="29.5238893" lon="103.3348742"><ele>2991.6</ele><time>2026-05-06T06:09:52.000Z</time></trkpt>
      </trkseg>
  </trk>
</gpx>